Aviation Digital Data Service (ADDS)

Output produced by METARs form (1537 UTC 27 May 2017)
found at http://aviationweather.gov/adds/metars/
 
K04W 271535Z AUTO 28006KT 10SM CLR 20/09 A2988 RMK AO2
K05U 271515Z AUTO 02006KT 10SM CLR 12/M00 A3024 RMK A01
K06D 271535Z AUTO 22010KT 10SM CLR 17/06 A2978 RMK AO2
K08D 271515Z AUTO 28009G15KT 10SM CLR 16/07 A2986 RMK AO2
K0A9 271515Z AUTO 26005KT 10SM OVC044 24/17 A3002 RMK AO2 PWINO
K0E0 271515Z AUTO 27020G23KT 10SM CLR 21/M09 A3013 RMK AO2 T02061088
K0F2 271515Z AUTO 19009KT OVC018 29/24 A2983 RMK AO2 T02930243 PWINO
K0J4 271458Z AUTO VRB05KT 10SM FEW026 BKN032 26/18 A3013 RMK AO2 SLP196 T02610183 51011
K0R0 271515Z AUTO 20005KT 10SM SCT013 BKN050 27/24 A3009 RMK AO2
K0R4 271515Z AUTO 19008KT 7SM BKN019 BKN024 26/24 A2998 RMK AO2 T02620241
K0S9 271535Z AUTO 00000KT 10SM CLR 17/12 A3010 RMK AO2
K0V4 271515Z AUTO 27004KT 10SM CLR 27/16 A2991 RMK AO1 T02660159
K0VG 271515Z AUTO 00000KT 10SM BKN033 22/18 A3003 RMK AO2
K11R 271515Z AUTO 19014G20KT 7SM BKN021 BKN027 30/24 A2993 RMK AO2 T03010235
K12N 271454Z AUTO 26005KT 21/12 A2989 RMK AO1 SLP116 T02060122 58001
K14Y 271533Z AUTO 21008KT 10SM CLR 18/08 A2989 RMK AO2
K18A 271515Z AUTO 25006KT 10SM CLR 27/20 A3004 RMK AO2 T02680197
K19S 271515Z AUTO 05016G23KT 10SM OVC027 19/12 A2992 RMK AO2 T01910117
K1A5 271515Z AUTO 00000KT 10SM SCT050 SCT055 24/17 A3006 RMK AO2 T02380167
K1A6 271515Z AUTO 00000KT 10SM OVC030 23/18 A3000 RMK AO2 T02340178
K1A9 271515Z AUTO 25008KT 10SM SCT040 25/20 A3008 RMK AO2 T02460202
K1F0 271515Z AUTO 24006KT 10SM OVC021 28/22 A2983 RMK AO2
K1H2 271515Z AUTO 01004KT 10SM SCT012 22/19 A2992 RMK AO2 T02160190
K1J0 271458Z AUTO 10SM SCT024 26/20 A3011 RMK AO2 SLP154 T02610200 51006
K1K1 271515Z AUTO 03009G18KT 10SM OVC028 21/14 A2985 RMK AO2 T02090136
K1M4 271456Z AUTO 21006KT 10SM OVC047 22/19 A3007 RMK AO2 SLP190 T02220194 51015
K1M5 271515Z AUTO 16015G24KT 10SM CLR 23/20 A2984 RMK A01
K1P1 271535Z AUTO 28007KT 10SM CLR 18/09 A2986 RMK AO2 T01750086
K1QW 271458Z AUTO 36010KT 10SM CLR 17/04 A3014 RMK AO2 SLP196 WND DATA ESTMD T01720040 52015
K1R7 271335Z AUTO 00000KT 10SM SCT049 24/23 A3006 RMK AO2
K1S5 271535Z AUTO 00000KT 10SM CLR 17/08 A3009 RMK AO2 T01660076
K1V4 271454Z AUTO 16/07 A2987 RMK AO1 SLP112 T01560067 58001
K1YT 271458Z AUTO 00000KT 10SM CLR 15/06 A3008 RMK AO2 SLPNO T01510062 52013 $
K20U 271535Z AUTO 25016G21KT 10SM FEW080 SCT120 15/04 A2997 RMK AO2
K21D 271532Z AUTO 34004KT 10SM CLR 20/10 A2990 RMK AO2
K22N 271515Z AUTO 29004KT 10SM BKN032 20/12 A2990 RMK AO2
K24A 271515Z AUTO 00000KT 10SM SCT035 BKN050 21/16 A3011 RMK AO2 T02150165
K24J 271535Z AUTO 21007KT 200V260 10SM CLR 29/16 A3010 RMK A01
K28J 271535Z AUTO 00000KT 10SM CLR 29/15 A3008 RMK AO2
K2C8 271535Z AUTO 25014KT 10SM CLR 19/06 A2974 RMK AO2
K2DP 271456Z AUTO 28006KT 10SM CLR 28/16 A2992 RMK AO2 SLPNO T02810161 58006 $
K2F5 271515Z AUTO 30009KT 10SM OVC110 30/04 A2994 RMK AO2
K2G4 271510Z AUTO 21005KT 10SM BKN014 13/13 A2995 RMK AO1
K2G9 271515Z AUTO 21004KT 10SM OVC008 15/13 A2994 RMK AO2
K2I0 271535Z AUTO 00000KT 10SM SCT022 OVC031 26/23 A2989 RMK AO2 T02580229
K2P2 271515Z AUTO 19008KT 10SM CLR 16/12 A2987 RMK AO2 T01550119
K2V5 271535Z AUTO 34013G20KT 10SM SCT022 SCT026 BKN095 16/10 A3004 RMK AO2
K2W6 271513Z AUTO 10003KT 10SM CLR 23/13 A2992 RMK AO1
K2WX 271456Z AUTO 29014KT 16/04 A2993 RMK AO1 SLP128 T01610044 53006
K36U 271520Z AUTO 00000KT 10SM CLR 10/01 A3021 RMK AO2
K3AU 271515Z AUTO 01016G22KT 10SM OVC026 21/15 A2984 RMK AO2
K3D2 271515Z AUTO 13005KT 10SM CLR 19/14 A2986 RMK AO2 T01940142
K3F3 271515Z AUTO 20009G14KT 10SM OVC013 28/25 A2998 RMK AO2 T02760245
K3I2 271515Z AUTO 22005KT 10SM SCT025 SCT031 25/20 A2989 RMK AO2 T02520196
K3J7 271515Z AUTO 21006KT 10SM CLR 27/18 A3002 RMK AO2
K3K3 271515Z AUTO 36007KT 10SM BKN026 OVC041 17/11 A2997 RMK AO2
K3L4 271515Z AUTO 20012G19KT 8SM SCT017 29/25 A3000 RMK A01
K3LF 271515Z AUTO 06006KT 7SM OVC007 20/17 A2991 RMK AO2 T01980172
K3N8 271515Z AUTO 25009G14KT 10SM CLR 20/05 A2982 RMK AO2 T01970046
K3R7 271515Z AUTO 20007G14KT 10SM SCT017 SCT022 OVC042 28/24 A3001 RMK AO2 T02820235
K3T5 271515Z AUTO 20012G17KT 7SM BKN022 30/25 A2990 RMK AO2 T03000245
K40B 271516Z AUTO VRB02KT 11/06 A2988 RMK AO1 SLP131 T01130064 50000
K40J 271515Z AUTO 26003KT 10SM CLR 27/17 A3010 RMK AO2 T02700169
K42J 271535Z AUTO 00000KT 7SM CLR 28/14 A3009 RMK AO1 TSNO
K46U 271500Z AUTO 00000KT 10SM CLR 07/03 A3027 RMK A01
K4A6 271515Z AUTO 20004KT 10SM SCT070 23/19 A3005 RMK AO2
K4A9 271515Z AUTO 23003KT 10SM SCT047 BKN060 22/16 A3006 RMK AO2 TSNO
K4I3 271535Z AUTO 03003KT 10SM BKN011 OVC024 20/18 A2990 RMK AO2
K4M9 271515Z AUTO 21009KT 10SM SCT010 OVC016 25/24 A2989 RMK AO2
K4MR 271458Z AUTO 30012KT 10SM CLR 23/M08 A3001 RMK AO2 SLP101 T02271084 52014 $
K4O4 271515Z AUTO 18009KT SCT014 BKN022 OVC028 26/22 A2989 RMK AO2
K4R5 271515Z AUTO 00000KT 10SM SCT110 19/09 A2983 RMK AO2 T01930085
K4V0 271515Z AUTO 05010G14KT 10SM OVC060 13/05 A3015 RMK AO2 T01310049
K54J 271535Z AUTO 24005KT 10SM SCT029 OVC037 26/19 A3012 RMK AO2 T02610188
K57C 271515Z AUTO 18004KT 10SM SCT019 18/13 A2992 RMK AO2 T01820134
K5A6 271515Z AUTO 20005KT 10SM BKN016 BKN042 OVC070 25/23 A3000 RMK AO2 T02500225
K5C1 271515Z AUTO 18007KT 4SM OVC013 25/22 A2994 RMK AO1
K5H4 271535Z AUTO 27012KT 10SM 18/06 A2985 RMK AO2 PWINO
K5M9 271515Z AUTO 26005KT 10SM SCT011 OVC020 24/23 A2990 RMK AO2 T02410233
K5R8 271515Z AUTO 18008G16KT 10SM BKN016 OVC027 27/24 A2999 RMK AO2 T02730235
K65S 271510Z AUTO 00000KT 9SM CLR 13/05 A3015 RMK AO2
K66R 271510Z AUTO 17012G18KT 10SM OVC020 29/23 A2993 RMK AO2 T02870233
K6A1 271515Z AUTO 00000KT 10SM 30/14 A3009 RMK AO2 T02990139
K6A2 271515Z AUTO 24007KT 10SM CLR 26/18 A3009 RMK AO2
K6B0 271515Z AUTO 29005KT 10SM BKN100 BKN110 17/10 A2989 RMK AO2 T01700097
K6B9 271535Z AUTO 09003KT 8SM SCT012 BKN023 OVC037 15/14 A2992 RMK AO2
K6I2 271515Z AUTO 19006KT 10SM FEW075 23/19 A2993 RMK AO2
K6L4 271535Z AUTO 00000KT 10SM BKN042 OVC065 23/18 A2996 RMK AO2
K6P9 271515Z AUTO 21014G21KT 10SM SCT021 29/23 A2987 RMK AO2 T02870233
K6R3 271515Z AUTO 20008KT 5SM HZ BKN022 OVC032 29/24 A2997 RMK AO2 T02910241
K6R6 271453Z AUTO 08005KT 27/22 A2992 RMK AO1 SLP095 T02670217 51013
K6S2 271515Z AUTO 00000KT 10SM OVC009 11/10 A3010 RMK AO2
K74V 271535Z AUTO 21003KT 10SM CLR 15/M01 A3017 RMK AO2
K79J 271503Z AUTO VRB04KT 10SM SCT024 BKN037 28/19 A3010 RMK AO2 T02780194
K7L2 271535Z AUTO VRB06G11KT 10SM CLR 18/08 A2993 RMK AO2
K7N0 271456Z AUTO 19008G16KT 10SM 29/23 RMK AO2 SLPNO T02890233 $
K7W4 271515Z AUTO 00000KT 10SM BKN080 OVC085 23/17 A2992 RMK AO1 T02280167
K7W6 271515Z AUTO 26005KT 10SM CLR 27/17 A2993 RMK AO2 T02740168
K82C 271515Z AUTO 00000KT 10SM CLR 20/15 A2988 RMK AO2 T01960148
K82V 271515Z AUTO 34016G20KT 10SM SCT020 SCT026 10/05 A3009 RMK AO2
K8A0 271515Z AUTO 22004KT 10SM OVC043 22/22 A3007 RMK AO2
K8A3 271515Z AUTO 24008KT 10SM OVC019 22/18 A3000 RMK A01
K8D3 271456Z AUTO 27015KT 21/08 A2986 RMK AO1 SLP103 T02060083 55000
K8W2 271515Z AUTO 00000KT 10SM BKN060 BKN070 BKN100 22/15 A2990 RMK AO1 T02220148
K9A5 271515Z AUTO 19005KT 10SM SCT065 26/20 A3006 RMK AO2 T02570197
K9L2 271458Z AUTO 16006KT 7SM CLR 13/07 A3002 RMK AO2 SLP156 T01340073 52016
K9MN 271533Z AUTO 28008KT 10SM CLR 20/07 A2992 RMK AO1 T02000065
K9V9 271515Z AUTO 29006KT 10SM OVC065 16/10 A2998 RMK AO2 T01620099
KA39 271515Z AUTO 18003KT 10SM CLR 22/00 A3000 RMK AO2
KAAA 271515Z AUTO 04008KT 10SM SCT019 22/18 A2990 RMK AO2 T02230179
KAAF 271453Z AUTO 24009KT 10SM CLR 28/21 A3010 RMK AO2 SLP193 T02780211 50012 TSNO
KAAO 271520Z AUTO 03016G21KT 10SM BKN032 OVC041 22/14 A2984 RMK AO2 T02220144
KAAT 271455Z AUTO 00000KT 10SM CLR 12/02 A3018 RMK AO2 SLP191 T01220022 51013 $
KABE 271451Z 00000KT 10SM FEW034 21/12 A2989 RMK AO2 SLP121 T02110122 50002
KABH 271456Z AUTO 03013KT BKN038 A3007 RMK AO2 SLPNO 51011 $
KABI 271452Z 21013KT 10SM SCT016 28/22 A2988 RMK AO2 SLP092 T02780222 50015 $
KABQ 271452Z 25008KT 10SM FEW250 18/M07 A3011 RMK AO2 SLP119 HAZY T01831067 51009
KABR 271453Z AUTO 24012KT 10SM CLR 18/06 A2990 RMK AO2 SLP125 T01830056 55000
KABY 271453Z 24007KT 220V280 10SM CLR 27/18 A3010 RMK AO2 SLP192 T02670178 50003
KACB 271535Z AUTO 20003KT 10SM CLR 21/11 A2989 RMK AO2 T02070108
KACJ 271515Z AUTO 24007KT 10SM CLR 26/13 A3010 RMK AO2
KACK 271453Z 31008KT 10SM OVC040 16/09 A2986 RMK AO2 SLP110 T01560094 51011 $
KACP 271515Z AUTO 17006KT 7SM BKN012 OVC019 27/24 A3000 RMK AO2 T02670241
KACQ 271533Z AUTO 31003KT 10SM SCT110 21/07 A2994 RMK AO2
KACT 271451Z 18013KT 4SM BR OVC016 26/24 A2989 RMK AO2 SLP112 60000 T02610239 51006
KACV 271453Z AUTO 00000KT 7SM OVC010 12/11 A3010 RMK AO2 CIG 006V012 SLP197 T01170106 53008
KACY 271454Z VRB03KT 10SM CLR 22/12 A2989 RMK AO2 SLP122 T02170122 58002
KADC 271534Z AUTO 25007KT 10SM CLR 19/07 A2986 RMK AO2
KADF 271456Z AUTO 21008KT 9SM FEW015 OVC022 27/24 A2991 RMK AO2 SLP129 T02670239 51004
KADG 271453Z AUTO 13005KT 10SM BKN017 19/16 A2991 RMK AO2 SLP130 T01890156 53006 TSNO
KADH 271515Z AUTO 21016KT 10SM CLR 28/23 A2981 RMK AO2
KADM 271455Z 19012KT 10SM BKN022 BKN028 BKN033 29/24 A2982
KADS 271447Z AUTO 17010G20KT 8SM OVC016 28/23 A2986
KADU 271535Z AUTO 02005KT 4SM +RA 14/11 A2996 RMK AO2 P0032
KADW 271458Z AUTO 00000KT 10SM FEW110 21/13 A2991 RMK AO2 SLP134 T02130133 58005
KAEG 271449Z 22010KT 10SM FEW120 18/M06 A3013
KAEJ 271535Z AUTO 33014G20KT 10SM OVC080 13/M02 A3011 RMK AO2 T01281019
KAEL 271534Z AUTO 33004KT 10SM CLR 21/08 A2992 RMK AO2
KAEX 271533Z 20012KT 8SM SCT022 BKN037 29/24 A2996 RMK AO2 T02890239
KAFF 271458Z AUTO 34009KT 10SM CLR 12/02 A3010 RMK AO2 SLP137 T01200024 51012
KAFJ 271535Z 03005KT 10SM FEW006 BKN021 OVC028 17/15 A2992 RMK AO1
KAFK 271515Z AUTO 36006KT 10SM BKN100 BKN120 15/15 A2990 RMK AO2 LTG DSNT NE AND SE T01470147
KAFN 271452Z AUTO VRB04KT 10SM FEW032 17/09 A2987 RMK AO2 SLP119 T01670089 51006
KAFO 271515Z AUTO 30005KT 10SM OVC017 04/01 A3025 RMK AO2
KAFP 271515Z AUTO 23005KT 10SM CLR 28/18 A2996 RMK AO2 T02820180
KAFW 271453Z 19013G21KT 9SM BKN021 BKN250 29/24 A2983 RMK AO2 SLP085 T02890239 53004
KAGC 271353Z 00000KT 4SM -RA OVC004 16/13 A2990 RMK AO2 RAB19 SLP126 P0001 T01560128
KAGS 271453Z 26007KT 10SM CLR 31/18 A3000 RMK AO2 SLP158 T03060178 58004
KAHN 271451Z VRB06KT 10SM CLR 27/19 A3005 RMK AO2 SLP167 T02720189 53004
KAHQ 271515Z AUTO 02007KT 10SM SCT100 16/11 A2990 RMK AO2 T01640111
KAIA 271453Z AUTO 34010KT 10SM FEW014 SCT021 BKN041 11/08 A3003 RMK AO2 SLP156 T01110078 50007
KAIB 271535Z AUTO 27003KT 10SM BKN090 16/M01 A3017 RMK AO2
KAID 271445Z 33010KT 10SM BKN025 A2988
KAIG 271515Z AUTO 25004KT 10SM SCT014 SCT060 18/15 A2988 RMK AO2 T01770152
KAIK 271535Z AUTO 26011KT 10SM CLR 28/18 A3005 RMK AO2
KAIO 271535Z AUTO 33015KT 1 1/4SM +RA SCT003 BKN026 OVC031 14/13 A2993 RMK AO2
KAIT 271533Z AUTO 24006KT 10SM CLR 18/08 A2985 RMK AO2
KAIZ 271518Z AUTO 13006KT 10SM BKN013 BKN018 OVC040 24/21 A2989 RMK AO2 LTG DSNT SW
KAJG 271515Z AUTO 00000KT 10SM SCT013 24/19 A2988 RMK AO2 T02440194
KAJO 271456Z AUTO 29004KT 10SM OVC033 15/11 A3005 RMK AO2 SLP187 T01500106 51014
KAJR 271515Z AUTO 26010KT 7SM CLR 24/18 A3006 RMK AO2 T02440178
KAJZ 271535Z AUTO 00000KT 10SM SCT065 BKN090 OVC110 15/04 A3012 RMK AO2 T01500035
KAKH 271454Z AUTO VRB06KT 10SM CLR 27/17 A2998 RMK AO2 SLP146 T02720172 53000
KAKO 271453Z AUTO 31013KT 10SM FEW016 13/07 A3005 RMK AO2 SLP146 T01330072 51014 $
KAKQ 271454Z AUTO 21004KT 10SM CLR 26/17 A2991 RMK AO2 SLP129 T02610167 58006
KAKR 271510Z AUTO VRB03KT 10SM BKN019 21/15 A2990 RMK AO2 T02060150 TSNO
KALB 271451Z 08005KT 10SM FEW025 BKN032 BKN220 16/09 A2991 RMK AO2 SLP128 T01560094 51004
KALI 271513Z AUTO 17014KT 10SM SCT022 31/24 A2988 RMK AO2 T03060239
KALK 271456Z AUTO 22011G17KT 10SM CLR 22/M06 A3013 RMK AO2 SLP113 T02221061 51009
KALM 271535Z AUTO 26014G20KT 10SM CLR 26/M03 A3008 RMK AO2
KALN 271448Z VRB05KT 10SM FEW020 22/17 A2989
KALO 271530Z VRB03KT 8SM FEW007 19/16 A2991 RMK AO2 T01890156
KALS 271452Z AUTO 26009KT 10SM CLR 16/M05 A3009 RMK AO2 SLP110 T01611050 50002
KALW 271453Z 00000KT 10SM CLR 22/08 A3008 RMK AO2 SLP180 T02170078 51013
KALX 271515Z AUTO 24006KT 10SM OVC008 21/19 A3009 RMK AO2 T02140194
KAMA 271453Z 32013KT 10SM CLR 22/02 A2993 RMK AO2 SLP087 T02170022 53022
KAMG 271453Z AUTO 25006KT 10SM CLR 28/18 A3006 RMK AO2 SLP175 T02830178 58003
KAMN 271533Z AUTO 29005KT 10SM SCT060 21/13 A2992 RMK AO2 T02140127
KAMW 271453Z AUTO 16003KT 8SM FEW002 18/17 A2991 RMK AO2 SLP122 T01780172 53005
KANB 271453Z AUTO 26007KT 10SM CLR 24/20 A3007 RMK AO2 SLP175 T02390200 51010
KAND 271456Z AUTO 26008KT 10SM CLR 26/18 A3002 RMK AO2 SLP158 T02610178 51004
KANE 271450Z 29007KT 10SM SCT250 22/08 A2988
KANJ 271455Z AUTO VRB03KT 10SM CLR 18/13 A2988 RMK AO2 SLP117 T01830128 58003
KANK 271535Z AUTO 24011G20KT 10SM CLR 18/M03 A3017 RMK AO1 T01751032
KANQ 271535Z AUTO 00000KT 10SM SCT023 BKN031 BKN060 19/16 A2991 RMK
KANW 271515Z AUTO 33008KT 10SM SCT013 BKN030 OVC045 13/11 A3001 RMK AO2 T01300108
KAOH 271525Z AUTO 12006KT 10SM BKN014 OVC029 21/18 A2988 RMK AO2 T02060178 $
KAOO 271453Z AUTO 00000KT 10SM -RA OVC023 16/12 A2994 RMK AO2 RAB53 SLP136 P0000 60001 T01560122 50000 $
KAPA 271453Z 00000KT 10SM BKN055 BKN090 12/05 A3010 RMK AO2 SLP154 T01170050 51012
KAPC 271454Z 31004KT 10SM OVC016 13/10 A3009 RMK AO2 SLP180 T01330100 51012
KAPF 271453Z 00000KT 10SM CLR 31/20 A3008 RMK AO2 SLP184 T03060200 50002
KAPG 271458Z AUTO 04004KT 10SM SCT120 SCT280 21/13 A2991 RMK AO2 SLP132 T02070131 58006 $
KAPN 271454Z AUTO VRB05KT 10SM FEW110 21/12 A2992 RMK AO2 SLP132 T02060117 50003
KAPY 271515Z AUTO 15012G17KT 7SM SCT021 31/22 A2986 RMK AO2 T03090225
KAQO 271515Z AUTO 19011KT 6SM HZ OVC015 27/24 A2993 RMK AO2
KAQP 271535Z AUTO 22005KT 10SM CLR 19/10 A2989 RMK AO2
KAQR 271515Z AUTO 19009G18KT 7SM SCT019 SCT024 28/22 A2985 RMK AO2
KAQV 271456Z AUTO VRB04KT 9SM SCT016 BKN022 OVC029 28/23 A2996 RMK AO2 SLP143 T02780233 53009 $
KAQW 271532Z AUTO VRB03KT 10SM SCT025 SCT031 16/10 A2989 RMK AO2 T01560100
KAQX 271535Z AUTO VRB03G13KT 8SM CLR 29/18 A3001 RMK AO2
KARA 271453Z 21010KT 10SM SCT015 BKN021 BKN028 28/23 A3003 RMK AO2 SLP168 60000 T02830233 51004
KARB 271453Z 07007KT 040V100 10SM CLR 21/14 A2990 RMK AO2 SLP123 T02110139 53005
KARG 271535Z AUTO 15005KT 10SM OVC013 25/22 A2988 RMK AO1
KARM 271515Z AUTO 17014G18KT 7SM SCT019 SCT025 29/23 A2994 RMK AO2 T02940227
KARR 271452Z 00000KT 10SM CLR 19/14 A2993 RMK AO2 SLP134 T01940144 53003
KART 271456Z AUTO 04006KT 10SM OVC080 18/10 A2990 RMK AO2 SLP121 T01830100 50000
KARV 271515Z AUTO 27006KT 10SM CLR 20/12 A2985 RMK AO2 T01950122
KARW 271455Z AUTO 25005KT 7SM CLR 28/17 A3003 RMK AO2
KASD 271510Z AUTO 18007KT 10SM BKN017 OVC050 28/24 A3005 RMK AO2 T02780239
KASE 271453Z VRB04KT 10SM BKN025 06/03 A3017 RMK AO2 RAE10 SLP136 P0000 60007 T00610028 51011
KASG 271448Z 19014KT 8SM OVC019 26/23 A2987
KASH 271456Z 04004KT 10SM SCT035 17/10 A2986 RMK AO2 SLP123 T01720100 53005
KASL 271515Z AUTO 20005KT 7SM BKN013 OVC020 26/23 A2995 RMK AO1 T02600230
KASN 271515Z AUTO 20006KT 10SM SCT017 25/20 A3008 RMK AO2 T02450200
KAST 271527Z AUTO 21005KT 2 1/2SM BR OVC002 11/11 A3009 RMK AO2 VIS 1 1/4 RWY 08 T01110106
KASW 271515Z AUTO 09003KT 10SM SCT008 BKN012 OVC033 18/16 A2991 RMK AO2
KASX 271453Z AUTO 28007KT 10SM CLR 21/11 A2984 RMK AO2 SLP105 T02060106 51003
KATL 271452Z 26009KT 10SM BKN180 BKN250 26/17 A3007 RMK AO2 SLP172 T02560172 51008
KATP 271515Z AUTO 17011G20KT 5SM BR SCT010 SCT015 27/26 A3004 RMK A01
KATS 271535Z AUTO 27011G18KT 10SM CLR 30/M02 A2999 RMK AO2
KATT 271451Z AUTO VRB04KT 4SM HZ BKN021 OVC027 27/23 A2991 RMK AO2 SLP116 T02720233 51003
KATW 271445Z VRB05KT 10SM FEW120 19/12 A2987
KATY 271453Z AUTO 27005KT 10SM OVC100 17/09 A2991 RMK AO2 SLP127 T01670089 53003
KAUG 271521Z AUTO 01006KT 10SM BKN024 OVC030 13/08 A2986 RMK AO2 T01280078
KAUH 271515Z AUTO 07009KT 10SM CLR 18/10 A2991 RMK AO2 T01750102
KAUM 271536Z AUTO 00000KT 10SM CLR 20/09 A2992 RMK AO2
KAUN 271515Z AUTO 17004KT 10SM CLR 16/11 A3006 RMK AO1
KAUO 271522Z AUTO 23007KT 10SM BKN015 23/19 A3012 RMK AO2
KAUS 271500Z 18013G18KT 2SM BR BKN017 OVC024 29/24 A2990 RMK AO2 SFC VIS 3 T02890239
KAUW 271454Z AUTO 20003KT 10SM CLR 19/13 A2986 RMK AO2 SLP112 T01940133 55006
KAVC 271516Z AUTO 21006KT 10SM CLR 26/17 A2998 RMK AO2 T02630173
KAVK 271515Z AUTO 04014KT 10SM BKN016 BKN024 OVC040 24/21 A2979 RMK AO2
KAVL 271454Z VRB03KT 10SM CLR 23/14 A3005 RMK AO2 SLP153 T02330144 50002
KAVP 271507Z 25003KT 10SM SCT019 OVC034 18/13 A2991 RMK AO2 T01780128
KAVQ 271515Z AUTO 00000KT 10SM CLR 23/M03 A2999 RMK AO2 T02321034
KAVX 271509Z AUTO 26010KT 10SM SCT004 OVC012 12/11 A3007 RMK AO2 T01220111 TSNO $
KAWG 271535Z AUTO 11003KT 2SM BR OVC004 16/16 A2995 RMK AO2
KAWM 271453Z AUTO 20010G16KT 7SM OVC016 25/23 A2991 RMK AO2 SLP123 60009 T02500233 51004
KAWO 271535Z AUTO 32003KT 10SM CLR 17/08 A3011 RMK AO1
KAXA 271535Z AUTO 04006KT 10SM CLR 20/09 A2993 RMK AO2
KAXH 271515Z AUTO 19010G14KT 7SM SCT019 BKN024 BKN029 28/24 A2995 RMK AO2 T02820240
KAXN 271453Z AUTO 21008KT 10SM CLR 18/09 A2990 RMK AO2 SLP125 T01780089 53003
KAXS 271515Z AUTO 24009KT 10SM CLR 30/06 A2979 RMK AO2 T02990059
KAXV 271532Z AUTO 01004KT 10SM OVC012 20/17 A2988 RMK AO2
KAXX 271515Z AUTO 25013KT 10SM CLR 12/M06 A3019 RMK AO2 T01191058
KAYS 271515Z AUTO 23008KT 10SM CLR 31/19 A3007 RMK AO2 T03070192
KAZC 271515Z AUTO 35003KT 10SM CLR 20/01 A3013 RMK AO2
KAZE 271515Z AUTO 30005KT 10SM CLR 29/17 A3006 RMK AO2 T02920172
KAZO 271453Z 31003KT 10SM BKN021 BKN030 19/14 A2992 RMK AO2 SLP131 T01940139 53010
KBAB 271458Z AUTO 17007KT 10SM CLR 16/10 A3004 RMK AO2 SLP175 T01590097 52013 $
KBAC 271535Z AUTO 26013G18KT 10SM CLR 20/06 A2986 RMK AO2
KBAD 271458Z AUTO 19011KT 10SM FEW014 27/24 A2993 RMK AO2 SLP136 T02700238 50004
KBAF 271453Z VRB03KT 10SM BKN026 OVC034 16/09 A2988 RMK AO2 SLP120 T01560094 51005
KBAK 271445Z 22004KT 10SM SCT019 OVC024 23/18 A2987
KBAN 271452Z AUTO 00000KT 10SM CLR 07/M02 A3021 RMK AO2 SLP161 T00671022 50007 $
KBAX 271517Z AUTO 00000KT 10SM BKN024 19/13 A2995 RMK AO2 T01850125
KBAZ 271451Z 18014KT 3SM HZ BKN019 OVC025 28/23 A2990 RMK AO2 SLP115 T02830233 52005
KBBB 271533Z AUTO 26005KT 10SM CLR 19/09 A2991 RMK AO2
KBBF 271515Z AUTO 18019KT 3SM HZ CLR 27/24 A2994 RMK A01
KBBG 271455Z 13005KT 10SM FEW030 25/22 A2988
KBBP 271535Z AUTO 26006KT 10SM CLR 32/18 A2995 RMK AO2
KBBW 271453Z AUTO 05009KT 10SM SCT044 17/11 A2995 RMK AO2 SLP130 T01670111 53004
KBCB 271515Z AUTO 23003KT 10SM CLR 24/16 A3001 RMK AO2 T02360163
KBCE 271453Z AUTO 36009KT 10SM FEW100 10/M01 A3022 RMK AO2 SLP139 T01001006 52008
KBCK 271515Z AUTO 26003KT 10SM CLR 21/14 A2988 RMK AO2 T02130136
KBCT 271454Z 28004KT 10SM BKN014 30/25 A3008
KBDE 271453Z AUTO 21009KT 10SM CLR 19/08 A2976 RMK AO2 SLP077 T01940078 58005
KBDG 271515Z AUTO 32017G21KT 10SM CLR 17/M03 A3018 RMK AO1 T01731026
KBDH 271535Z AUTO 23005KT 10SM CLR 18/10 A2992 RMK AO2
KBDL 271451Z VRB04KT 10SM FEW025 OVC034 16/08 A2989 RMK AO2 SLP120 T01560083 51005
KBDN 271535Z AUTO 00000KT 10SM CLR 16/02 A3012 RMK AO2
KBDR 271452Z 18008KT 10SM BKN036 OVC043 18/13 A2987 RMK AO2 SLP114 T01780128 53001 $
KBEA 271515Z AUTO 18013KT 10SM BKN020 30/25 A2991 RMK AO2 T02990253
KBEC 271515Z AUTO 03016G25KT 10SM OVC027 21/14 A2984 RMK AO2 T02140135
KBED 271456Z VRB05KT 10SM SCT036 17/09 A2985 RMK AO2 SLP120 T01720089 51005
KBEH 271453Z AUTO 00000KT 10SM FEW011 19/14 A2992 RMK AO2 SLP129 T01890144 50007 $
KBFD 271453Z AUTO 00000KT 10SM OVC023 15/10 A2993 RMK AO2 SLP132 T01500100 51002
KBFF 271522Z AUTO 33011KT 10SM SCT027 SCT035 OVC046 13/07 A3007 RMK AO2 T01330067
KBFI 271453Z 00000KT 10SM FEW250 17/12 A3008 RMK AO2 SLP185 T01670122 51012
KBFL 271454Z 26004KT 10SM CLR 17/09 A3006 RMK AO2 SLP174 T01670094 53015
KBFM 271453Z 12005KT 10SM SCT013 BKN050 27/24 A3010 RMK AO2 SLP192 T02670244 51014
KBFW 271533Z AUTO 29003KT 10SM CLR 20/08 A2982 RMK AO2
KBGD 271451Z AUTO 31008KT 10SM CLR 21/11 A2991 RMK AO2 SLP090 T02060106 51030
KBGE 271515Z AUTO 25006KT 10SM CLR 27/18 A3010 RMK AO2
KBGF 271515Z AUTO 23007KT 10SM SCT023 BKN031 OVC037 24/19 RMK
KBGM 271504Z 26004KT 10SM FEW009 BKN030 OVC047 14/12 A2991 RMK AO2 T01440122
KBGR 271453Z 02012G20KT 10SM OVC020 11/07 A2986 RMK AO2 SLP111 T01110067 51014
KBHB 271456Z AUTO 03011KT 10SM OVC020 11/07 A2984 RMK AO2 SLP109 60000 T01060067 51013
KBHC 271515Z AUTO 27006KT 10SM CLR 28/20 A3006 RMK AO2 PNO
KBHK 271451Z AUTO 26013KT 10SM BKN100 BKN120 13/04 A2998 RMK AO2 SLP149 T01280044 51005
KBHM 271524Z 23010KT 10SM BKN018 OVC050 24/19 A3009 RMK AO2 T02440194
KBID 271456Z AUTO VRB06KT 10SM OVC036 16/10 A2988 RMK AO2 SLP121 6//// T01560100 51007
KBIE 271515Z AUTO 11005KT 10SM CLR 16/13 A2988 RMK AO2 T01600128
KBIF 271458Z AUTO 23012G18KT 9SM CLR 26/03 A3006 RMK AO2 SLP110 T02620026 52011 $
KBIH 271456Z AUTO 32004KT 10SM CLR 18/M01 A3010 RMK AO2 SLP149 T01831006 51016
KBIJ 271515Z AUTO 29006KT 270V330 10SM SCT023 26/19 A3010 RMK AO2
KBIL 271453Z 23012KT 10SM FEW090 FEW180 12/04 A3008 RMK AO2 SLP175 T01220039 51009
KBIS 271452Z 29008KT 10SM CLR 19/06 A2989 RMK AO2 SLP120 T01890056 50002
KBIV 271453Z AUTO 00000KT 10SM CLR 21/13 A2992 RMK AO2 SLP130 T02110133 50008
KBIX 271458Z AUTO 20006KT 10SM FEW009 BKN047 27/24 A3007 RMK AO2 SLP185 T02680241 52013
KBJC 271450Z VRB03KT 20SM SCT060 BKN100 13/06 A3010 RMK VSBY LOWER W-NW
KBJI 271533Z AUTO 25008KT 10SM CLR 21/05 A2981 RMK AO2 T02050047
KBJJ 271456Z AUTO 00000KT 10SM OVC007 17/15 A2991 RMK AO2 SLP125 T01720150 51006
KBKB 271454Z AUTO VRB05KT 10SM SCT017 BKN021 OVC032 28/24 A2996 RMK AO2 SLP169 T02830239 51007
KBKD 271515Z AUTO 22015G21KT 4SM HZ OVC026 31/22 A2984 RMK AO2 T03110222
KBKE 271453Z AUTO 00000KT 10SM CLR 11/05 A3019 RMK AO2 SLP217 T01060050 53009
KBKF 271458Z 01003KT 10SM FEW030 SCT060 BKN120 BKN220 13/05 A3010 RMK AO2A SLP143 T01270045 52011
KBKL 271453Z 03008KT 10SM CLR 18/14 A2989 RMK AO2 SLP120 T01780144 51002
KBKN 271535Z AUTO 10007G12KT 060V130 10SM SCT018 28/23 A2978 RMK AO2
KBKS 271515Z AUTO 17014G19KT 10SM CLR 32/24 A2988 RMK AO1 T03150240
KBKT 271515Z AUTO 21006KT 10SM SCT070 27/14 A2992 RMK AO1 T02660136
KBKV 271453Z VRB04KT 10SM CLR 28/14 A3011 RMK AO2 SLP194 T02780144 50004
KBKW 271517Z AUTO 26009G19KT 10SM BKN026 BKN032 OVC080 22/16 A2999 RMK AO2 T02170156 TSNO
KBKX 271356Z AUTO 20006KT 10SM FEW090 SCT110 15/10 A2993 RMK AO2 SLP146 T01500100
KBLF 271452Z AUTO 26012G19KT 10SM OVC026 21/14 A3003 RMK AO2 SLP142 T02110144 51007
KBLH 271452Z AUTO 00000KT 10SM CLR 24/08 A2990 RMK AO2 SLP119 T02390078 53021
KBLI 271453Z 00000KT 10SM CLR 16/12 A3009 RMK AO2 SLP195 T01610117 51015
KBLM 271456Z AUTO 23006KT 10SM BKN033 19/12 A2990 RMK AO2 SLP130 T01940122 50002
KBLU 271452Z AUTO 07009G18KT 10SM CLR 14/M01 A3014 RMK AO2 SLP151 T01441006 51011 TSNO
KBLV 271458Z AUTO 04005KT 10SM CLR 25/20 A2988 RMK AO2 SLP118 T02510195 50001
KBMC 271515Z AUTO 00000KT 10SM CLR 11/02 A3023 RMK AO1 T01120022
KBMG 271521Z VRB04KT 10SM FEW020 BKN030 24/18 A2988 RMK AO2 T02390183
KBMI 271535Z 02010KT 7SM OVC007 18/16 A2992 RMK AO2 CIG 005V009
KBML 271452Z AUTO 28005KT 10SM BKN033 17/07 A2986 RMK AO2 SLP114 T01720067 58002
KBMQ 271453Z AUTO 18010KT 3SM HZ OVC014 26/23 A2993 RMK AO2 SLP117 T02560228 51008
KBMT 271515Z AUTO 10SM SCT020 SCT025 30/23 A2997 RMK AO2 T03010234
KBNA 271453Z 20005KT 10SM BKN033 OVC150 23/19 A2997 RMK AO2 SLP143 T02330189 51008
KBNL 271535Z AUTO 24007G13KT 10SM CLR 30/20 A3002 RMK AO2
KBNO 271453Z AUTO 00000KT 10SM CLR 13/02 A3020 RMK AO2 SLP208 T01280022 51014
KBNW 271535Z AUTO 09006KT 10SM SCT065 SCT080 21/14 A2991 RMK AO2
KBOI 271453Z 15004KT 10SM CLR 14/05 A3017 RMK AO2 SLP200 T01390050 51016
KBOK 271525Z AUTO 00000KT 2 1/2SM -RA BR OVC002 11/10 A3012 RMK AO2 VIS 1 3/4V3 RAB05 P0000
KBOS 271454Z 14009KT 10SM BKN029 OVC037 15/11 A2987 RMK AO2 SLP113 T01500111 53010
KBOW 271446Z 00000KT 10SM SKC 26/14 A3011
KBPC 271515Z AUTO 30012KT 10SM CLR 22/13 A2988 RMK AO2
KBPG 271515Z AUTO 21009G15KT 10SM CLR 28/17 A2994 RMK AO2 T02840167
KBPI 271453Z AUTO 03010KT 10SM CLR 08/M01 A3022 RMK AO2 SLP190 T00831006 51016
KBPK 271453Z AUTO VRB04KT 10SM CLR 24/22 A2987 RMK AO2 SLP105 T02440217 58002 TSNO
KBPT 271453Z 18012G19KT 10SM SCT019 BKN024 30/24 A2997 RMK AO2 RAE1355 SLP149 P0000 60000 T03000239 50009
KBQK 271515Z AUTO 28007KT 10SM CLR 29/19 A3006 RMK AO2
KBQP 271515Z AUTO 19006KT 10SM OVC012 27/26 A2997 RMK AO2 T02660256
KBQX 271515Z AUTO 17013KT 3SM BR CLR 27/27 A2996 RMK A01
KBRD 271453Z AUTO 22006KT 10SM CLR 17/08 A2987 RMK AO2 SLP115 T01720078 50005
KBRL 271516Z AUTO VRB06KT 3SM BR OVC003 16/16 A2991 RMK AO2 T01610161 $
KBRO 271528Z 16019G25KT 10SM BKN027 BKN033 33/24 A2991 RMK AO2 PK WND 17026/1504 T03280244
KBTA 271515Z AUTO 04008KT 10SM RA SCT075 OVC100 15/11 A2991 RMK AO2 LTG DSNT E P0001 T01480111
KBTL 271531Z 16003KT 10SM OVC031 21/13 A2993 RMK AO2 T02060133 $
KBTM 271453Z AUTO 00000KT 10SM CLR 11/02 A3021 RMK AO2 SLP201 T01110017 51014 $
KBTP 271535Z AUTO 07005KT 10SM SCT022 OVC027 16/13 A2992 RMK AO1
KBTR 271453Z 22012G18KT 10SM OVC018 28/23 A3003 RMK AO2 SLP169 T02780233 51006
KBTV 271454Z 33006KT 10SM FEW050 SCT120 17/09 A2989 RMK AO2 SLP124 T01720094 58002
KBUF 271454Z 27005KT 10SM SCT010 BKN017 OVC045 15/12 A2992 RMK AO2 SLP132 T01500117 53005
KBUR 271453Z 00000KT 10SM OVC032 14/09 A3004 RMK AO2 SLP164 T01440089 53012
KBUU 271515Z AUTO 00000KT 10SM SCT020 23/20 A2992 RMK AO2 T02290195
KBUY 271454Z AUTO VRB06KT 10SM CLR 27/17 A2994 RMK AO2 SLP132 T02720172 58005 TSNO
KBVE 271451Z AUTO 22006KT 6SM BR FEW013 SCT023 BKN027 27/25 A3007 RMK AO2 SLP183 T02670250 51016 $
KBVN 271515Z AUTO 04009G14KT 10SM CLR 19/09 A2994 RMK AO2 T01860090
KBVO 271530Z AUTO 16004KT 7SM OVC014 24/22 A2981 RMK AO2 T02440217
KBVS 271515Z AUTO VRB03KT 9SM CLR 17/11 A3009 RMK A01
KBVU 271535Z AUTO 07009KT 10SM 25/M00 A3000 RMK AO2
KBVX 271535Z AUTO 22006KT 190V250 9SM OVC019 27/23 A2989 RMK AO1
KBVY 271523Z 06006KT 10SM SCT028 18/11 A2985 RMK AO2 T01780111
KBWD 271455Z AUTO 18009G14KT 8SM OVC027 28/24 A2989 RMK AO2
KBWG 271527Z AUTO VRB04KT 10SM SCT028 SCT036 BKN048 25/21 A2992 RMK AO2 LTG DSNT N T02500206
KBWI 271454Z 00000KT 10SM FEW060 BKN120 BKN250 21/12 A2991 RMK AO2 SLP127 T02110122 58003
KBWP 271515Z AUTO 25011G16KT 10SM CLR 21/03 A2985 RMK AO1
KBWW 271535Z AUTO 30016G21KT 10SM FEW090 17/04 A2987 RMK AO2
KBXA 271515Z AUTO 20005KT 10SM BKN014 BKN021 OVC055 29/23 A3008 RMK AO2 T02890232
KBXK 271515Z AUTO 00000KT 10SM CLR 25/00 A2995 RMK AO1
KBYG 271453Z AUTO 33015G24KT 10SM CLR 14/02 A3010 RMK AO2 SLP173 T01390022 53008
KBYI 271453Z AUTO VRB03KT 10SM CLR 10/06 A3021 RMK AO2 SLP216 T01000061 52015
KBYL 271515Z AUTO 23006KT 200V270 10SM CLR 24/19 A2998 RMK AO1
KBYS 271455Z AUTO 06003KT 10SM CLR 19/04 A3001 RMK AO2 SLP141 WND DATA ESTMD T01870044 52014
KBYY 271515Z AUTO 17011KT 7SM BKN021 30/24 A2995 RMK AO2 T02970245
KBZN 271456Z 00000KT 10SM CLR 12/04 A3018 RMK AO2 SLP205 T01220044 51014
KC09 271515Z AUTO 00000KT 10SM CLR 20/16 A2991 RMK AO2 T01980157
KC29 271515Z AUTO 23006KT 10SM BKN020 20/15 A2991 RMK AO1 T01960149
KC35 271515Z AUTO 20005KT 10SM OVC009 16/16 A2990 RMK AO2 T01620156
KC62 271535Z AUTO 08003KT 10SM SCT012 OVC031 18/16 A2991 RMK AO2 T01860159
KC75 271515Z AUTO 05003KT 4SM BR OVC006 17/16 A2992 RMK AO2 T01710156
KCAD 271534Z AUTO 16005KT 10SM SCT035 21/11 A2990 RMK AO2 T02110113
KCAE 271456Z 25015G20KT 10SM FEW150 SCT250 30/17 A2998 RMK AO2 SLP149 T03000172 51001
KCAG 271527Z AUTO 00000KT 7SM -RA FEW014 BKN038 OVC060 07/02 A3018 RMK AO2 RAB15 P0001 T00670022
KCAK 271533Z 12005KT 10SM BKN011 OVC025 19/14 A2991 RMK AO2 T01890144
KCAO 271455Z AUTO 35020G29KT 10SM CLR 17/09 A3000 RMK AO2 PK WND 35029/1452 SLP110 T01670089 51018
KCAR 271454Z AUTO 08007KT 040V100 10SM CLR 14/06 A2985 RMK AO2 SLP114 T01440056 58006
KCAV 271535Z AUTO 10SM CLR 21/08 A2992 RMK AO2 PWINO
KCBE 271513Z AUTO 00000KT 7SM SCT003 SCT007 BKN013 15/15 A2996 RMK AO1
KCBF 271535Z AUTO 01010KT 5SM -RA 13/13 A2991 RMK AO2
KCBG 271535Z AUTO 29007KT 10SM CLR 21/10 A2986 RMK AO2
KCBK 271515Z AUTO 34013G18KT 10SM BKN010 OVC014 15/15 A2998 RMK AO2
KCBM 271528Z AUTO 20008KT 10SM OVC050 25/22 A3001 RMK AO2 SLP164 $
KCCA 271535Z AUTO VRB03KT 4SM HZ OVC019 26/24 A2989 RMK AO2
KCCO 271515Z AUTO 23005KT 10SM CLR 24/19 A3009 RMK AO2 T02380193
KCCR 271453Z 21009KT 10SM BKN020 14/09 A3009 RMK AO2 SLP174 T01440089 53013
KCCY 271535Z AUTO 00000KT 10SM CLR 19/15 A2992 RMK AO2
KCDA 271515Z AUTO 30004KT 10SM SCT110 16/07 A2990 RMK AO2 T01560070
KCDC 271453Z AUTO 36012G15KT 10SM BKN110 13/01 A3017 RMK AO2 SLP159 T01280011 51014
KCDD 271528Z AUTO 20003KT 10SM CLR 19/06 A2982 RMK AO2
KCDH 271515Z AUTO 22006KT 8SM BKN017 BKN022 BKN029 28/23 A2992 RMK AO2
KCDI 271534Z AUTO 23003KT 10SM OVC018 22/17 A2988 RMK AO2 T02150167
KCDJ 271452Z AUTO 28005KT 22/18 A2996 RMK AO1 SLP135 T02170183 53031
KCDN 271535Z AUTO 25011KT 10SM CLR 29/18 A2998 RMK AO2
KCDR 271453Z AUTO 29006KT 10SM SCT070 BKN110 13/09 A3004 RMK AO2 SLP175 T01280089 50008
KCDS 271453Z AUTO 25012KT 10SM CLR 28/03 A2982 RMK AO2 SLP069 T02780033 51012
KCDW 271453Z 31004KT 10SM SCT043 OVC060 22/12 A2988 RMK AO2 SLP121 T02220117 56003
KCEC 271530Z AUTO 19007KT 7SM OVC008 11/11 A3012 RMK AO2 CIG 005V011 T01060106
KCEF 271458Z 30005KT 10SM BKN028 OVC034 15/09 A2987 RMK AO2A SLP121 T01510086 51006
KCEU 271454Z AUTO 24007KT 10SM CLR 27/18 A3003 RMK AO2 SLP158 T02720178 51005
KCEW 271453Z AUTO 26006KT 10SM OVC035 27/19 A3012 RMK AO2 SLP195 T02670189 51010
KCEY 271515Z AUTO 25004KT 10SM OVC014 24/22 A2992 RMK AO1
KCEZ 271453Z AUTO 08003KT 10SM CLR 16/01 A3011 RMK AO2 SLP136 T01610006 51012
KCFD 271515Z AUTO 17008KT 7SM BKN019 BKN024 OVC033 28/24 A2994 RMK AO2 T02790238
KCFE 271535Z AUTO 26004KT 10SM BKN120 20/07 A2990 RMK AO2 T02030071
KCFJ 271535Z AUTO 35005KT 7SM OVC007 M35/M35 A2990 RMK AO2 T13471347
KCFS 271534Z AUTO 30003KT 10SM SCT035 SCT042 SCT050 21/14 A2992 RMK AO2 T02110140
KCFV 271527Z AUTO 15009KT 10SM BKN015 27/24 A2979 RMK AO2 T02670244 $
KCGC 271535Z AUTO 00000KT 10SM CLR 28/16 A3010 RMK AO2
KCGE 271510Z AUTO 00000KT 9SM BKN060 23/14 A2991 RMK A01
KCGF 271445Z 10008KT 10SM SCT030 SCT070 21/13 A2991
KCGI 271453Z 14005KT 7SM SCT014 OVC030 25/21 A2987 RMK AO2 SLP110 60000 T02500211 53006
KCGS 271513Z AUTO 00000KT 10SM SCT055 SCT100 BKN120 20/12 A2991 RMK AO1 T02020124
KCGZ 271456Z AUTO 15003KT 10SM CLR 23/M01 A2997 RMK AO2 SLP135 T02281011 51015 $
KCHA 271453Z 19008KT 10SM SCT041 BKN050 BKN065 24/17 A3002 RMK AO2 SLP159 T02440172 50006 $
KCHD 271447Z 00000KT 10SM CLR 24/M01 A2995
KCHK 271515Z AUTO 21014G18KT CLR 30/21 A2976 RMK AO2 PWINO
KCHO 271453Z VRB03KT 10SM CLR 23/16 A2990 RMK AO2 SLP119 60000 T02330161 58008
KCHS 271456Z VRB06KT 10SM CLR 28/17 A3001 RMK AO2 SLP161 T02830172 58005 $
KCIC 271458Z 00000KT 10SM SKC 16/10 A3007
KCID 271529Z 12006KT 3SM BR OVC004 16/16 A2992 RMK AO2 T01610161 $
KCIN 271535Z AUTO 06005KT 10SM SCT075 BKN095 BKN120 20/10 A2992 RMK AO2
KCIR 271515Z AUTO 20008G14KT 10SM SCT070 26/20 A2988 RMK AO2 T02620198
KCIU 271456Z AUTO 16006KT 10SM OVC120 18/12 A2990 RMK AO2 SLP147 T01830117 58001
KCJR 271515Z AUTO 12003KT 10SM SCT060 OVC070 21/15 A2993 RMK AO2 T02050154
KCKB 271500Z 00000KT 10SM SCT026 OVC033 19/16 A2990 RMK AO2 T01890161
KCKC 271533Z AUTO 25007KT 209V269 10SM CLR 18/06 A2984 RMK AO2
KCKF 271515Z AUTO 30005KT 10SM CLR 29/17 A3009 RMK AO2 T02870167
KCKI 271535Z AUTO 24007KT 10SM CLR 28/17 A2998 RMK AO2
KCKM 271535Z AUTO 10SM 27/25 A2995 RMK A01
KCKN 271535Z AUTO 27014G19KT 10SM CLR 21/05 A2979 RMK AO2
KCKP 271515Z AUTO 35008KT 10SM CLR 17/11 A2993 RMK AO2 T01660113
KCKV 271529Z AUTO 30009KT 10SM BKN014 23/19 A2993 RMK AO2 T02280194
KCKZ 271515Z AUTO 34005KT 10SM SCT034 22/13 A2990 RMK AO2
KCLE 271451Z 09006KT 10SM SCT021 SCT250 21/14 A2991 RMK AO2 SLP124 T02110144 50001
KCLI 271515Z AUTO 21004KT 10SM SCT040 BKN065 20/13 A2988 RMK AO2
KCLK 271555Z AUTO 22007KT 190V250 10SM CLR 27/12 A2978 RMK AO2
KCLL 271532Z 16011KT 5SM HZ BKN024 OVC032 28/24 A2992 RMK AO2 T02830239
KCLM 271453Z AUTO 00000KT 10SM CLR 16/11 A3009 RMK AO2 SLP190 T01560111 53011
KCLS 271535Z AUTO 00000KT 10SM CLR 17/11 A3009 RMK AO2
KCLT 271452Z 25010KT 10SM FEW150 BKN230 28/18 A2998 RMK AO2 SLP143 T02780178 55001
KCLW 271535Z AUTO 00000KT 10SM CLR 27/16 A3010 RMK AO2
KCMA 271455Z 00000KT 10SM CLR 15/10 A3005 RMK AO2 SLP185 T01500100 53015
KCMD 271515Z AUTO 23003KT 10SM SCT041 SCT049 SCT060 23/19 A3008 RMK AO2 T02270192
KCMH 271451Z 00000KT 10SM FEW018 BKN025 BKN085 22/18 A2986 RMK AO2 SLP107 T02220183 50004
KCMI 271535Z 05006KT 5SM BR OVC005 18/16 A2991 RMK AO2 T01780156
KCMR 271535Z AUTO 20008G13KT 10SM CLR 17/M03 A3019 RMK AO2
KCMX 271453Z AUTO 29009KT 10SM OVC065 18/13 A2980 RMK AO2 SLP092 T01830133 55005
KCMY 271515Z AUTO 30003KT 10SM CLR 20/15 A2989 RMK AO2 T02030152
KCNB 271535Z AUTO 00000KT 10SM SCT120 18/10 A2992 RMK AO2 T01810098
KCNC 271535Z AUTO 17008KT 10SM SCT070 SCT090 20/18 A2992 RMK AO2
KCNI 271515Z AUTO 29005KT 10SM CLR 25/15 A3008 RMK AO2
KCNK 271524Z AUTO 02015G22KT 10SM FEW005 16/15 A2981 RMK AO2 T01560150
KCNM 271453Z AUTO 28018KT 10SM CLR 29/M02 A2999 RMK AO2 SLP093 T02891017 51017
KCNO 271453Z 26003KT 10SM OVC034 16/11 A3006 RMK AO2 SLP174 T01560111 51014
KCNU 271452Z AUTO 07004KT 10SM OVC011 23/20 A2982 RMK AO2 SLP089 T02330200 51012
KCNW 271455Z 19009KT 3SM BR OVC016 27/24 A2989
KCNY 271453Z AUTO 30011G20KT 10SM CLR 18/M02 A3006 RMK AO2 SLP126 T01831022 51014
KCOD 271456Z AUTO 27005KT 10SM CLR 13/01 A3016 RMK AO2 SLP205 T01280006 53009
KCOE 271456Z AUTO 15005KT 10SM CLR 16/07 A3013 RMK AO2 SLP212 T01560067 53017
KCOF 271458Z AUTO 09006KT 10SM CLR 26/22 A3008 RMK AO2 SLP190 T02590216 50003
KCOM 271515Z AUTO 21010G16KT 10SM BKN025 OVC030 29/22 A2990 RMK AO2 T02880219
KCON 271451Z AUTO VRB04KT 10SM CLR 19/09 A2986 RMK AO2 SLP110 T01890094 51004
KCOQ 271535Z AUTO 28011G14KT 10SM CLR 19/04 A2985 RMK AO2
KCOS 271454Z 02006KT 10SM FEW060 SCT090 14/03 A3010 RMK AO2 SLP133 T01390033 51012
KCOT 271453Z AUTO 17010G16KT 10SM CLR 31/23 A2987 RMK AO2 SLP106 T03060228 51008
KCOU 271454Z 09005KT 10SM CLR 25/17 A2989 RMK AO2 SLP114 T02500172 53005
KCPC 271515Z AUTO 21005KT 10SM CLR 28/19 A2996 RMK AO2 T02810185
KCPK 271515Z AUTO 20004KT 10SM CLR 26/17 A2992 RMK AO2 T02550167
KCPR 271453Z 00000KT 10SM FEW024 10/04 A3013 RMK AO2 SLP186 T01000044 53012 $
KCPS 271453Z 04006KT 10SM CLR 26/18 A2987 RMK AO2 SLP110 T02610178 50002
KCPT 271535Z AUTO 20013G19KT 9SM SCT016 OVC024 29/26 A2988 RMK AO2
KCPU 271515Z AUTO 34005KT 10SM OVC039 14/08 A3007 RMK AO2 T01390081
KCQB 271515Z AUTO 19015G23KT 10SM CLR 29/23 A2974 RMK AO2 T02860229
KCQC 271453Z AUTO 27021KT 10SM CLR 17/M09 A3014 RMK AO2 PK WND 28026/1453 SLP119 T01671089 52010
KCQF 271515Z AUTO 24003KT 10SM BKN011 OVC055 25/25 A3009 RMK AO2
KCQM 271535Z AUTO 22005KT 10SM CLR 18/07 A2983 RMK AO2
KCQT 271447Z AUTO 00000KT 10SM OVC039 17/11 A3004 RMK AO2 SLP171 T01670111 53013
KCQW 271535Z AUTO 24008KT 10SM CLR 28/ A2996 RMK AO2
KCQX 271452Z AUTO 29005KT 10SM BKN019 BKN024 OVC037 14/11 A2986 RMK AO2 SLP114 T01440106 53010
KCRE 271453Z 18009KT 10SM CLR 27/20 A2998 RMK AO1 SLP151 T02670200 58005
KCRG 271453Z 28004KT 10SM CLR 27/16 A3008 RMK AO2 SLP184 T02720156 58001
KCRP 271451Z 17015KT 6SM HZ BKN020 BKN028 29/25 A2990 RMK AO2 SLP125 T02890250 51014
KCRQ 271453Z AUTO 26005KT 10SM OVC035 17/13 A3004 RMK AO2 SLP169 T01670128 53015
KCRS 271453Z AUTO 16009KT 5SM HZ BKN017 OVC023 27/24 A2990 RMK AO2 SLP120 60000 T02720244 50005
KCRW 271454Z 24006KT 10SM OVC028 22/17 A2991 RMK AO2 SLP121 60000 T02220172 51007
KCRX 271515Z AUTO 21010KT 10SM OVC017 25/20 A2997 RMK AO2
KCSG 271451Z 28007KT 10SM CLR 25/17 A3008 RMK AO2 SLP180 T02500172 50004
KCSM 271453Z AUTO 23015KT 10SM CLR 26/14 A2978 RMK AO2 SLP060 T02610139 53010
KCSQ 271535Z AUTO 19010G15KT 5SM -RA FEW034 SCT040 BKN055 16/15 A2992 RMK AO2
KCSV 271453Z AUTO 22008KT 10SM OVC019 21/17 A3005 RMK AO2 SLP156 T02110172 50009
KCTB 271456Z AUTO 27013KT 10SM SCT110 17/04 A3005 RMK AO2 SLP162 T01720039 51012
KCTJ 271515Z AUTO 24003KT 10SM CLR 23/18 A3012 RMK AO2 T02280177
KCTY 271515Z AUTO 23007KT 150V240 10SM CLR 28/18 A3010 RMK AO2
KCTZ 271515Z AUTO 23006KT 10SM CLR 27/19 A2995 RMK AO2 T02730189
KCUB 271453Z AUTO 28013G19KT 10SM CLR 30/17 A2999 RMK AO2 SLP152 T03000167 58002
KCUH 271515Z AUTO 27008KT 220V300 10SM BKN021 BKN026 27/23 A2978 RMK AO2 T02730225
KCUL 271515Z AUTO 14003KT 7SM BKN044 25/21 A2987 RMK AO2 T02530211
KCUT 271453Z AUTO 35006KT 10SM BKN090 09/01 A3007 RMK AO2 SLP160 T00940011 53011
KCVB 271515Z AUTO 17010G14KT 5SM HZ OVC016 28/22 A2992 RMK AO2 T02780221
KCVC 271515Z AUTO 25005KT 10SM CLR 27/17 A3005 RMK AO2
KCVG 271452Z 23005KT 7SM SCT018 BKN022 OVC029 23/19 A2988 RMK AO2 SLP108 T02330194 50004
KCVH 271525Z AUTO 00000KT 10SM CLR 13/09 A3012 RMK AO1
KCVN 271535Z AUTO 30018G25KT 10SM CLR 27/M04 A2998 RMK AO1
KCVO 271535Z 00000KT 10SM CLR 16/11 A3008 RMK AO1
KCVS 271458Z AUTO 29017G23KT 10SM CLR 25/M08 A3000 RMK AO2 SLP101 T02481077 52010 $
KCVW 271515Z AUTO 18010KT 5SM HZ CLR 27/25 A2999 RMK A01
KCVX 271535Z AUTO 08006KT 1 1/2SM HZ VV007 19/12 A2992 RMK AO2 VIS 1/2V5 T01880118
KCWA 271455Z 19003KT 10SM SKC 19/14 A2989
KCWC 271515Z AUTO 21010G17KT 140V230 10SM CLR 29/23 A2982 RMK AO2 T02940225
KCWF 271355Z 21008KT 5SM BKN017 OVC234 27/24 A3000
KCWI 271532Z AUTO 11005KT 4SM BR OVC003 16/14 A2994 RMK AO2
KCWN 271458Z AUTO 36007KT 10SM BKN050 11/02 A3006 RMK AO2 SLP031 T01050021 52009
KCWV 271515Z AUTO 24006KT 10SM CLR 29/21 A3005 RMK AO2 T02860211
KCXE 271515Z AUTO 24003KT 10SM CLR 26/15 A2992 RMK AO1 T02610148
KCXO 271524Z 18008KT 8SM FEW022 SCT028 BKN035 29/23 A2995 RMK AO2 T02890233
KCXP 271535Z AUTO 06008KT 10SM CLR 17/M01 A3018 RMK AO2
KCXU 271515Z AUTO 27004KT 10SM CLR 28/18 A3009 RMK AO2 T02760177
KCXW 271515Z AUTO 20017KT 8SM 29/23 A2987 RMK A01
KCXY 271456Z 25005KT 10SM -RA FEW038 BKN110 19/12 A2991 RMK AO2 RAB36 SLP129 P0000 60000 T01940117 56007
KCYS 271518Z 02010KT 8SM -RA BKN013 BKN020 OVC032 07/05 A3013 RMK AO2 RAB14 P0000 T00720050
KCZL 271515Z AUTO 26008KT 10SM OVC060 25/17 A3005 RMK AO2 T02540165
KCZT 271515Z AUTO 15008G17KT 7SM CLR 30/23 A2985 RMK AO2
KCZZ 271452Z AUTO 00000KT 10/09 A3002 RMK AO1 SLP148 T01000089 53014
KD07 271456Z AUTO 32011KT 17/06 A2996 RMK AO1 SLP144 T01670056 53006
KD25 271515Z AUTO 22006KT 10SM CLR 19/12 A2985 RMK AO2 T01920122
KD39 271534Z AUTO 25005KT 10SM CLR 18/09 A2989 RMK AO2 T01830093
KD50 271535Z AUTO 28013G19KT 10SM FEW075 SCT095 18/05 A2982 RMK AO2
KD55 271535Z AUTO 27014KT 10SM BKN080 BKN120 19/06 A2978 RMK AO2
KD57 271535Z AUTO 29010G18KT 10SM FEW080 FEW090 18/03 A2990 RMK AO2
KD60 271535Z AUTO 27011KT 10SM CLR 16/06 A2986 RMK AO2
KD95 271534Z AUTO 04003KT 10SM BKN039 OVC047 20/12 A2994 RMK AO2 T01980121
KDAA 271458Z AUTO 18003KT 10SM BKN100 22/14 A2992 RMK AO2 SLP135 T02170136 57005
KDAB 271453Z VRB03KT 10SM FEW020 28/17 A3009 RMK AO2 SLP187 FU FEW020 T02830172 50003
KDAG 271450Z AUTO 28015KT 10SM CLR 17/06 A3001 RMK AO2 SLP142 T01670061 51017
KDAL 271453Z 18016G23KT 10SM SCT019 OVC027 29/23 A2984 RMK AO2 SLP098 T02890233 51003
KDAN 271453Z AUTO VRB04KT 10SM CLR 26/19 A2993 RMK AO2 SLP126 T02610189 58005
KDAW 271451Z AUTO VRB04KT 10SM SCT036 BKN042 18/08 A2984 RMK AO2 SLP102 T01830083 53005
KDAY 271456Z 30005KT 8SM SCT014 SCT019 OVC024 22/19 A2988 RMK AO2 CIG 014 RWY 6L SLP112 T02170189 50006
KDBN 271515Z AUTO 25009KT 10SM CLR 27/15 A3008 RMK AO2
KDBQ 271453Z 18007KT 6SM BR OVC008 17/15 A2993 RMK AO2 SLP133 T01670150 53007
KDCA 271452Z 00000KT 10SM SCT060 BKN100 OVC250 22/13 A2992 RMK AO2 SLP130 T02170133 58005
KDCM 271515Z AUTO 26005KT 7SM CLR 27/17 A3000 RMK AO2
KDCU 271453Z AUTO 20007KT 10SM FEW038 SCT055 BKN070 25/19 A3003 RMK AO2 SLP164 T02500189 51013
KDCY 271515Z AUTO 00000KT 10SM BKN013 23/19 A2988 RMK AO2 T02310192
KDDC 271452Z AUTO 04011KT 10SM OVC027 19/11 A2988 RMK AO2 SLP097 T01890111 53015
KDDH 271511Z AUTO 31004KT 10SM SCT026 16/09 A2989 RMK AO2 T01610094
KDEC 271454Z 04008KT 10SM OVC009 19/16 A2990 RMK AO2 SLP122 T01940161 53003
KDED 271515Z AUTO 00000KT 10SM CLR 28/17 A3008 RMK AO2
KDEH 271455Z AUTO 00000KT 7SM OVC006 17/15 A2991 RMK AO2
KDEN 271453Z 01004KT 10SM FEW050 FEW070 BKN120 BKN200 13/04 A3009 RMK AO2 SLP137 T01280044 53011
KDEQ 271453Z AUTO 18006KT 7SM FEW016 BKN027 OVC038 28/24 A2987 RMK AO2 SLP108 T02780244 50003
KDET 271453Z VRB05KT 10SM CLR 20/14 A2991 RMK AO2 SLP127 T02000139 53005
KDEW 271453Z AUTO 00000KT 10SM CLR 16/05 A3013 RMK AO2 SLP193 T01560050 52019 $
KDFI 271517Z AUTO 10005KT 10SM SCT018 OVC070 20/16 A2990 RMK AO2 T02000156
KDFW 271453Z 19019G26KT 10SM BKN020 BKN025 BKN250 29/24 A2982 RMK AO2 PK WND 19027/1448 SLP090 T02940239 53002
KDGW 271524Z AUTO 31011KT 10SM FEW020 BKN037 OVC060 10/06 A3013 RMK AO2 T01000056
KDHN 271522Z 26010KT 10SM FEW024 26/18 A3014 RMK AO2 T02560183
KDHT 271453Z AUTO 35018G26KT 10SM CLR 19/11 A2997 RMK AO2 PK WND 33026/1358 SLP100 T01890106 51026
KDIJ 271456Z AUTO 00000KT 10SM OVC085 06/02 A3027 RMK AO2 SLP247 T00610022 51017
KDIK 271456Z AUTO 26014KT 10SM BKN070 BKN090 13/03 A2991 RMK AO2 SLP131 T01330028 51006
KDKB 271515Z AUTO 16005KT 10SM CLR 19/16 A2993 RMK AO2 T01890158
KDKK 271453Z AUTO 30007KT 10SM CLR 17/12 A2992 RMK AO2 SLP130 T01670122 50003 $
KDKR 271515Z AUTO 19010G16KT 7SM SCT017 BKN042 28/24 A2996 RMK AO2
KDKX 271515Z AUTO VRB04G10KT 10SM BKN080 25/20 A3000 RMK A01
KDLF 271458Z 14011KT 10SM OVC009 27/24 A2987 RMK AO2A SLP101 T02680239 52006
KDLH 271455Z 28012KT 10SM CLR 19/08 A2985 RMK AO2 SLP112 T01890078 53005
KDLL 271515Z AUTO 27006KT 10SM BKN007 BKN012 17/15 A2990 RMK AO2 T01740146
KDLN 271453Z AUTO 23007KT 10SM CLR 12/03 A3019 RMK AO2 SLP194 T01170033 51015
KDLO 271515Z AUTO 30003KT 10SM CLR 15/09 A3006 RMK AO2 T01460087
KDLP 271520Z AUTO 00000KT 8SM BKN021 27/27 A3008 RMK A01
KDLS 271453Z AUTO 00000KT 10SM CLR 16/08 A3008 RMK AO2 SLP185 T01610083 51016
KDLZ 271532Z AUTO 00000KT 10SM OVC011 21/18 A2988 RMK AO2
KDMA 271458Z AUTO 12004KT 10SM CLR 25/M02 A3002 RMK AO2 SLP123 T02511021 52012 CHINO RWY30 $
KDMH 271454Z AUTO 22/12 A2993 RMK AO1 SLP135 T02170122 55002
KDMN 271453Z AUTO 26006KT 10SM CLR 22/M02 A3010 RMK AO2 SLP116 T02171022 51013
KDMO 271453Z AUTO 05009KT 10SM BKN048 26/22 A2990 RMK AO2 SLP118 T02560222 53015
KDMW 271510Z AUTO 00000KT 10SM SCT039 SCT110 19/14 A2993 RMK AO2
KDNL 271453Z AUTO 28010G16KT 10SM CLR 29/16 A3002 RMK AO2 SLP161 T02890161 58001
KDNN 271515Z AUTO 21004KT 10SM SCT050 BKN070 25/18 A3004 RMK AO2
KDNS 271535Z AUTO 00000KT 10SM SCT050 SCT055 OVC080 17/11 A2997 RMK AO2
KDNV 271515Z AUTO 01006KT 4SM BR OVC004 16/16 A2988 RMK AO2 T01610160
KDOV 271458Z AUTO 31004KT 10SM SCT050 SCT170 21/15 A2991 RMK AO2 SLP132 T02080153 50003 $
KDPA 271452Z 00000KT 10SM CLR 18/13 A2992 RMK AO2 SLP132 T01780133 53001
KDPL 271520Z AUTO 20003KT 10SM CLR 28/19 A2994 RMK AO2
KDQH 271515Z AUTO 26005KT 10SM CLR 27/16 A3009 RMK AO2
KDRA 271455Z AUTO 03017KT 10SM CLR 21/M03 A3003 RMK AO2 SLP128 T02111028 51018
KDRI 271515Z AUTO 19011KT 7SM OVC015 28/26 A3001 RMK AO2 T02760259
KDRM 271535Z AUTO 20005KT 10SM CLR 19/12 A2990 RMK AO2 T01930116
KDRO 271453Z AUTO 00000KT 10SM CLR 13/M04 A3011 RMK AO2 SLP130 T01331044 51008 $
KDRT 271500Z AUTO 13008KT 7SM OVC010 27/24 A2986 RMK AO2 T02720244
KDSM 271454Z 15005KT 9SM SCT060 OVC090 21/18 A2990 RMK AO2 SLP120 CB DSNT SW-W MOV N T02060178 53005
KDSV 271454Z AUTO 32003KT 10SM OVC050 17/12 A2992 RMK AO2 SLP138 T01720122 53002
KDTA 271515Z AUTO 01007KT 340V040 10SM CLR 12/02 A3019 RMK AO1
KDTL 271534Z AUTO 20008KT 10SM CLR 20/07 A2985 RMK AO2
KDTN 271453Z 20010KT 8SM FEW016 OVC046 28/24 A2993 RMK AO2 SLP130 T02780239 50005 $
KDTO 271453Z 18017G24KT 10SM OVC023 29/24 A2983 RMK AO2 SLP093 T02890239 53005
KDTS 271453Z AUTO VRB04KT 10SM BKN039 28/24 A3010 RMK AO2 SLP192 T02830239 51012 TSNO
KDTW 271453Z 11005KT 10SM FEW030 FEW230 21/13 A2991 RMK AO2 SLP125 T02110128 51003
KDUA 271515Z AUTO 19008KT 7SM CLR 27/23 A2987 RMK AO2
KDUB 271515Z AUTO 33006KT 10SM CLR 07/00 A3020 RMK AO2
KDUC 271515Z AUTO 19015G20KT 10SM CLR 28/23 A2981 RMK AO2 T02800226
KDUG 271456Z AUTO VRB04KT 10SM CLR 23/00 A3010 RMK AO2 SLP125 T02280000 51012 PWINO
KDUH 271534Z AUTO 12005KT 10SM BKN070 21/13 A2991 RMK AO2 T02050134
KDUJ 271526Z AUTO 04003KT 10SM BKN021 17/11 A2992 RMK AO2 T01720111
KDUX 271515Z AUTO 34022G27KT 10SM CLR 19/10 A2994 RMK AO2 T01860102
KDVK 271515Z AUTO 23008KT 10SM SCT018 SCT024 OVC080 23/18 A2996 RMK AO2
KDVL 271456Z AUTO 25015KT 10SM SCT120 17/07 A2981 RMK AO2 SLP110 T01670067 50004
KDVN 271452Z AUTO 11007KT 10SM OVC002 15/14 A2993 RMK AO2 SLP135 T01500144 53004
KDVO 271515Z AUTO 00000KT 10SM OVC015 14/09 A3011 RMK AO2
KDVP 271525Z AUTO 24006KT 10SM BKN085 17/08 A2994 RMK AO2 T01650081
KDVT 271453Z AUTO 13006KT 10SM CLR 25/M05 A2995 RMK AO2 SLP117 T02501050 51013
KDWH 271514Z 20011G15KT 9SM SCT025 BKN032 29/24 A2994 RMK AO2 T02940239 $
KDWU 271535Z AUTO 25011KT 10SM BKN090 26/20 A2988 RMK AO1
KDWX 271515Z AUTO 33007KT 10SM 08/04 A3021 RMK AO2 T00760044
KDXR 271503Z 31007KT 10SM SCT029 SCT035 18/12 A2989 RMK AO2 T01780117
KDXX 271534Z AUTO 24007KT 10SM CLR 21/11 A2990 RMK AO2
KDYA 271535Z AUTO 19005KT 10SM 26/21 A3006 RMK AO2 T02600205
KDYB 271535Z AUTO 23003KT 10SM CLR 28/18 A3001 RMK AO1
KDYL 271454Z AUTO 36004KT 10SM BKN032 22/13 A2988 RMK AO2 SLP117 T02170133 58000
KDYR 271325Z AUTO VCTS RMK AO2 LTG DSNT NE-SE TSE23B25 PWINO FZRANO $
KDYS 271458Z AUTO 19013G19KT 10SM CLR 28/23 A2985 RMK AO2 PK WND 20028/05 SLP064 T02800226 50013 $
KDYT 271534Z AUTO 30005KT 10SM CLR 20/09 A2985 RMK AO2
KDZB 271451Z 4SM HZ 26/23 2991
KE11 271515Z AUTO 29013G19KT 10SM CLR 31/01 A2996 RMK AO2 T03070014
KE38 271515Z AUTO 27012G16KT 10SM CLR 30/M02 A3013 RMK AO2 T03021021
KE80 271515Z AUTO 30008KT 10SM CLR 22/M08 A3011 RMK AO2 T02181082
KEAN 271515Z AUTO 33009KT 10SM SCT028 OVC110 12/06 A3011 RMK AO2 T01180057
KEAR 271535Z AUTO 06009KT 10SM CLR 18/10 A2993 RMK AO1
KEAT 271455Z AUTO 28009KT 10SM CLR 16/06 A3008 RMK AO2 SLP181 T01560061 51016
KEAU 271456Z 26006KT 10SM CLR 20/11 A2988 RMK AO2 SLP116 T02000111 53007
KEBA 271515Z AUTO 29006KT 10SM CLR 28/19 A3005 RMK AO2 T02810191
KEBG 271515Z AUTO 15015G22KT 10SM CLR 33/23 A2987 RMK AO2 T03310230
KEBS 271535Z AUTO 00000KT 10SM CLR 22/08 A2990 RMK AO2
KECG 271454Z 17006KT 10SM CLR 26/19 A2992 RMK AO2 SLP131 T02610189 58004
KECP 271453Z VRB05KT 10SM SCT020 27/19 A3009 RMK AO2 SLP202 T02670189 51010
KECS 271515Z AUTO 31011G17KT 10SM CLR 11/05 A3009 RMK AO2
KECU 271515Z AUTO 18008KT 1SM BR OVC002 24/24 A2997 RMK AO2
KEDC 271515Z AUTO 19011G16KT 10SM FEW019 27/24 A2991 RMK AO2
KEDE 271520Z AUTO 22004KT 10SM SCT100 26/18 A2993 RMK AO2 T02620179
KEDJ 271530Z AUTO 08006KT 10SM SCT010 OVC016 19/19 A2988 RMK AO1
KEDN 271515Z AUTO 27006KT 240V300 10SM BKN023 BKN030 24/19 A3012 RMK AO2 T02420191
KEDU 271515Z AUTO 19003KT 10SM CLR 15/09 A3006 RMK AO1
KEDW 271458Z 22006KT 90SM CLR 15/07 A3000 RMK AO2A SLP148 T01450069 52014
KEED 271456Z AUTO 21004KT 10SM CLR 28/05 A2991 RMK AO2 SLP095 T02780050 53018 TSNO
KEEN 271506Z AUTO 36006KT 10SM SCT029 17/09 A2987 RMK AO2 PNO $
KEEO 271453Z AUTO 15003KT 10SM OVC050 08/05 A3016 RMK AO2 SLP166 T00830050 53012
KEET 271514Z AUTO 24005KT 10SM SCT011 BKN046 23/21 A3008 RMK AO2 T02330206
KEFD 271450Z 17014KT 10SM BKN017 BKN050 29/24 A2997
KEFK 271515Z AUTO 36003KT 10SM SCT120 14/07 A2990 RMK AO2 T01430073
KEFT 271515Z AUTO 20005KT 10SM BKN013 18/15 A2993 RMK AO2
KEGE 271450Z 04006KT 10SM SCT045 BKN060 09/04 A3016
KEGI 271458Z AUTO 27004KT 10SM FEW028 BKN036 BKN180 27/20 A3009 RMK AO2 SLP191 T02680195 51010 $
KEGV 271515Z AUTO 24006KT 10SM CLR 20/11 A2985 RMK AO2 T01980113
KEHA 271528Z AUTO 36010KT 17/08 RMK AO1 /PK WND 15 000 T01670084
KEHC 271515Z AUTO 18013KT 6SM HZ FEW019 29/24 A3002 RMK A01
KEHO 271520Z AUTO 25010KT 10SM CLR 27/18 A2999 RMK AO2 T02680178
KEHR 271456Z AUTO VRB03KT 10SM CLR 25/21 A2987 RMK AO2 SLP120 T02500211 58006
KEHY 271515Z AUTO 29011KT 10SM BKN010 OVC033 06/03 A3015 RMK AO2
KEIR 271515Z AUTO 21009KT 4SM BR SCT022 27/25 A3006 RMK A01
KEKM 271450Z 00000KT 10SM OVC015 18/15 A2992
KEKN 271451Z AUTO 21007KT 10SM -RA OVC022 18/15 A2994 RMK AO2 SLP140 P0001 60001 T01830150 53001 TSNO
KEKO 271456Z AUTO 00000KT 10SM CLR 09/01 A3023 RMK AO2 SLP214 T00890011 51014
KEKQ 271456Z AUTO 27009G14KT 160V060 10SM BKN025 24/19 A2998 RMK AO2 RAB29E49 SLP160 P0000 60000 T02440194 50006
KEKS 271515Z AUTO 00000KT 10SM FEW070 FEW080 11/02 A3025 RMK A01
KEKY 271534Z AUTO VRB06KT 10SM FEW012 OVC033 23/21 A3009 RMK AO2
KELA 271515Z AUTO 19013G18KT 7SM OVC019 29/25 A2993 RMK AO2 T02940252
KELD 271510Z AUTO 19006KT 9SM BKN016 OVC025 27/24 A2994 RMK AO2 T02670239 $
KELK 271515Z AUTO 26007G14KT 10SM CLR 26/15 A2978 RMK AO2 T02560148
KELM 271520Z 12003KT 10SM BKN024 OVC055 18/12 A2990 RMK AO2 T01780122
KELN 271453Z AUTO 00000KT 10SM CLR 14/07 A3011 RMK AO2 SLP186 T01440072 53013
KELO 271533Z AUTO 23006KT 10SM CLR 16/08 A2983 RMK AO2
KELP 271451Z 28014KT 10SM FEW250 27/02 A3006 RMK AO2 SLP100 T02670017 $
KELY 271453Z AUTO 36008KT 10SM CLR 08/M01 A3023 RMK AO2 SLP177 T00831006 52011
KELZ 271456Z AUTO 00000KT 10SM BKN027 OVC034 16/10 A2994 RMK AO2 SLP136 T01610100 53001
KEMK 271515Z AUTO 18018KT 3SM HZ CLR 27/25 A2999 RMK A01
KEMM 271515Z AUTO 25003KT 10SM 06/01 A3024 RMK AO2
KEMP 271513Z AUTO 02009G16KT 10SM SCT028 OVC034 20/16 A2989 RMK AO2 T02000156
KEMT 271451Z 00000KT 10SM OVC038 16/12 A3007
KEMV 271515Z AUTO 15003KT CLR 25/16 A2994 RMK AO2 PWINO
KEND 271458Z AUTO 15003KT 10SM -DZ FEW210 26/22 A2975 RMK AO2 SLP063 P0000 60000 T02580223 53013 $
KENL 271520Z AUTO 34005KT 10SM CLR 26/20 A2987 RMK AO2 T02590196
KENV 271456Z AUTO 13003KT 10SM CLR 13/03 A3022 RMK AO2 SLP219 6//// T01280028 51016 PNO $
KENW 271453Z VRB04KT 10SM CLR 18/12 A2993 RMK AO2 SLP134 T01830122 55001
KEOE 271535Z AUTO 25010KT 10SM CLR 27/19 A3004 RMK AO2
KEOK 271535Z AUTO 07005KT 10SM FEW008 19/16 A2991 RMK AO2
KEPH 271453Z AUTO 06004KT 10SM CLR 17/07 A3007 RMK AO2 SLP179 T01720067 52017
KEQA 271535Z AUTO 04014G22KT 10SM OVC023 22/15 A2985 RMK AO2
KEQY 271453Z AUTO 25010KT 10SM CLR 27/17 A2997 RMK AO2 SLP147 T02670172 55002
KERI 271451Z 33004KT 10SM CLR 18/12 A2991 RMK AO2 SLP128 T01780117 50000
KERV 271515Z AUTO 18009KT 1 3/4SM BR OVC007 25/24 A2994 RMK AO2 T02470240
KERY 271535Z AUTO 17011KT 10SM CLR 20/10 A2986 RMK AO2 T01950102
KESC 271456Z AUTO 18009KT 10SM CLR 16/12 A2986 RMK AO2 SLP134 T01610122 55006
KESF 271453Z AUTO 21008G15KT 10SM BKN018 BKN025 OVC033 28/24 A2998 RMK AO2 SLP149 T02780244 51004
KESN 271450Z 33004KT 10SM SCT060 23/13 A2996
KEST 271452Z AUTO 00000KT 10SM BKN095 19/09 A2993 RMK AO2 SLP132 T01890094 53012
KETB 271515Z AUTO 16006KT 10SM CLR 20/13 A2990 RMK AO2
KETH 271516Z AUTO 23010KT 10SM CLR 22/04 A2988 RMK AO2
KEUF 271458Z AUTO VRB05KT 10SM FEW022 27/19 A3009 RMK AO2 SLP184 T02670189 51006
KEUG 271454Z 20007KT 10SM CLR 13/12 A3008 RMK AO2 SLP183 T01330117 53013
KEUL 271456Z AUTO 17003KT 10SM CLR 14/07 A3017 RMK AO2 SLP208 T01390067 51016
KEVB 271447Z 08005KT 10SM SKC 28/18 A3010
KEVM 271534Z AUTO 25006KT 10SM CLR 17/04 A2986 RMK AO2 T01740043
KEVU 271515Z AUTO 09007KT 10SM -VCTSRA SCT028 SCT040 BKN100 A2985 RMK AO2 P0001 LTG DSNT N THRU SE
KEVV 271454Z 24005KT 10SM BKN012 26/21 A2989 RMK AO2 SLP116 T02560206 55003
KEVW 271522Z AUTO 30006KT 10SM BKN014 06/02 A3025 RMK AO2 T00560017
KEWB 271500Z VRB03KT 10SM SCT030 OVC035 14/12 A2985 RMK AO2 T01440117
KEWK 271356Z AUTO 02016KT 10SM BKN031 BKN043 19/14 A2988 RMK AO2 SLP104 T01940144
KEWN 271454Z 22009KT 10SM CLR 28/18 A2996 RMK AO2 SLP144 T02780178 58006
KEWR 271451Z 30006KT 10SM BKN038 BKN055 BKN280 21/12 A2987 RMK AO2 SLP114 T02110122 56002
KEXX 271515Z AUTO 00000KT 10SM CLR 26/19 A2996 RMK AO2 T02610189
KEYE 271500Z AUTO 33006KT 10SM BKN019 OVC024 21/17 A2987 RMK AO2 T02110167
KEYF 271520Z AUTO 23008KT 10SM CLR 29/18 A2996 RMK AO2 T02880178
KEYW 271453Z 11007KT 10SM CLR 31/26 A3008 RMK AO2 SLP184 T03060256 50005
KEZF 271515Z AUTO 00000KT 10SM BKN075 22/16 A2991 RMK AO2 T02150158
KEZM 271515Z AUTO 29006KT 10SM CLR 28/09 A3009 RMK AO2 T02830090
KEZS 271515Z AUTO 21005KT 10SM SCT020 SCT037 SCT070 22/15 A2988 RMK AO2 T02180151
KF00 271515Z AUTO 18010KT 10SM OVC018 27/23 A2987 RMK AO2
KF05 271515Z AUTO 22013G16KT 10SM CLR 30/11 A2978 RMK AO1 T03010106
KF17 271515Z AUTO 17013G17KT 10SM BKN015 OVC021 30/26 A2995 RMK AO2 T03000260
KF44 271515Z AUTO 19007KT 5SM BR BKN016 OVC022 26/25 A2989 RMK AO2
KF46 271515Z AUTO 21011G24KT 10SM OVC016 28/25 A2986 RMK AO2 T02790245
KF70 271515Z AUTO 00000KT 10SM OVC029 15/09 A3005 RMK AO1
KFAF 271458Z AUTO 17006KT 10SM CLR 26/19 A2989 RMK AO2 SLP125 T02610188 58005 $
KFAM 271505Z AUTO 12006KT 10SM FEW015 BKN025 OVC035 24/21 A2989 RMK AO2
KFAR 271453Z 23009KT 10SM CLR 19/07 A2982 RMK AO2 SLP099 T01940072 53001
KFAT 271453Z 31006KT 10SM OVC050 15/11 A3006 RMK AO2 SLP176 T01500106 51014
KFAY 271453Z AUTO 26006KT 10SM CLR 28/18 A2994 RMK AO2 SLP134 T02780178 58004
KFBG 271456Z AUTO 22004KT 10SM CLR 27/18 A2994 RMK AO2 SLP140 T02710175 58004 $
KFBL 271534Z AUTO 35005KT 10SM CLR 21/07 A2992 RMK AO2
KFBR 271518Z AUTO 27008KT 10SM CLR 08/01 A3026 RMK AO2
KFCH 271515Z AUTO 33007KT 10SM OVC050 15/10 A3006 RMK A01
KFCM 271453Z 31009KT 10SM CLR 21/08 A2988 RMK AO2 SLP116 T02060078 53001
KFCS 271458Z AUTO 01008KT 10SM BKN055 14/03 A3008 RMK AO2 SLP154 T01400034 52010
KFDK 271447Z 00000KT 10SM SCT046 SCT060 BKN110 21/17 A2994
KFDR 271453Z AUTO 22014KT 10SM CLR 29/17 A2975 RMK AO2 SLP055 T02890172 51006
KFDW 271535Z AUTO 27008KT 234V314 10SM CLR 28/18 A3000 RMK AO1
KFDY 271453Z AUTO 10005KT 10SM SCT008 20/16 A2987 RMK AO2 SLP109 T02000161 50006 TSNO
KFEP 271515Z AUTO 21003KT 10SM BKN013 18/15 A2995 RMK AO2 T01810153
KFET 271515Z AUTO 05004KT 10SM BKN095 17/10 A2992 RMK AO2 T01670104
KFEW 271525Z AUTO 33009G16KT 10SM -RA SCT013 BKN033 BKN047 08/04 A3015 RMK AO2 RAB25 SLP183 $
KFFA 271515Z AUTO 00000KT 10SM CLR 26/16 A2991 RMK AO2 T02620157
KFFC 271453Z AUTO 26009KT 10SM CLR 24/17 A3008 RMK AO2 SLP182 T02390172 53007
KFFL 271535Z AUTO 07004KT 6SM BR FEW007 18/17 A2993 RMK AO2 PWINO
KFFM 271535Z AUTO 25006KT 10SM CLR 20/09 A2984 RMK AO2
KFFO 271458Z 30004KT 10SM BKN015 OVC026 22/21 A2987 RMK AO2A BKN015 V SCT SLP113 T02170210 51005
KFFT 271453Z AUTO 22008KT 10SM OVC017 24/19 A2990 RMK AO2 SLP118 T02390189 51007
KFFX 271534Z AUTO 00000KT 10SM CLR 21/11 A2991 RMK AO2 T02070114
KFFZ 271447Z 16005KT 40SM SKC 26/M3 A2996
KFGN 271534Z AUTO 16012KT 10SM CLR 13/09 A2973 RMK AO2
KFGX 271515Z AUTO 23008KT 10SM BKN017 OVC024 23/20 A2992 RMK AO2 T02310196
KFHB 271515Z AUTO 25003KT 10SM CLR 29/17 A3006 RMK AO1
KFHR 271453Z AUTO 11004KT 10SM CLR 16/12 A3010 RMK AO2 SLP191 T01560117 53014
KFHU 271458Z AUTO 00000KT 10SM CLR 22/M05 A3013 RMK AO2 SLP132 T02181051 52013 $
KFIG 271454Z AUTO 00000KT 10SM FEW009 BKN049 14/12 A2994 RMK AO2 SLP137 60001 T01440122 51002
KFIN 271535Z AUTO 00000KT 10SM CLR 29/15 A3007 RMK AO2 T02870152
KFIT 271452Z AUTO 01003KT 10SM CLR 18/09 A2987 RMK AO2 SLP113 T01830089 51007
KFKA 271533Z AUTO 27003KT 10SM CLR 21/08 A2992 RMK AO2 T02080080
KFKL 271535Z 15003KT 10SM BKN038 17/10 A2993 RMK AO1
KFKN 271515Z AUTO 25003KT 10SM BKN110 26/16 A2993 RMK AO2 T02580158
KFKR 271515Z AUTO 01004KT 5SM BR OVC005 19/18 A2991 RMK AO2 T01920177
KFKS 271515Z AUTO 27005KT 10SM CLR 21/12 A2988 RMK AO2 T02080120
KFLD 271453Z AUTO 18008KT 10SM CLR 19/12 A2989 RMK AO2 SLP121 T01940117 56005
KFLG 271457Z 20004KT 10SM CLR 13/M01 A3020 RMK AO2 SLP144 T01331011 51013
KFLL 271453Z 00000KT 10SM SCT024 SCT047 31/25 A3006 RMK AO2 SLP178 T03110250 50001
KFLO 271453Z 26010KT 10SM CLR 28/19 A2997 RMK AO2 SLP146 T02830189 58005
KFLP 271535Z 12003KT 10SM CLR 25/21 A2984 RMK AO1
KFLY 271515Z AUTO 36009G16KT 320V030 10SM SCT055 12/03 A3012 RMK AO2 T01240026
KFME 271512Z AUTO 20003KT 10SM SCT110 20/13 A2994 RMK AO1
KFMH 271535Z 10SM FEW021 BKN026 OVC038 15/10 A2986 RMK AO2 PWINO FZRANO TSNO WEA:
KFMM 271535Z AUTO 36014G17KT 10SM OVC080 12/07 A3008 RMK AO2 T01240065
KFMN 271453Z 27007KT 10SM CLR 17/M03 A3007 RMK AO2 SLP133 T01721033 51009
KFMY 271453Z VRB03KT 10SM CLR 29/19 A3008 RMK AO2 SLP188 T02940189 50002
KFNB 271528Z AUTO 19006KT 10SM FEW005 SCT110 16/15 A2990 RMK AO2 T01610150
KFNL 271456Z AUTO 04003KT 10SM -RA SCT055 OVC065 10/07 A3011 RMK AO2 SLP167 P0000 60002 T01000072 53017
KFNT 271453Z 00000KT 10SM CLR 21/12 A2992 RMK AO2 SLP131 T02110117 53008
KFOA 271515Z AUTO 36004KT 10SM CLR 26/18 A2989 RMK AO2 T02550179
KFOD 271535Z AUTO 00000KT 10SM FEW100 20/11 A2993 RMK AO1
KFOE 271453Z 36007KT 10SM FEW009 OVC041 19/17 A2992 RMK AO2 SLP124 60016 T01890167 53002
KFOK 271453Z 34010G16KT 300V010 10SM SCT028 19/11 A2989 RMK AO2 SLP121 T01890106 51004
KFOT 271515Z AUTO 00000KT 10SM OVC009 12/10 A3010 RMK AO1
KFOZ 271532Z AUTO 22009G16KT 203V273 10SM CLR 21/07 A2982 RMK AO2
KFPK 271534Z AUTO 00000KT 10SM BKN036 BKN042 21/13 A2992 RMK AO2 T02110130
KFPR 271453Z 27006KT 10SM CLR 31/22 A3008 RMK AO2 SLP185 T03060217 50005
KFQD 271515Z AUTO 21006KT 10SM CLR 27/18 A3001 RMK AO2 T02700176
KFRG 271453Z 35006KT 10SM FEW042 21/11 A2987 RMK AO2 SLP113 T02110111 58002
KFRI 271531Z AUTO 36004G19KT 10SM CLR 17/15 A2985 RMK AO2 RAB21 PRESRR SLP101
KFRM 271456Z AUTO 00000KT 10SM FEW095 SCT120 20/09 A2994 RMK AO2 SLP137 T02000089 53012
KFRR 271515Z AUTO 25004KT 10SM OVC050 18/16 A2990 RMK AO1
KFSD 271456Z 26003KT 10SM BKN060 OVC075 15/12 A2994 RMK AO2 RAE00 SLP137 P0000 60007 T01500122 51002
KFSE 271535Z AUTO 23010G17KT 10SM SCT090 19/06 A2982 RMK AO2
KFSI 271458Z AUTO 20013KT 10SM CLR 28/23 A2977 RMK AO2 SLP071 T02790225 50003
KFSM 271453Z 21007KT 10SM OVC037 28/22 A2984 RMK AO2 SLP100 T02830217 50008
KFSO 271515Z AUTO 36004KT 10SM SCT042 18/08 A2989 RMK AO2 T01770075
KFST 271453Z AUTO 31014G23KT 10SM CLR 31/02 A2998 RMK AO2 SLP096 T03110022 51016 $
KFSW 271515Z AUTO 12005KT 2SM BR OVC001 16/16 A2993 RMK AO2
KFTG 271453Z 03004KT 10SM SCT020 BKN060BKN120 13/07 A3010
KFTK 271458Z AUTO 21005KT 10SM OVC014 23/20 A2990 RMK AO2 SLP122 60000 T02320200 51002
KFTN 271515Z AUTO 15012KT 10SM CLR 30/24 A2986 RMK A01
KFTW 271453Z 19017G23KT 10SM OVC020 29/24 A2983 RMK AO2 PK WND 18026/1430 SLP091 T02940244 51004
KFTY 271453Z 24006KT 10SM CLR 25/18 A3006 RMK AO2 SLP168 T02500183 50005
KFUL 271453Z VRB03KT 10SM OVC042 17/11 A3004 RMK AO2 SLP172 T01670111 53014
KFVE 271453Z AUTO 02006KT 10SM CLR 14/04 A2985 RMK AO2 SLP110 T01390039 58006
KFVX 271515Z AUTO 18006KT 10SM CLR 27/13 A2990 RMK AO2 T02660133
KFWA 271454Z 10003KT 10SM FEW008 BKN014 OVC019 19/16 A2990 RMK AO2 SLP120 60000 T01890161 51010
KFWB 271515Z AUTO 30003KT 10SM CLR 25/23 A2989 RMK AO2
KFWC 271515Z AUTO 00000KT 10SM SCT050 BKN065 BKN075 25/19 A2987 RMK AO1 T02500194
KFWN 271453Z AUTO 28005KT 10SM BKN032 OVC055 20/13 A2989 RMK AO2 SLP118 T02000133 56001
KFWS 271450Z 17015G22KT 7SM BKN018 BKN025 28/23 A2987
KFWZ 271515Z AUTO 33010G14KT 10SM CLR 04/M03 A3017 RMK AO2
KFXE 271453Z 00000KT 10SM SCT023 32/23 A3007 RMK AO2 SLP184 T03220233 50004
KFXY 271515Z AUTO 02003KT 10SM CLR 21/06 A2993 RMK AO2
KFYG 271515Z AUTO 00000KT 10SM CLR 26/17 A2986 RMK AO2
KFYJ 271515Z AUTO 15008KT 10SM CLR 25/15 A2992 RMK AO2 T02480150
KFYM 271515Z AUTO 23010KT 10SM CLR 23/19 A3003 RMK A01
KFYV 271453Z 20009KT 10SM OVC019 26/23 A2986 RMK AO2 SLP094 T02560233 50003
KFZG 271515Z AUTO 29004KT 10SM CLR 28/20 A3010 RMK AO2 T02790196
KFZY 271513Z AUTO 18003KT 3SM -RA BR BKN007 BKN020 OVC040 16/14 A2991 RMK AO2 RAB05 P0001 T01560139
KGAD 271456Z AUTO VRB03KT 10SM OVC055 23/19 A3007 RMK AO2 SLP195 T02280189 51014
KGAF 271535Z AUTO 26014G20KT 10SM CLR 20/08 A2978 RMK AO2
KGAG 271453Z AUTO 35004KT 10SM CLR 24/17 A2979 RMK AO2 SLP063 T02440172 51025
KGAI 271456Z AUTO 19004KT 10SM -RA FEW033 BKN046 BKN110 19/15 A2993 RMK AO2 RAB48 SLP162 P0000 60000 T01940150 56005
KGAO 271515Z AUTO 19007KT 10SM SCT014 BKN024 BKN039 28/23 A3005 RMK AO2 T02760230
KGBD 271456Z AUTO 07010KT 10SM FEW046 22/13 A2985 RMK AO2 SLP095 T02170128 58004
KGBG 271515Z AUTO 08004KT 5SM BR OVC004 16/16 A2991 RMK AO2 T01570157
KGBK 271515Z AUTO 15011KT 4SM BR OVC016 26/25 A3003 RMK A01
KGCC 271453Z AUTO 27008KT 10SM CLR 13/06 A3007 RMK AO2 SLP169 T01280056 53008
KGCD 271515Z AUTO 00000KT 10SM CLR 12/04 A3020 RMK AO2 T01230042
KGCK 271454Z 04011KT 10SM OVC033 19/11 A2991 RMK AO2 SLP103 T01890106 53023
KGCM 271515Z AUTO 17006KT 7SM OVC019 25/22 A2982 RMK AO2
KGCN 271454Z 23009KT 10SM CLR 15/M02 A3019 RMK AO2 SLP140 T01501022 51011
KGDB 271459Z AUTO 19007KT 7SM SCT120 18/11 A2992 RMK AO2
KGDJ 271515Z AUTO 17015KT 10SM OVC025 30/23 A2986 RMK AO2 T03040231
KGDP 271451Z AUTO 25032G39KT 10SM CLR 23/M02 A3010 RMK AO2 PK WND 26039/1450 SLP104 T02331017 51012
KGDV 271456Z AUTO 15010KT 10SM SCT075 BKN090 14/04 A2993 RMK AO2 SLP135 T01390044 50000
KGED 271454Z AUTO VRB03KT 10SM SCT060 OVC070 23/12 A2992 RMK AO2 SLP132 T02280122 51002
KGEG 271453Z 17007KT 10SM FEW100 FEW250 16/06 A3012 RMK AO2 SLP190 T01560056 53016 $
KGEU 271447Z 00000KT 10SM SKC 24/00 2996
KGEV 271530Z AUTO 29005KT 10SM BKN029 OVC037 21/15 A3007 RMK AO2 T02130145
KGEY 271453Z AUTO 00000KT 10SM CLR 10/05 A3014 RMK AO2 SLP202 T01000050 51011
KGEZ 271516Z AUTO 29006KT 10SM FEW020 SCT026 SCT034 26/18 A2986 RMK AO2 T02560183
KGFA 271458Z AUTO 24012KT 10SM FEW120 14/05 A3007 RMK AO2 SLP188 T01390051 52013 $
KGFK 271453Z 26011KT 10SM FEW250 21/08 A2977 RMK AO2 SLP081 T02110078 56003
KGFL 271451Z AUTO 29004KT 10SM OVC031 16/09 A2990 RMK AO2
KGGE 271515Z AUTO 24008KT 10SM CLR 28/18 A3001 RMK AO2
KGGG 271453Z 19009KT 10SM SCT016 BKN021 OVC027 27/25 A2991 RMK AO2 SLP122 60000 T02670250 50005
KGGI 271535Z AUTO 15004KT 10SM SCT005 18/18 A2994 RMK AO2 T01840178
KGGP 271515Z AUTO 34007KT 5SM BR OVC006 17/16 A2990 RMK AO2
KGGW 271453Z AUTO 35006KT 10SM FEW090 14/04 A2991 RMK AO2 SLP130 T01440044 51004 $
KGHG 271515Z AUTO 33008KT 290V360 10SM SCT036 16/10 A2987 RMK AO2
KGHW 271534Z AUTO 24010KT 10SM CLR 19/09 A2990 RMK AO2
KGIC 271515Z AUTO 00000KT 10SM CLR 12/07 A3019 RMK AO1
KGIF 271453Z AUTO 34005KT 10SM CLR 27/13 A3011 RMK AO2 SLP195 T02720128 50007
KGJT 271453Z 00000KT 10SM FEW070 16/02 A3008 RMK AO2 SLP130 T01610022 53012
KGKJ 271453Z AUTO 00000KT 10SM CLR 18/12 A2992 RMK AO2 SLP127 T01830122 58001 TSNO
KGKT 271535Z AUTO 24007KT 10SM FEW075 26/17 A2999 RMK
KGKY 271453Z 17014G22KT 10SM BKN018 OVC024 28/23 A2984 RMK AO2 SLP096 T02830233 51002
KGLD 271453Z AUTO 33017KT 10SM OVC007 13/12 A2999 RMK AO2 SLP130 T01280117 53017 $
KGLE 271515Z AUTO 21010G15KT 7SM BKN023 OVC028 28/23 A2986 RMK AO2 T02840233
KGLH 271514Z 19011KT 10SM BKN019 BKN060 27/22 A2997 RMK AO2 T02670222
KGLR 271453Z AUTO 20006KT 10SM CLR 20/12 A2991 RMK AO2 SLP126 T02000117 50001
KGLS 271452Z 18012KT 6SM HZ SCT008 OVC013 29/26 A2998 RMK AO2 SLP151 T02890256 51014
KGLW 271510Z AUTO 28005KT 10SM OVC021 24/19 A2995 RMK AO2 T02350190
KGLY 271535Z AUTO 10009KT 9SM SCT025 25/21 A2986 RMK AO2
KGMJ 271515Z AUTO 00000KT 7SM OVC018 26/23 A2984 RMK AO2
KGMU 271453Z 26012KT 10SM CLR 27/18 A3003 RMK AO2 SLP158 T02720178 52007
KGNA 271456Z AUTO 25012KT 07/06 A2981 RMK AO1 SLP099 T00720056 53002
KGNC 271515Z AUTO 33008KT 10SM CLR 30/01 A2998 RMK AO2 T02970005
KGNR 271456Z AUTO 36008KT 10/07 A2984 RMK AO1 SLP114 T01000067 51009
KGNT 271535Z AUTO 35004KT 10SM CLR 18/M07 A3018 RMK AO2 T01761071
KGNV 271453Z VRB03KT 10SM CLR 28/17 A3009 RMK AO2 SLP187 T02780172 50003
KGOK 271353Z AUTO 19016G23KT 10SM CLR 27/22 A2972 RMK AO2 SLP051 T02670217
KGON 271503Z 34009KT 10SM SCT025 OVC033 16/09 A2987 RMK AO2 T01610094 $
KGOV 271534Z AUTO 08004KT 10SM CLR 21/11 A2990 RMK AO2 T02120110 PWINO
KGPC 271535Z AUTO 34004KT 10SM OVC017 20/16 A2991 RMK AO2
KGPH 271535Z AUTO 10004KT 10SM SCT085 17/16 A2990 RMK AO2 LTG DSNT N AND NE
KGPI 271455Z 03006KT 10SM CLR 13/06 A3013 RMK AO2 SLP198 T01330056 51016
KGPM 271450Z 17012G17KT 10SM BKN016 BKN024 28/23 A2986
KGPT 271453Z 21004KT 9SM BKN012 OVC044 27/24 A3007 RMK AO2 SLP180 T02720239 53002
KGPZ 271456Z AUTO 21005KT 10SM CLR 16/08 A2987 RMK AO2 SLP115 6//// T01610078 51007 PNO $
KGRB 271453Z VRB04KT 10SM CLR 19/15 A2987 RMK AO2 SLP115 T01940150 58008
KGRD 271456Z AUTO 26008KT 10SM CLR 27/18 A3003 RMK AO2 SLP163 T02670178 51003
KGRF 271455Z COR VRB04KT 10SM FEW200 16/09 A3011 RMK AO2A SLP193 WND DATA ESTMD ALSTG/SLP ESTMD T01560088 52011 COR 1504
KGRI 271453Z 07012KT 10SM CLR 17/11 A2991 RMK AO2 SLP125 T01720111 55016
KGRK 271513Z 16009KT 3SM BR OVC016 25/24 A2990 RMK AO2A CIG 010V016 SLP115
KGRR 271453Z 00000KT 10SM BKN027 BKN250 21/13 A2992 RMK AO2 SLP128 T02110133 50009
KGRY 271515Z AUTO 20010KT 4SM BR FEW021 27/25 A3005 RMK A01
KGSH 271453Z AUTO 00000KT 10SM BKN013 OVC030 19/14 A2991 RMK AO2 SLP125 T01890144 51015
KGSO 271454Z 26007KT 10SM FEW180 SCT250 27/18 A2995 RMK AO2 SLP130 T02720178 58002
KGSP 271453Z 25010KT 10SM CLR 26/18 A3001 RMK AO2 SLP152 T02610183 53008
KGTB 271458Z AUTO 00000KT 10SM BKN060 BKN210 17/08 A2989 RMK AO2 SLP122 T01730084 $
KGTF 271453Z 22013KT 10SM SCT110 14/04 A3007 RMK AO2 SLP179 T01390039 51012
KGTR 271520Z 19010KT 10SM BKN019 OVC030 26/19 A2999
KGTU 271450Z 18014G18KT 4SM BR BKN017 27/22 A2990
KGUC 271456Z AUTO VRB04KT 10SM FEW070 11/01 A3015 RMK AO2 SLP149 T01060006 50007
KGUL 271515Z AUTO 19011KT 5SM HZ OVC025 27/24 A3002 RMK A01
KGUP 271453Z AUTO 24009KT 10SM CLR 16/M04 A3017 RMK AO2 SLP083 T01561044 51011
KGUS 271533Z 36008KT 9SM OVC006 19/19 A2988 RMK AO2A CIG 004V006 SLP118
KGUY 271453Z AUTO 36017KT 10SM OVC012 18/15 A2989 RMK AO2 SLP085 T01780150 51031
KGVE 271515Z AUTO 00000KT 10SM SCT070 SCT090 22/17 A2991 RMK AO1 T02150167
KGVL 271453Z AUTO 26010KT 10SM CLR 24/18 A3008 RMK AO2 SLP169 T02440178 51007
KGVT 271515Z AUTO 19013KT 10SM BKN018 OVC023 29/23 A2987 RMK AO2
KGWB 271515Z AUTO 02003KT 10SM SCT014 BKN030 20/16 A2991 RMK AO2
KGWO 271527Z AUTO 21012KT 10SM SCT016 OVC065 26/23 A2998 RMK AO2 T02610228
KGWR 271535Z AUTO 10SM CLR 21/06 A2987 RMK A01
KGWW 271525Z AUTO 00000KT 10SM CLR 27/18 A2994 RMK AO2 T02740182
KGXA 271455Z AUTO 23002KT 15/03 A3003 RMK AO2 SLP161 WND DATA ESTMD T01520026 53013 TSNO $
KGXF 271458Z AUTO 00000KT 10SM CLR 25/M07 A2992 RMK AO2 SLP120 T02531073 52014
KGXY 271456Z AUTO 02009KT 10SM BKN050 OVC060 11/07 A3009 RMK AO2 RAE39 SLP181 P0000 60003 T01110072 53013
KGYB 271515Z AUTO 20009G15KT 4SM HZ BKN021 OVC025 28/23 A2993 RMK AO2 T02760227
KGYH 271447Z 25010KT 10SM CLR 26/18 A3003
KGYI 271515Z AUTO 00000KT 7SM OVC021 27/24 A2987 RMK AO2 T02670236
KGYL 271536Z AUTO 27006KT 10SM OVC110 21/09 A2990 RMK AO2 T02070090
KGYR 271447Z 00000KT 10SM SKC 22/M01 A2994
KGYY 271515Z VRB04KT 10SM BKN019 16/12 A2993
KGZH 271453Z AUTO 00000KT 10SM OVC044 24/20 A3010 RMK AO2 SLP191 T02440200 51012
KGZN 271500Z AUTO 21018G26KT 10SM SCT021 29/23 A2988 RMK AO2
KGZS 271515Z AUTO VRB05KT 10SM SCT028 BKN080 24/20 A3000 RMK A01
KHAE 271515Z AUTO 07006KT 10SM CLR 23/14 A2990 RMK AO2 LTG DSNT W
KHAF 271535Z AUTO 22003KT 7SM OVC019 13/09 A3012 RMK AO2
KHAI 271535Z AUTO 00000KT 10SM SCT019 OVC026 19/14 A2992 RMK AO2 T01850141
KHAO 271453Z AUTO 24005KT 8SM BKN019 OVC026 23/21 A2988 RMK AO2 SLP113 T02330206 50004
KHBE 271515Z AUTO 23003KT 10SM SCT022 BKN027 OVC042 23/18 A2988 RMK AO2
KHBG 271453Z AUTO 14006KT 10SM OVC055 25/22 A3007 RMK AO2 SLP180 T02500222 50011
KHBI 271520Z AUTO 27004KT 10SM CLR 26/18 A2998 RMK AO2 T02590180
KHBR 271453Z AUTO 21011KT 10SM CLR 28/12 A2977 RMK AO2 SLP063 T02780117 51010
KHBV 271515Z AUTO 18010G15KT 7SM CLR 30/22 A2989 RMK AO2 T02980221
KHCD 271534Z AUTO 27006KT 10SM OVC110 20/09 A2991 RMK AO2 T01970091
KHCO 271534Z AUTO 24016G19KT 10SM SCT090 21/07 A2973 RMK AO2
KHDC 271515Z AUTO 18007KT 10SM BKN017 BKN024 OVC050 28/22 A3005 RMK AO2
KHDE 271515Z AUTO 05009KT 10SM CLR 17/11 A2992 RMK AO2 T01680106
KHDN 271535Z AUTO 08004KT 10SM BKN025 BKN036 OVC041 05/01 A3019 RMK AO1
KHDO 271451Z AUTO 17008KT 4SM HZ OVC015 28/24 A2990 RMK AO2 SLP108 T02780239 50006 $
KHEF 271456Z AUTO 17005KT 10SM OVC100 22/15 A2992 RMK AO2 SLP141 6//// T02220150 56008 PNO $
KHEI 271453Z AUTO 29015KT 10SM CLR 17/03 A2996 RMK AO2 SLP142 T01720033 53002
KHEY 271532Z AUTO 25006KT 10SM SCT027 BKN250 25/18 A3011 RMK AO2 SLP196
KHEZ 271529Z AUTO 21007KT 10SM FEW002 BKN020 27/23 A3001 RMK AO2
KHFD 271453Z 03006KT 10SM OVC033 16/09 A2988 RMK AO2 SLP119 T01610089 51005
KHFF 271456Z AUTO 26007KT 10SM CLR 27/18 A2996 RMK AO2 SLP158 T02700180 58002 $
KHFJ 271510Z AUTO 21008KT 10SM BKN015 BKN021 BKN028 26/23 A2987 RMK AO2
KHFY 271515Z AUTO 31005KT 10SM SCT016 SCT021 23/18 A2988 RMK AO2 T02290183
KHGR 271453Z 00000KT 10SM BKN037 BKN050 OVC110 18/15 A2993 RMK AO2 RAE09 SLP141 P0001 60001 T01780150 56003
KHHF 271515Z AUTO 30008KT 10SM CLR 23/15 A2984 RMK AO2 T02260146
KHHG 271515Z AUTO 35004KT 10SM OVC007 18/17 A2989 RMK AO2 T01800173
KHHR 271521Z 27006KT 10SM BKN017 OVC040 16/12 A3006 RMK AO2 T01610122
KHHV 271515Z AUTO 16011G17KT 3SM BR SCT022 27/25 A2997 RMK A01
KHHW 271515Z AUTO 20009KT 10SM BKN018 BKN026 OVC031 29/24 A2987 RMK AO2 T02910239
KHIB 271453Z AUTO 26005KT 10SM CLR 16/07 A2984 RMK AO2 SLP110 T01560067 50005
KHIE 271500Z AUTO 32008KT 10SM SCT029 16/07 A2988 RMK AO2 T01560072
KHIF 271458Z AUTO 09006KT 10SM CLR 11/03 A3021 RMK AO2 SLP203 T01050031 52016
KHII 271515Z AUTO 16011G15KT 10SM CLR 27/04 A2991 RMK AO2
KHIO 271453Z 00000KT 10SM CLR 16/12 A3006 RMK AO2 SLP174 T01610117 53015
KHJH 271515Z AUTO 08005KT 10SM CLR 16/13 A2990 RMK AO2 T01560133
KHJO 271453Z AUTO 32009KT 10SM CLR 17/11 A3006 RMK AO2 SLP180 T01670106 51016 TSNO
KHKA 271453Z AUTO 23010KT 10SM OVC014 25/23 A2991 RMK AO2 SLP125 60016 T02500233 53004 $
KHKS 271529Z 18008KT 10SM SCT024 SCT043 OVC050 27/22 A3002 RMK AO2 T02720222
KHKY 271453Z 30006KT 10SM CLR 26/18 A2999 RMK AO2 SLP133 T02610183 53003
KHLC 271453Z AUTO 29004KT 10SM FEW080 19/14 A2990 RMK AO2 SLP110 T01890144 51008
KHLG 271523Z 02004KT 10SM SCT005 BKN013 OVC028 18/16 A2990 RMK AO2 T01830156
KHLN 271453Z 07005KT 10SM CLR 12/05 A3015 RMK AO2 SLP217 T01170050 51013
KHLR 271458Z AUTO 18009KT 5SM BR OVC015 25/23 A2988 RMK AO2 SLP108 T02450231 52010
KHLX 271515Z AUTO 00000KT 10SM BKN032 BKN039 23/14 A3003 RMK AO2 T02290142
KHMN 271458Z AUTO 22007G16KT 10SM CLR 26/M01 A3009 RMK AO2 SLP111 T02601015 51013 $
KHMP 271515Z AUTO 23009KT 10SM CLR 26/19 A3008 RMK AO2 T02610191
KHMZ 271515Z AUTO 00000KT 10SM -RA OVC021 15/13 A2993 RMK AO2 T01520125
KHNB 271456Z AUTO 19007KT 8SM OVC011 23/21 A2990 RMK AO2 SLP121 T02330211 55000
KHND 271456Z 03009KT 10SM CLR 24/01 A3001 RMK AO2 SLP138 T02390006 51022
KHNR 271535Z AUTO 00000KT 3SM RA BKN034 OVC060 14/13 A2999 RMK AO2
KHNZ 271520Z AUTO 25004KT 10SM CLR 25/16 A2994 RMK AO2 T02500158
KHOB 271450Z 22013G19KT 10SM SKC 30/M03 A3000
KHOE 271515Z AUTO 25006KT 10SM CLR A3008 RMK AO2
KHON 271455Z AUTO 30010KT 10SM BKN080 OVC100 18/07 A2992 RMK AO2 SLP130 T01830072 50004
KHOP 271522Z AUTO 25009G15KT 10SM BKN014 23/21 A2993 RMK AO2 BKN V FEW PRESRR SLP132
KHOT 271528Z AUTO 22005KT 7SM BKN015 OVC023 26/23 A2991 RMK AO2 T02610233
KHOU 271453Z 18013G20KT 10SM SCT021 BKN028 BKN250 28/24 A2994 RMK AO2 SLP143 T02830239 51007
KHPN 271456Z VRB05KT 10SM SCT036 21/12 A2986 RMK AO2 SLP109 T02110122 58001
KHQG 271515Z AUTO 05012KT 10SM OVC020 19/12 A2993 RMK AO2 T01880116
KHQI 271515Z AUTO VRB04G10KT 6SM HZ FEW024 28/25 A3000 RMK A01
KHQM 271522Z AUTO 00000KT 1/2SM FG OVC002 11/11 A3008 RMK AO2 T01110111
KHQU 271515Z AUTO 33013G20KT 10SM CLR 28/17 A3008 RMK AO2 T02840170
KHQZ 271450Z 16015G19KT 10SM OVC018 27/24 A2986
KHRI 271453Z AUTO 00000KT 10SM CLR 17/06 A3008 RMK AO2 SLP182 T01670061 51015
KHRJ 271515Z AUTO 16004KT 10SM CLR 27/16 A2994 RMK AO2 T02650159
KHRL 271524Z 18016KT 10SM BKN026 32/25 A2989 RMK AO2 T03170250
KHRO 271453Z AUTO 18009KT 10SM FEW025 SCT037 27/23 A2988 RMK AO2 SLP103 T02720228 51006
KHRT 271532Z AUTO 21008KT 10SM -DZ FEW028 BKN045 28/21 A3009 RMK AO2 DZB04E24DZB32 SLP191 $
KHRX 271515Z AUTO 31010KT 10SM CLR 29/M03 A2995 RMK AO2 T02861034
KHSA 271455Z 20006KT 7SM SCT017 OVC025 27/24 A3006
KHSB 271515Z AUTO 00000KT 10SM SCT033 26/22 A2988 RMK AO2 T02560217
KHSD 271515Z AUTO 20019G26KT 10SM CLR 29/20 A2972 RMK A01
KHSE 271451Z AUTO 23007KT 10SM CLR 27/19 A2996 RMK AO2 SLP144 T02670189 58000 TSNO
KHSG 271515Z AUTO 19007KT 10SM CLR 11/02 A3016 RMK AO2 T01100023
KHSI 271453Z AUTO 05012KT 10SM CLR 17/11 A2990 RMK AO2 SLP115 T01670111 51008
KHSP 271515Z AUTO 27012G16KT 10SM BKN016 BKN075 20/11 A3003 RMK AO2
KHST 271458Z 00000KT 10SM SCT025 31/26 A3006 RMK AO2A SLP182 T03110258 50002 VISNO RWY06
KHSV 271453Z 19006KT 10SM BKN039 OVC060 23/19 A3003 RMK AO2 SLP163 T02330194 51013
KHTL 271453Z AUTO 24006KT 10SM FEW090 19/13 A2992 RMK AO2 SLP130 T01940128 50000
KHTO 271515Z AUTO 02009KT 10SM BKN032 17/09 A2987 RMK AO2 T01700091
KHTS 271451Z 25006KT 10SM FEW036 OVC090 23/18 A2990 RMK AO2 SLP119 T02330178 51009
KHUA 271458Z AUTO 20007KT 10SM BKN044 OVC065 23/19 A3003 RMK AO2 SLP165 T02290191 51012
KHUF 271453Z 34003KT 10SM OVC015 21/17 A2988 RMK AO2 SLP115 T02110167 52001
KHUL 271453Z AUTO 02012KT 10SM BKN032 14/08 A2983 RMK AO2 SLP104 T01440083 50000 TSNO
KHUM 271455Z 18008KT 7SM SCT012 BKN019 27/24 A3005
KHUT 271452Z 04014G21KT 10SM FEW044 FEW055 20/14 A2984 RMK AO2 PK WND 02026/1435 SLP084 T02000139 58001
KHVE 271515Z AUTO 31007G14KT 10SM CLR 18/M01 A3012 RMK AO2
KHVN 271453Z 32007KT 10SM BKN037 18/11 A2987 RMK AO2 SLP113 T01830106 50001
KHVR 271453Z AUTO 23016G21KT 10SM FEW120 16/04 A2998 RMK AO2 SLP149 T01560044 51014 $
KHVS 271515Z AUTO 24008KT 227V297 10SM CLR 27/18 A2997 RMK AO2
KHWD 271454Z AUTO 24006KT 10SM OVC019 14/07 A3009 RMK AO2 SLP200 T01440072 53013
KHWO 271453Z 28003KT 10SM SCT025 31/23 A3008 RMK AO2 SLP185 T03110233 50001
KHWV 271456Z AUTO 30007KT 10SM BKN031 20/13 A2988 RMK AO2 SLP117 T02000133 52001
KHWY 271515Z AUTO 15003KT 10SM OVC080 22/13 A2992 RMK AO2 T02210133
KHXD 271450Z 25008KT 10SM SKC 28/17 A3004
KHYA 271456Z 01009KT 10SM FEW023 BKN041 17/09 A2984 RMK AO2 SLP107 T01670094 51008
KHYI 271445Z KT 2 1/2 SM BR M/M A2990 RMK AWOS OTS
KHYR 271453Z AUTO VRB04KT 10SM CLR 18/09 A2988 RMK AO2 SLP119 T01780089 53008
KHYS 271456Z AUTO 35003KT 10SM OVC075 18/14 A2988 RMK AO2 SLP108 60009 T01780139 55005
KHYW 271515Z AUTO 23007KT 5SM HZ CLR 28/18 A2998 RMK AO2
KHYX 271516Z AUTO 04003KT 10SM SCT034 SCT045 21/11 A2992 RMK AO2
KHZD 271515Z AUTO 21008G16KT 10SM FEW016 25/22 A2992 RMK A01
KHZE 271535Z AUTO 26007G13KT 10SM FEW080 FEW100 18/06 A2989 RMK AO2
KHZL 271515Z AUTO 33004KT 10SM OVC020 19/12 A2995 RMK AO2
KHZR 271515Z AUTO 20009KT 10SM SCT018 BKN022 OVC050 28/24 A3003 RMK AO2 T02750240
KHZX 271533Z AUTO 29004KT 10SM CLR 18/07 A2987 RMK AO2
KHZY 271453Z AUTO 05004KT 10SM BKN032 19/12 A2992 RMK AO2 SLP128 T01940117 58002 TSNO
KI16 271515Z AUTO 10SM OVC030 24/18 A3002 RMK AO2 T02370176
KI19 271530Z AUTO 00000KT 10SM SCT013 BKN019 OVC043 22/19 A2989 RMK AO2 T02230191
KI23 271532Z AUTO 29008KT 10SM BKN018 OVC025 23/20 A2988 RMK AO1
KI35 271515Z AUTO 00000KT 10SM OVC028 21/16 A3001 RMK AO1
KI63 271515Z AUTO 11007KT 7SM OVC004 17/16 A2991 RMK AO2 T01660159
KI67 271535Z AUTO 22005KT 10SM BKN028 OVC035 23/18 A2987 RMK AO1
KI68 271535Z AUTO 26007KT 10SM SCT018 BKN033 OVC039 23/20 A2988 RMK AO2
KI69 271535Z AUTO 23007KT 10SM SCT027 BKN035 OVC047 25/19 A2989 RMK AO2 T02510190
KI75 271515Z AUTO 13006KT 10SM BKN060 20/17 A2991 RMK AO2 T02000172
KIAB 271533Z AUTO 04018G25KT 10SM SCT027 BKN036 OVC070 23/14 A2982 RMK AO2 SLP088
KIAD 271452Z 00000KT 10SM SCT055 BKN090 20/14 A2992 RMK AO2 SLP131 VCSH T02000139 56004
KIAG 271452Z 00000KT 10SM FEW013 SCT021 OVC048 17/12 A2991 RMK AO2 SLP128 T01720122 51004
KIAH 271453Z 18009G17KT 9SM BKN021 BKN032 BKN100 29/23 A2995 RMK AO2 SLP139 T02940233 51008
KIBM 271515Z AUTO 35011KT 10SM SCT013 BKN020 11/07 A3008 RMK AO2 T01100069
KICL 271535Z AUTO 00000KT 10SM FEW037 FEW045 SCT050 16/16 A2991 RMK AO2 PWINO
KICR 271453Z AUTO 30007KT 10SM OVC055 13/11 A3000 RMK AO2 RAE05 SLP155 P0000 60000 T01330106 53011
KICT 271453Z 03019G28KT 10SM BKN026 BKN075 BKN200 21/14 A2984 RMK AO2 PK WND 03028/1453 RAB24E36 SLP092 P0000 60000 T02110139 55001
KIDA 271453Z 00000KT 10SM SCT100 08/05 A3024 RMK AO2 SLP239 T00780050 51016
KIDI 271535Z AUTO 10003KT 10SM OVC021 16/14 A2995 RMK A01
KIDP 271515Z AUTO 11007KT 10SM CLR 26/22 A2978 RMK AO2
KIEN 271508Z AUTO 29009KT 10SM SCT013 OVC075 13/10 A3004 RMK AO2 T01280100
KIER 271515Z AUTO 19009KT 7SM BKN017 BKN024 OVC030 28/25 A2996 RMK AO2 T02820249
KIFA 271455Z AUTO 00000KT 10SM CLR 22/13 A2993 RMK AO2 T02180130
KIFP 271515Z 25003KT 10SM CLR 26/04 A2992 RMK AO2
KIGM 271451Z AUTO 14004KT 10SM CLR 22/01 A3002 RMK AO2 SLP102 T02220011 51017
KIGQ 271515Z AUTO 04006KT 10SM BKN018 18/15 A2992 RMK AO2 T01820153
KIGX 271456Z AUTO VRB04KT 10SM CLR 27/18 A2995 RMK AO2 SLP136 T02670178 58004
KIIB 271535Z AUTO 00000KT 2SM BR OVC001 16/16 A2993 RMK AO2
KIIY 271510Z AUTO 26005KT 10SM CLR 28/20 A3004 RMK AO2
KIJD 271452Z AUTO 32005KT 10SM BKN025 OVC030 16/09 A2989 RMK AO2 SLP120 T01560094 51008
KIJX 271515Z AUTO 06006KT 2 1/2SM BR OVC004 17/16 A2991 RMK AO2 T01650158
KIKG 271515Z AUTO 15011G16KT 5SM HZ BKN023 BKN031 32/26 A2989 RMK AO2 T03200255
KIKK 271515Z AUTO 00000KT 10SM SCT013 21/16 A2991 RMK AO2 T02050162
KIKT 271515Z AUTO 22007G13KT 150V230 10SM OVC021 30/24 A3009 RMK A01
KIKV 271535Z AUTO 14006KT 10SM CLR 21/16 A2991 RMK AO2
KIKW 271534Z AUTO 00000KT 10SM CLR 22/13 A2991 RMK AO2 T02160131
KILE 271456Z AUTO 18010KT 4SM BR SCT007 OVC022 26/24 A2991 RMK AO2 SLP129 T02610239 51009
KILG 271451Z 27004KT 10SM FEW050 22/12 A2992 RMK AO2 RAB1357E07 SLP130 P0000 60000 T02170122 50000 $
KILM 271453Z AUTO 25007KT 10SM CLR 29/18 A2996 RMK AO2 SLP146 T02890178 58008
KILN 271515Z AUTO 26006KT 8SM FEW018 SCT023 OVC037 24/21 A2988 RMK AO2 T02390206
KIML 271506Z AUTO 34012KT 10SM BKN010 OVC015 13/11 A3001 RMK AO2 CIG 008V012 T01330106
KIMM 271515Z AUTO 28004KT 10SM CLR 31/20 A3009 RMK AO2
KIMS 271533Z AUTO 18004KT 7SM BKN017 BKN023 BKN035 25/20 A2990 RMK AO1
KIMT 271454Z AUTO 22008KT 190V270 10SM OVC031 21/13 A2983 RMK AO2 SLP101 T02060128 56007
KIND 271521Z VRB03KT 10SM OVC015 21/17 A2988 RMK AO2 T02110167
KINF 271515Z AUTO 15003KT 10SM CLR 27/17 A3010 RMK AO2
KINJ 271515Z AUTO 17017G20KT 5SM HZ BKN012 BKN016 OVC029 28/25 A2988 RMK AO2 T02750245
KINK 271453Z AUTO 29014G20KT 10SM CLR 31/M01 A2995 RMK AO2 SLP089 T03061011 51015 $
KINL 271455Z AUTO 28010KT 10SM CLR 19/06 A2979 RMK AO2 SLP088 T01890061 50003
KINS 271458Z AUTO 00000KT 10SM CLR 21/M04 A3003 RMK AO2 SLP126 T02101042 52021 $
KINT 271454Z 23007KT 10SM CLR 27/16 A2996 RMK AO2 SLP135 T02670156 58002
KINW 271456Z AUTO 16004KT 10SM CLR 18/M03 A3011 RMK AO2 SLP135 T01831033 50009
KIOB 271515Z AUTO 28007KT 250V310 10SM BKN018 23/19 A2995 RMK AO2
KIOW 271534Z AUTO 12003KT 9SM OVC005 17/15 A2995 RMK AO2 T01720150
KIPJ 271540Z AUTO 25011KT 10SM CLR 27/15 A2998 RMK AO2 T02720152
KIPL 271453Z AUTO 04005KT 10SM CLR 23/08 A2989 RMK AO2 SLP121 T02280083 53019
KIPT 271454Z 02004KT 10SM SCT025 21/12 A2989 RMK AO2 SLP121 T02060122 58004
KIRK 271455Z AUTO 00000KT 10SM CLR 24/16 A2992 RMK AO2 SLP129 T02440161 53010
KIRS 271535Z AUTO 00000KT 10SM SCT019 SCT030 OVC036 19/15 A2991 RMK AO2 T01910150
KISM 271456Z 00000KT 10SM CLR 28/17 A3010 RMK AO2 SLP195 T02780167 50002
KISN 271452Z AUTO 28007G14KT 10SM CLR 18/06 A2986 RMK AO2 SLP111 T01780056 58001
KISO 271456Z 22003KT 10SM CLR 28/17 A2995 RMK AO2
KISP 271456Z 34009KT 10SM SCT033 BKN250 21/12 A2987 RMK AO2 SLP114 T02060122 50001 $
KISQ 271535Z AUTO 15008KT 10SM CLR 13/10 A2988 RMK AO2 T01250100
KISW 271454Z AUTO 00000KT 10SM CLR 20/14 A2989 RMK AO2 SLP121 T02000139 55002
KITH 271456Z 31004KT 10SM 010BKN 020OVC 15/13 A2992
KITR 271502Z AUTO 34013KT 10SM OVC015 13/10 A3003 RMK AO2 T01330100
KIWA 271447Z 15008KT 45SM SKC 23/M03 A2997
KIWD 271456Z AUTO 31007KT 10SM CLR 19/11 A2985 RMK AO2 SLP105 T01890111 53006
KIWI 271453Z AUTO 02006G16KT 10SM FEW020 BKN027 BKN033 14/08 A2986 RMK AO2 SLP110 T01390078 51007
KIXA 271520Z AUTO 21007KT 10SM CLR 27/17 A2993 RMK AO2
KIXD 271453Z 01018KT 10SM CLR 21/15 A2989 RMK AO2 SLP111 T02060150 51026 $
KIYA 271512Z AUTO 20009KT 10SM SCT018 OVC039 29/26 A3003 RMK AO2
KIZA 271515Z AUTO 00000KT 10SM CLR 13/08 A3008 RMK AO2
KIZG 271454Z AUTO VRB04KT 10SM CLR 17/08 A2985 RMK AO2 SLP108 T01720083 52002
KJAC 271451Z 00000KT 10SM SCT011 05/02 A3024
KJAN 271502Z 23010G16KT 10SM SCT024 OVC049 27/22 A3002 RMK AO2 T02720217 $
KJAQ 271515Z AUTO 35004KT 10SM OVC030 12/09 A3007 RMK AO1 T01210089
KJAS 271515Z AUTO 19008G14KT 7SM 28/25 A2999 RMK AO2 T02760252
KJAU 271515Z AUTO 00000KT 10SM SCT029 BKN038 BKN043 23/19 A3003 RMK A01
KJAX 271456Z VRB05KT 10SM FEW200 FEW250 27/18 A3007 RMK AO2 SLP183 T02720178 57002 $
KJBR 271453Z AUTO 22009KT 9SM OVC011 26/23 A2989 RMK AO2 SLP116 60013 T02560228 55003
KJCA 271515Z AUTO 27008KT 10SM CLR 26/18 A3005 RMK AO2
KJCT 271451Z AUTO 20007KT 6SM HZ OVC012 27/24 A2991 RMK AO2 SLP090 T02670239 51008 TSNO
KJDD 271515Z AUTO 20010G15KT 140V230 10SM OVC020 28/23 A2989 RMK AO2
KJDN 271448Z AUTO 26010KT 14/03 A2996 RMK AO1 SLP147 T01440033 51008
KJEF 271453Z 12006KT 10SM CLR 27/18 A2987 RMK AO2 SLP100 T02670178 53004
KJER 271453Z AUTO 04007KT 10SM CLR 11/07 A3021 RMK AO2 SLP217 T01110072 53014
KJES 271515Z AUTO 26004KT 10SM CLR 30/16 A3006 RMK AO2
KJFK 271451Z VRB03KT 10SM SCT043 BKN250 22/13 A2988 RMK AO2 SLP116 T02220128 58001
KJFX 271535Z AUTO 00000KT 10SM CLR 26/21 A3005 RMK AO2 PWINO
KJFZ 271515Z AUTO 24010G14KT 10SM BKN026 BKN030 OVC060 21/17 A3004 RMK AO2 T02070170
KJGG 271515Z AUTO 00000KT 10SM CLR 26/17 A2992 RMK AO1
KJHN 271515Z AUTO 36011KT 10SM BKN033 BKN043 OVC050 18/11 A2996 RMK AO2 T01810112
KJHW 271535Z AUTO 00000KT 10SM SCT019 OVC028 15/10 A2993 RMK AO1
KJKA 271515Z AUTO 21007KT 10SM SCT012 BKN017 OVC049 27/25 A3010 RMK AO2 T02670252
KJKJ 271534Z AUTO 24008G14KT 10SM CLR 21/05 A2984 RMK AO2
KJKL 271453Z AUTO 00000KT 10SM OVC021 23/18 A2996 RMK AO2 SLP133 T02280183 50009
KJLN 271523Z COR 19008KT 6SM BR BKN015 BKN020 BKN025 26/24 A2984 RMK AO2 T02610239
KJMR 271521Z AUTO 30005KT 10SM CLR 18/08 A2990 RMK AO2
KJMS 271456Z AUTO 28009KT 10SM CLR 19/05 A2984 RMK AO2 SLP105 T01890050 51002
KJNX 271525Z AUTO 00000KT 10SM CLR 27/18 A2993 RMK AO2
KJOT 271515Z AUTO 04004KT 10SM CLR 20/16 A2991 RMK AO2 T02020157
KJQF 271450Z 27011KT 10SM CLR 28/16 A2999
KJRB 271535Z VRB05KT 9SM BKN049 22/13 A2989 RMK AO2 SLP299 P0999 PWINO FZRANO RVRNO
KJSO 271515Z AUTO 19007KT 7SM BKN013 BKN022 OVC038 27/24 A2995 RMK AO2 T02700243
KJST 271454Z AUTO 00000KT 10SM OVC008 14/13 A2993 RMK AO2 SLP131 60002 T01440133 50004
KJSV 271515Z AUTO 20009G15KT 10SM BKN025 BKN031 29/22 A2984 RMK AO2
KJTC 271515Z AUTO 34008KT 10SM CLR 16/M08 A3021 RMK AO2
KJVL 271445Z 00000KT 10SM SCT014 19/14 A2992
KJWG 271515Z AUTO 23010KT SCT030 27/21 A2977 RMK AO2 T02740214 PWINO
KJWN 271515Z AUTO 18014KT 7SM FEW021 FEW032 SCT044 22/19 A2990 RMK A01
KJWY 271515Z AUTO 18015G22KT 7SM OVC015 27/24 A2987 RMK AO2 T02730244
KJXI 271515Z AUTO 16007G14KT 130V190 7SM OVC015 27/24 A2991 RMK AO2 T02650235
KJXN 271526Z 00000KT 10SM BKN030 OVC038 20/13 A2992 RMK AO2 T02000133
KJYG 271535Z AUTO 00000KT 10SM CLR 19/09 A2994 RMK AO2
KJYL 271515Z AUTO 26006KT 10SM CLR 29/20 A3005 RMK AO2 T02880195
KJYM 271534Z AUTO 13005KT 10SM BKN026 BKN031 OVC075 20/14 A2992 RMK AO2
KJYO 271515Z AUTO 00000KT 10SM -RA SCT034 BKN085 OVC100 18/17 A2993 RMK AO2 P0002
KJYR 271515Z AUTO 05009KT 10SM CLR 17/11 A2991 RMK AO2
KJZI 271535Z AUTO 23008KT 10SM CLR 29/20 A3002 RMK AO2
KJZP 271515Z AUTO 28006KT 10SM SCT050 23/14 A3011 RMK AO2 T02270135
KK88 271515Z AUTO 03009KT 7SM 24/21 A2984 RMK AO1 T02360211
KKLS 271456Z AUTO 00000KT 10SM CLR 13/10 A3008 RMK AO2 SLP191 T01330100 53011
KKY8 271515Z AUTO 00000KT 10SM OVC015 25/22 A2988 RMK AO1
KL18 271515Z AUTO 00000KT 10SM OVC033 16/11 A3005 RMK AO2
KL35 271515Z AUTO 00000KT 10SM CLR 14/M10 A3016 RMK AO2
KLAA 271453Z AUTO 36009KT 10SM BKN034 18/11 A2998 RMK AO2 SLP112 T01780106 51017
KLAF 271507Z 36007KT 10SM OVC011 19/17 A2988 RMK AO2 T01890167
KLAL 271452Z 00000KT 10SM SKC 27/15 A3011
KLAM 271515Z AUTO 29007G16KT 240V330 10SM CLR 18/M08 A3015 RMK AO2 T01791077
KLAN 271453Z 05004KT 10SM CLR 22/12 A2993 RMK AO2 SLP131 T02220117 53010
KLAR 271510Z AUTO 31010KT 10SM -RA SCT009 BKN031 OVC036 03/02 A3015 RMK AO2 P0000 T00330017
KLAS 271456Z 03005KT 10SM CLR 26/M03 A2997 RMK AO2 SLP124 T02561028 51026
KLAW 271453Z 19013KT 10SM CLR 28/22 RMK AO2 SLPNO T02830222 $
KLAX 271453Z 26007KT 10SM FEW018 BKN038 16/12 A3005 RMK AO2 SLP174 T01560122 53014
KLBB 271453Z 29008KT 10SM SCT200 SCT260 29/M04 A2994 RMK AO2 SLP076 T02891039 51010
KLBE 271450Z 00000KT 5SM -RA SCT012 BKN024 16/16 A2992
KLBF 271453Z AUTO 07007KT 10SM CLR 18/11 A2997 RMK AO2 SLP130 T01830106 53008
KLBL 271456Z AUTO 04012KT 10SM OVC015 18/14 A2989 RMK AO2 SLP098 T01830139 53027
KLBT 271454Z AUTO 26008KT 220V290 10SM CLR 28/18 A2995 RMK AO2 SLP140 T02780183 $
KLBX 271521Z AUTO 19013G20KT 10SM FEW021 SCT029 30/24 A2996 RMK AO2 T03000244
KLCG 271515Z AUTO 02012KT 10SM OVC090 17/10 A2993 RMK AO2 LTG DSNT E T01730103
KLCH 271512Z 19010G17KT 9SM FEW018 SCT027 29/23 A3000 RMK AO2 T02890233 $
KLCI 271456Z AUTO VRB03KT 10SM FEW036 17/08 A2986 RMK AO2 SLP130 T01720083 53004
KLCK 271510Z AUTO 00000KT 10SM OVC015 22/19 A2986 RMK AO2 T02160188
KLCQ 271515Z AUTO 00000KT 10SM CLR 27/17 A3010 RMK AO2
KLDJ 271535Z AUTO 29005KT 10SM SCT041 SCT047 OVC065 21/12 A2988 RMK AO2 T02100119
KLDM 271535Z AUTO 15003KT 10SM CLR 21/13 A2989 RMK AO2 T02080131
KLEB 271500Z 00000KT 10SM BKN026 18/10 A2987 RMK AO2 T01780100
KLEE 271453Z 06005KT 10SM CLR 28/17 A3010 RMK AO2 SLP191 T02780172 50003
KLEW 271456Z AUTO 34010G16KT 10SM FEW027 15/09 A2985 RMK AO2 SLP123 T01500089 51004
KLEX 271534Z 21009KT 10SM FEW015 24/19 A2992 RMK AO2 T02440189
KLFI 271458Z AUTO 12003KT 10SM CLR 24/17 A2991 RMK AO2 SLP135 T02400166 58003 $
KLFK 271453Z AUTO 20013KT 7SM SCT019 SCT025 OVC036 28/23 A2994 RMK AO2 SLP134 T02780233 50003 $
KLFT 271500Z 24008KT 10SM SCT019 BKN029 OVC041 28/24 A3002 RMK AO2 T02780244
KLGA 271451Z 30004KT 10SM SCT038 BKN250 22/12 A2986 RMK AO2 SLP112 T02170117 58002
KLGB 271453Z AUTO 32003KT 10SM CLR 17/11 A3005 RMK AO2 SLP175 T01720106 53013 TSNO
KLGC 271515Z AUTO 29008KT 10SM CLR 25/21 A3009 RMK AO2 T02530210
KLGD 271535Z AUTO 00000KT 10SM CLR 13/04 A3019 RMK AO1
KLGU 271451Z AUTO 19003KT 10SM CLR 09/04 A3023 RMK AO2 SLP219 T00940039 51017 TSNO
KLHB 271515Z AUTO 16010KT 5SM HZ SCT019 BKN025 OVC037 28/25 A2993 RMK AO2 T02760251
KLHM 271515Z AUTO 17008KT 10SM CLR 15/07 A3005 RMK AO1
KLHQ 271453Z AUTO 24005KT 9SM BKN018 24/19 A2987 RMK AO2 SLP109 T02390189 58000
KLHW 271458Z AUTO 26008KT 10SM CLR 29/17 A3002 RMK AO2 SLP168 T02870167 58004 $
KLHX 271453Z AUTO 35007KT 10SM OVC031 16/09 A3003 RMK AO2 SLP121 T01560094 51019
KLHZ 271515Z AUTO 00000KT 10SM CLR 27/16 A2997 RMK AO2
KLIC 271455Z AUTO 34013G20KT 10SM SCT060 12/07 A3008 RMK AO2 SLP143 T01220067 51016
KLIT 271453Z 21010KT 7SM OVC015 26/23 A2991 RMK AO2 SLP127 T02560233 51009
KLJF 271532Z AUTO 00000KT 10SM CLR 19/10 A2990 RMK AO2
KLKR 271535Z AUTO 25011KT 10SM CLR 28/19 A2999 RMK AO2
KLKU 271515Z AUTO 10003KT 10SM SCT090 25/19 A2990 RMK AO2
KLLJ 271455Z AUTO 00000KT 10SM CLR 09/02 A3024 RMK AO2 SLP214 T00940017 51013
KLLQ 271453Z AUTO 22007KT 10SM OVC014 26/23 A2994 RMK AO2 SLP136 T02610228 53010
KLMT 271453Z 13003KT 10SM CLR 12/06 A3017 RMK AO2 SLP186 T01170061 52015
KLNC 271515Z AUTO 19011G21KT 7SM BKN018 28/24 A2987 RMK AO2 T02840235
KLND 271453Z AUTO VRB03KT 10SM CLR 10/04 A3016 RMK AO2 SLP196 T01000039 53016
KLNK 271454Z 33009KT 10SM CLR 16/12 A2989 RMK AO2 PK WND 08026/1409 RAE29 SLP116 P0000 60041 T01610122 58003
KLNL 271515Z AUTO 27003KT 10SM CLR 20/12 A2987 RMK AO2 T02000115
KLNN 271515Z AUTO 36009KT 10SM CLR 19/13 A2989 RMK AO1 T01870131
KLNP 271510Z AUTO 24004KT 10SM SCT025 BKN029 OVC060 21/16 A3005 RMK AO2
KLNR 271456Z AUTO 00000KT 3SM BR OVC008 16/13 A2991 RMK AO2 SLP124 T01560133 53000
KLNS 271453Z 26003KT 10SM FEW049 19/13 A2991 RMK AO2 SLP126 T01940128 58004
KLOL 271453Z AUTO 03010KT 10SM CLR 14/01 A3016 RMK AO2 SLP189 T01390006 51013 TSNO
KLOM 271515Z AUTO 00000KT 10SM CLR 18/13 A2991 RMK AO1
KLOR 271458Z AUTO 30007KT 10SM BKN023 25/19 A3011 RMK AO2 BKN V SCT SLP178 60000 T02480186 52011
KLOT 271515Z AUTO 07004KT 10SM CLR 19/16 A2992 RMK AO2 T01880157
KLOU 271453Z 21004KT 8SM OVC016 24/21 A2989 RMK AO2 SLP117 T02440211 50002
KLOZ 271453Z AUTO 22007KT 10SM SCT027 OVC080 23/17 A2998 RMK AO2 RAE03 SLP139 P0000 60000 T02280167 51012
KLPC 271456Z AUTO 00000KT 10SM CLR 13/10 A3009 RMK AO2 SLPNO T01280100 53015
KLPR 271453Z AUTO 10008KT 10SM FEW120 20/13 A2990 RMK AO2 SLP122 T02000128 51004
KLRD 271456Z 15015KT 7SM CLR 30/24 A2986 RMK AO2 SLP109 T03000239 50006 $
KLRF 271458Z AUTO 19008KT 10SM OVC015 26/23 A2990 RMK AO2 SLP125 T02640234 51009
KLRJ 271535Z AUTO 36008KT 10SM FEW060 FEW070 OVC090 15/12 A2995 RMK AO2
KLRO 271515Z AUTO 23008KT 10SM CLR 29/18 A3001 RMK AO2
KLRU 271515Z AUTO 27017G21KT 10SM CLR 25/M04 A3010 RMK AO2 T02481038
KLRY 271455Z AUTO 06005KT 10SM OVC035 25/21 A2989 RMK AO2
KLSE 271453Z 00000KT 10SM CLR 20/16 A2988 RMK AO2 SLP114 T02000161 51006
KLSF 271458Z AUTO 22006KT 10SM CLR 25/19 A3007 RMK AO2 SLP186 T02520188 50004
KLSV 271458Z AUTO 01014KT 10SM CLR 26/01 A2996 RMK AO2 SLP123 T02600006 52023
KLTS 271458Z AUTO 25009KT 10SM CLR 29/08 A2977 RMK AO2 SLP066 T02850075 51005
KLUA 271515Z AUTO 04004KT 10SM SCT060 SCT070 SCT085 23/16 A2991 RMK AO2
KLUD 271515Z AUTO 19012G16KT 7SM BKN022 OVC026 29/24 A2985 RMK AO2 T02910235
KLUF 271458Z AUTO 00000KT 10SM CLR 24/01 A2994 RMK AO2 SLP126 T02390010 52016 $
KLUK 271506Z 26006KT 9SM FEW027 OVC034 24/20 A2987 RMK AO2 T02440200
KLUL 271455Z AUTO 14005KT 10SM OVC050 24/24 A3007 RMK AO2 T02440238
KLUM 271515Z AUTO 27006KT 10SM CLR 20/09 A2989 RMK AO2 T02010094
KLUX 271535Z AUTO 28007KT 7SM CLR 27/19 A3001 RMK AO2
KLVJ 271453Z AUTO 18014KT 7SM BKN018 OVC026 29/24 A2996 RMK AO2 SLP145 T02940239 50009
KLVK 271453Z 27005KT 10SM OVC015 13/09 A3008 RMK AO2 SLP186 T01280089 53013
KLVL 271515Z AUTO 22004KT 10SM CLR 27/18 A2992 RMK AO1 T02650175
KLVM 271453Z AUTO 24013KT 10SM CLR 14/02 A3014 RMK AO2 WSHFT 1407 SLP189 T01390022 51009 TSNO
KLVN 271529Z AUTO 31003KT 10SM CLR 21/08 A2991 RMK AO2
KLVS 271453Z AUTO 25006KT 10SM CLR 18/M11 A3009 RMK AO2 SLP091 T01831111 51007
KLWA 271535Z AUTO 02004KT 10SM BKN023 21/15 A2992 RMK AO2 T02090152
KLWB 271515Z AUTO 24007KT 10SM SCT050 BKN080 22/16 A2998 RMK AO2 T02210155
KLWC 271452Z AUTO 33004KT 10SM BKN039 19/17 A2991 RMK AO2 SLP122 60001 T01890167 51027
KLWD 271530Z AUTO 23010KT 10SM -RA FEW049 OVC060 17/15 A2994 RMK AO2 PK WND 21032/1454 LTG DSNT ALQDS RAB13 P0003 T01670150
KLWM 271454Z 06003KT 10SM BKN033 BKN040 19/11 A2987 RMK AO2 SLP115 T01890106 53007
KLWS 271456Z 08005KT 10SM CLR 15/08 A3014 RMK AO2 SLP204 T01500083 51018
KLWT 271454Z AUTO 28003KT 10SM OVC080 13/04 A3007 RMK AO2 SLP170 T01280039 51012
KLWV 271453Z AUTO 00000KT 8SM BKN018 25/20 A2988 RMK AO2 SLP114 T02500200 53002
KLXL 271533Z AUTO 24007KT 10SM CLR 18/06 A2988 RMK AO2
KLXN 271515Z AUTO 06009KT 10SM CLR 18/11 A2994 RMK AO2 T01800112
KLXT 271453Z AUTO 03011KT 10SM FEW015 SCT019 BKN060 22/18 A2990 RMK AO2 SLP115 T02170178 50023
KLXV 271453Z AUTO 03005KT 6SM -SN BR SCT019 BKN033 OVC100 02/00 A3020 RMK AO2 SNB11 SLP112 P0000 60000 T00170000 53013
KLXY 271515Z AUTO 18012G25KT 7SM OVC017 27/24 A2989 RMK AO2 T02690236
KLYH 271454Z 20008KT 10SM CLR 25/16 A2993 RMK AO2 SLP128 T02500161 58006
KLYV 271518Z AUTO 00000KT 10SM OVC070 15/11 A2994 RMK AO2
KLZU 271445Z 28010KT 10SM CLR 25/17 A3007 RMK VIS APCH RWY 25 ATIS S BK
KLZZ 271535Z AUTO 19005KT 5SM BR OVC013 26/24 A2990 RMK AO2 T02580240
KM04 271515Z AUTO 23009G15KT 9SM OVC015 26/22 A2992 RMK A01
KM08 271515Z AUTO 19008G14KT 10SM OVC013 25/22 A2994 RMK A01
KM19 271519Z AUTO 21015KT 9SM BKN016 28/23 A2988 RMK AO2
KM21 271515Z AUTO 13006KT 10SM SCT021 SCT029 SCT041 25/20 A2988 RMK AO2 T02520204
KM25 271555Z AUTO 22008KT 10SM SCT016 BKN080 24/20 A2992 RMK AO2 PWINO
KM30 271515Z AUTO 23006KT 10SM SCT022 SCT039 SCT095 27/23 A2989 RMK AO2 T02730227
KM33 271515Z AUTO 17008KT 150V210 10SM FEW023 24/19 A2995 RMK A01
KM75 271515Z AUTO 27015KT 10SM OVC120 15/06 A2992 RMK A01
KM91 271515Z AUTO VRB05G12KT 10SM CLR 22/20 A2986 RMK A01
KMAE 271453Z AUTO 31006KT 10SM OVC050 14/10 A3006 RMK AO2 SLP179 T01440100 51015
KMAF 271453Z 28010KT 10SM CLR 32/06 A2994 RMK AO2 SLP085 T03170056 51013 $
KMAI 271453Z AUTO 28007KT 10SM FEW021 26/19 A3010 RMK AO2 SLP191 T02610189 52008
KMAN 271535Z AUTO VRB03KT 10SM CLR 16/08 A3018 RMK A01
KMAO 271455Z AUTO 27009KT 7SM CLR 27/18 A2997 RMK AO2
KMAW 271535Z AUTO 18007KT 10SM BKN022 BKN029 BKN035 26/20 A2990 RMK AO2
KMBG 271452Z AUTO 26006KT 10SM CLR 18/06 A2990 RMK AO2 SLP125 T01780061 51003
KMBL 271456Z AUTO VRB03KT 10SM CLR 20/13 A2989 RMK AO2 SLP141 T02000128 58005
KMBO 271515Z AUTO 22008G15KT 192V252 10SM SCT024 SCT050 26/21 A3002 RMK AO2
KMBS 271453Z VRB04KT 10SM CLR 21/14 A2993 RMK AO2 SLP132 T02060144 51012 $
KMCB 271519Z AUTO 17008KT 9SM SCT012 BKN017 OVC050 27/23 A3005 RMK AO2 T02670228 TSNO
KMCC 271515Z AUTO 18007KT 10SM BKN047 14/08 A3008 RMK AO2
KMCD 271516Z AUTO 10004KT 10SM CLR 18/11 A2989 RMK AO2 T01750108
KMCE 271453Z AUTO 31010KT 10SM CLR 14/09 A3006 RMK AO2 SLP177 T01440089 52016
KMCF 271458Z AUTO 25005KT 10SM FEW180 29/18 A3010 RMK AO2 SLP196 T02860184 51010 $
KMCI 271453Z 09008KT 10SM BKN095 OVC130 17/15 A2987 RMK AO2 LTG DSNT N RAE13 SLP107 P0001 60036 T01720150 50015 $
KMCJ 271455Z AUTO 19007KT 020V040 5SM OVC019 29/23 A2992 RMK AO1
KMCK 271453Z AUTO 05009KT 10SM CLR 17/13 A2994 RMK AO2 SLP122 T01720128 53011
KMCN 271453Z 27008KT 10SM CLR 28/13 A3006 RMK AO2 SLP174 T02780128 50003
KMCO 271453Z 00000KT 10SM CLR 26/16 A3009 RMK AO2 SLP186 T02610156 50001 $
KMCW 271453Z AUTO 35006KT 10SM CLR 21/09 A2992 RMK AO2 SLP124 T02110089 51007
KMCX 271535Z AUTO 01008KT 10SM OVC008 18/16 A2989 RMK AO2 T01770161
KMDD 271515Z AUTO 30014KT 10SM CLR 33/02 A2994 RMK AO2 T03300018
KMDH 271452Z VRB03KT 10SM OVC033 25/22 A2987 RMK AO2 SLP112 T02500217 53003
KMDJ 271515Z AUTO 19007KT 5SM HZ BKN023 BKN028 28/25 A3007 RMK A01
KMDQ 271515Z AUTO 00000KT 10SM SCT036 BKN046 BKN070 23/17 A3004 RMK AO2
KMDS 271530Z AUTO 24011KT 10SM FEW075 14/12 A2993 RMK AO2
KMDT 271456Z 31005KT 10SM FEW055 BKN100 OVC250 19/13 A2991 RMK AO2 RAB41E54 SLP127 VCSH S-W P0000 60000 T01890128 57007
KMDW 271453Z 08009KT 10SM FEW030 BKN250 19/13 A2993 RMK AO2 SLP130 T01940128 51006 $
KMDZ 271515Z AUTO 28010G15KT 10SM CLR 19/10 A2988 RMK AO2 T01920096
KMEB 271452Z AUTO 27008KT 10SM CLR 28/19 A2996 RMK AO2 SLP143 T02780189 58004 TSNO
KMEH 271456Z AUTO 00000KT 10SM CLR 12/03 A3017 RMK AO2 SLP207 T01170033 51010
KMEI 271458Z 18012KT 10SM CLR 27/22 A3005 RMK AO2 SLP170 60000 T02670222 51001
KMEM 271454Z 22009G19KT 10SM BKN015 OVC030 26/23 A2993 RMK AO2 SLP131 T02560228 51005
KMER 271445Z 29007KT 10SM SCT100 14/MM A3007
KMEV 271515Z AUTO 00000KT 10SM CLR 12/02 A3018 RMK AO2
KMEZ 271535Z AUTO 22007KT 184V254 7SM OVC016 27/26 A2991 RMK AO2 TSNO
KMFD 271533Z VRB04KT 10SM SCT011 BKN016 BKN080 19/17 A2990 RMK AO2 T01940167
KMFE 271453Z 14023G27KT 9SM CLR 32/24 A2988 RMK AO2 PK WND 14027/1453 SLP116 T03170244 51008
KMFI 271454Z AUTO 24004KT 10SM CLR 18/13 A2987 RMK AO2 SLP115 T01830133 53001
KMFR 271453Z 00000KT 10SM CLR 14/09 A3008 RMK AO2 SLP175 T01440089 51013 $
KMFV 271515Z AUTO 09004KT 10SM CLR 24/M17 A2993 RMK AO2 T02411166
KMGC 271535Z AUTO 36005KT 10SM BKN009 OVC023 17/17 A2993 RMK AO2
KMGE 271458Z 26008KT 10SM SCT150 BKN250 25/18 A3006 RMK AO2A ACC S SLP171 T02530176 52007 $
KMGG 271534Z AUTO 29005KT 10SM SCT120 19/10 A2990 RMK AO2 T01910095
KMGJ 271454Z AUTO VRB03KT 10SM SCT034 OVC045 20/12 A2986 RMK AO2 SLP111 T02000122 58002 TSNO
KMGM 271453Z 24008KT 10SM FEW021 SCT032 26/19 A3009 RMK AO2 SLP186 T02560189 51009 $
KMGN 271534Z AUTO 00000KT 10SM CLR 19/11 A2989 RMK AO2 T01960109
KMGR 271515Z AUTO 25007KT 10SM CLR 27/16 A3010 RMK AO2
KMGW 271513Z 00000KT 10SM FEW003 OVC030 18/16 A2991 RMK AO2 T01780161
KMGY 271524Z AUTO 24007KT 9SM FEW016 FEW027 OVC034 23/19 A2987 RMK AO2 T02330189
KMHE 271453Z AUTO 22007KT 10SM OVC075 16/12 A2995 RMK AO2 RAB1354E04 SLP141 P0000 60000 T01610117 53009
KMHK 271452Z 00000KT 10SM OVC095 17/16 A2992 RMK AO2 SLP128 60002 T01720161 53010
KMHL 271535Z AUTO 07008KT 043V103 10SM CLR 27/17 A2990 RMK AO2 LTG DSNT NW
KMHR 271445Z 18005KT 10SM SKC 13/10 A3007
KMHS 271456Z AUTO 00000KT 10SM CLR 14/07 A3012 RMK AO2 SLP197 T01390072 51009
KMHT 271453Z 35006KT 10SM SCT039 BKN200 BKN250 19/08 A2985 RMK AO2 SLP119 T01890078 53006
KMHV 271500Z AUTO 00000KT 10SM CLR 18/04 A3002 RMK A01
KMIA 271453Z 18003KT 10SM SCT025 32/23 A3007 RMK AO2 SLP182 T03170233 50002
KMIB 271458Z AUTO 28013KT 10SM CLR 18/06 A2979 RMK AO2 SLP094 T01750055 57002 $
KMIC 271453Z 30008KT 10SM CLR 21/07 A2988 RMK AO2 SLP116 T02060067 $
KMIE 271507Z 33004KT 10SM FEW017 SCT027 BKN031 23/18 A2986 RMK AO2 T02280183
KMIS 271515Z AUTO 00000KT 6SM HZ CLR 29/25 A3010 RMK A01
KMIV 271454Z AUTO 28005KT 10SM BKN050 OVC110 21/13 A2991 RMK AO2 SLP127 T02060133 51002
KMIW 271453Z AUTO 20003KT 6SM BR CLR 18/17 A2991 RMK AO2 SLP125 T01780172 53006
KMJQ 271534Z AUTO 20003KT 10SM -DZ BKN060 OVC085 16/12 A2996 RMK AO2
KMJX 271456Z AUTO 28004KT 10SM BKN035 OVC050 21/12 A2990 RMK AO2 SLP130 T02110122 52001
KMKC 271454Z 10004KT 10SM CLR 20/15 A2988 RMK AO2 SLP113 T02000150 50023
KMKE 271452Z 14005KT 10SM FEW037 SCT250 19/12 A2993 RMK AO2 SLP134 T01940122 53000
KMKG 271455Z 24004KT 10SM FEW040 SCT250 21/12 A2991 RMK AO2 SLP128 T02110122 50005
KMKJ 271515Z AUTO 24012G18KT 10SM SCT022 SCT065 OVC070 22/16 A3006 RMK AO2 T02200164
KMKL 271501Z 20012KT 10SM OVC015 26/22 A2993 RMK AO2 T02560222
KMKN 271515Z AUTO 20015G21KT 10SM OVC024 29/24 A2988 RMK AO2 T02870240
KMKO 271453Z AUTO 18012G19KT 10SM OVC021 27/23 A2981 RMK AO2 SLP086 T02670233 53004 $
KMKS 271515Z AUTO 25007KT 210V270 10SM CLR 28/17 A3001 RMK AO2
KMKT 271456Z AUTO 00000KT 10SM 19/08 A2992 RMK AO2 SLP133 T01890078 53006
KMKY 271535Z AUTO 00000KT 10SM CLR 31/21 A3008 RMK AO1
KMLB 271453Z 08004KT 10SM CLR 29/19 A3008 RMK AO2 SLP183 T02890194 50000
KMLC 271453Z AUTO 18010G23KT 9SM BKN020 BKN026 28/23 A2983 RMK AO2 SLP091 T02830233 51005
KMLE 271515Z AUTO 06003KT 3SM RA SCT070 OVC080 15/13 A2990 RMK AO2 LTG DSNT NE AND E P0004 T01470132
KMLF 271452Z AUTO 02016KT 10SM CLR 14/02 A3018 RMK AO2 SLP173 T01390017 53016
KMLI 271528Z 14006KT 4SM BR OVC005 16/14 A2993 RMK AO2 T01610144
KMLJ 271515Z AUTO 27008G16KT 230V310 10SM CLR 28/18 A3005 RMK AO2
KMLP 271453Z AUTO 00000KT 10SM CLR 10/00 A3021 RMK AO2 SLP161 T01000000 53014 TSNO
KMLS 271453Z AUTO 27013KT 10SM SCT110 16/03 A2999 RMK AO2 SLP147 T01610033 51005
KMLT 271526Z AUTO 35013G19KT 10SM SCT030 OVC036 13/07 A2986 RMK AO2 T01330067 TSNO
KMLU 271453Z 19011KT 10SM OVC017 27/23 A2997 RMK AO2 SLP146 T02670228 51003
KMMH 271515Z AUTO 29004KT 10SM CLR 13/M06 A3024 RMK AO2 T01271056
KMMI 271535Z AUTO 21005KT 10SM BKN060 OVC080 23/18 A3005 RMK
KMMK 271453Z AUTO 32006KT 10SM BKN035 17/09 A2987 RMK AO2 SLP116 T01720094 50001 TSNO
KMML 271456Z AUTO 25009KT 10SM CLR 18/09 A2991 RMK AO2 SLP130 T01830089 50004
KMMT 271458Z AUTO 26008KT 10SM CLR 29/18 A2998 RMK AO2 SLP153 T02940178 58002 $
KMMU 271445Z 35006KT 10SM SCT034 21/12 A2988
KMMV 271453Z AUTO 27003KT 10SM CLR 15/10 A3007 RMK AO2 SLP182 T01500100 51016
KMNE 271515Z AUTO 21010G16KT 10SM OVC015 28/24 A2995 RMK AO2 T02800237
KMNI 271455Z AUTO 21015KT 170V240 10SM CLR 26/21 A3000 RMK AO2
KMNM 271356Z AUTO 23007KT 10SM CLR 19/13 A2987 RMK AO2 SLP130 T01890133 $
KMNN 271519Z AUTO VRB03KT 10SM FEW009 OVC022 19/16 A2989 RMK AO2 T01890161
KMNV 271515Z AUTO 22008KT 10SM BKN075 23/19 A3002 RMK A01
KMNZ 271515Z AUTO 20011G15KT 10SM OVC011 27/25 A2990 RMK AO2 T02700250
KMOB 271456Z 21005KT 10SM OVC044 26/22 A3010 RMK AO2 SLP190 T02610222 51015
KMOD 271453Z VRB06KT 10SM SCT060 14/10 A3007 RMK AO2 SLP183 T01390100 $
KMOP 271535Z AUTO 00000KT 10SM SCT045 21/14 A2991 RMK AO2 T02110135
KMOR 271515Z AUTO 28009G16KT 240V310 10SM SCT060 SCT070 OVC080 25/18 A3000 RMK A01
KMOT 271454Z 27012KT 10SM FEW080 FEW110 18/06 A2981 RMK AO2 SLP093 T01830056 58001
KMOX 271533Z AUTO 23007KT 10SM CLR 21/09 A2988 RMK AO2
KMPO 271514Z AUTO 30006KT 10SM FEW023 OVC046 16/12 A2991 RMK AO2 T01610117
KMPV 271451Z AUTO 00000KT 10SM CLR 15/08 A2993 RMK AO2 SLP138 T01500083 51004
KMPZ 271515Z AUTO 12003KT 7SM SCT005 19/16 A2993 RMK AO2 T01890159
KMQB 271515Z AUTO 06006KT 3SM BR OVC004 16/16 A2993 RMK AO2 T01610161
KMQE 271456Z AUTO VRB03KT 15/09 A2986 RMK AO1 SLP120 T01500089 51010
KMQI 271520Z AUTO 23005KT 10SM CLR 27/17 A2993 RMK AO2 T02670173
KMQJ 271202Z AUTO 20/18 RMK AO1
KMQS 271515Z AUTO 28004KT 8SM BKN045 BKN090 18/13 A2993 RMK AO2
KMQY 271456Z 20004KT 10SM CLR 23/19 A2999 RMK AO2 SLP048 T02330189 51008
KMRB 271453Z 17003KT 10SM SCT036 SCT120 18/15 A2991 RMK AO2 RAB1357E29 SLP126 P0004 60004 T01780150 58005
KMRC 271515Z AUTO 20004KT 10SM CLR 23/19 A2997 RMK A01
KMRF 271456Z AUTO 28016G22KT 10SM CLR 27/02 A3013 RMK AO2 SLP140 T02720022 51008
KMRH 271458Z AUTO 22012KT 10SM CLR 26/20 A2996 RMK AO2 SLP146 T02610200 58002 TSNO
KMRJ 271515Z AUTO 00000KT 10SM OVC007 17/16 A2993 RMK AO2
KMRN 271515Z AUTO 24009KT 10SM CLR 27/15 A3004 RMK AO2 T02700152
KMRT 271533Z AUTO 05005KT 10SM OVC011 21/18 A2988 RMK AO2 T02090180
KMRY 271454Z 00000KT 10SM BKN022 14/09 A3011 RMK AO2 SLP207 T01390089 53015
KMSL 271453Z AUTO 20008KT 10SM FEW070 26/19 A3001 RMK AO2 SLP157 T02560194 50008
KMSN 271453Z 16006KT 10SM FEW018 FEW250 18/13 A2991 RMK AO2 SLP126 T01830133 55001
KMSO 271453Z 00000KT 10SM OVC100 12/07 A3018 RMK AO2 SLP215 T01170067 51016 $
KMSP 271453Z 33006KT 10SM BKN150 21/08 A2989 RMK AO2 SLP119 T02060078 55000
KMSS 271453Z AUTO 26006KT 10SM BKN044 18/11 A2991 RMK AO2 SLP128 T01830106 58004 $
KMSV 271535Z AUTO 30005KT 10SM FEW031 BKN038 OVC050 16/13 A2991 RMK AO1
KMSY 271453Z 19009KT 10SM FEW015 SCT025 SCT048 BKN250 29/24 A3005 RMK AO2 SLP177 T02890239 51012
KMTC 271458Z 15005KT 10SM FEW030 FEW250 19/15 A2990 RMK AO2A SLP129 T01900153 53003
KMTH 271453Z AUTO VRB04KT 10SM CLR 32/26 A3007 RMK AO2 SLP182 T03220261 50005
KMTJ 271453Z AUTO 01004KT 10SM OVC100 13/00 A3014 RMK AO2 SLP140 T01330000 53011
KMTN 271445Z 27003KT 10SM OVC080 21/15 A2992
KMTO 271453Z AUTO VRB03KT 10SM BKN015 21/17 A2989 RMK AO2 SLP116 T02060172 51006
KMTP 271454Z AUTO 02005KT 16/11 A2989 RMK AO1 SLP122 T01560106 51007
KMTV 271515Z AUTO 23004KT 10SM BKN080 26/17 A2997 RMK AO2 T02600173
KMTW 271456Z AUTO 13007KT 10SM CLR 18/12 A2990 RMK AO2 SLP145 T01780122 56006
KMUI 271458Z AUTO 18004KT 10SM FEW034 SCT055 19/13 A2990 RMK AO2 SLP126 T01900127 58004
KMUO 271458Z AUTO 11008KT 10SM CLR 13/09 A3018 RMK AO2 SLP213 T01270088 52014 $
KMUT 271535Z AUTO 00000KT 6SM BR OVC006 17/15 A2994 RMK AO2
KMVE 271531Z AUTO 25005KT 10SM CLR 18/12 A2991 RMK AO2
KMVH 271515Z AUTO 31019G25KT 10SM FEW120 16/01 A3008 RMK AO2
KMVL 271454Z AUTO VRB03KT 10SM OVC110 15/07 A2991 RMK AO2 SLP131 T01500067 51002
KMVN 271456Z AUTO 04005KT 10SM 25/20 A2988 RMK AO2 SLP114 T02500200 53002 $
KMVY 271453Z 33006KT 10SM FEW020 OVC034 16/10 A2986 RMK AO2 SLP110 T01610100 50009
KMWA 271519Z 00000KT 10SM SCT019 SCT026 27/23 A2988
KMWC 271445Z 00000KT 10SM SKC 19/11 A2992
KMWH 271452Z 00000KT 10SM CLR 17/08 A3008 RMK AO2 SLP182 T01670078 51017
KMWK 271515Z AUTO 19004KT 10SM CLR 27/19 A2998 RMK AO2 T02670185
KMWL 271453Z AUTO 20010G19KT 8SM OVC024 29/23 A2984 RMK AO2 SLP087 T02940233 53009
KMWM 271534Z AUTO 18004KT 10SM SCT080 18/09 A2993 RMK AO2
KMWN 271447Z 01020G29KT 3/16SM FG VV003 03/03 RMK FG INTMT
KMWO 271515Z AUTO 23006KT 10SM SCT016 SCT021 OVC030 24/19 A2988 RMK AO2 T02390186
KMWT 271453Z AUTO VRB03KT 7SM BKN016 OVC021 26/22 A2989 RMK AO2 SLP107 T02610222 52008
KMXF 271458Z AUTO 25005KT 10SM OVC020 25/20 A3008 RMK AO2 SLP187 T02510203 52008
KMXO 271535Z AUTO 15005KT 5SM BR BKN005 16/16 A2992 RMK AO2
KMYF 271453Z COR 33004KT 10SM BKN034 17/12 A3005 RMK AO2 SLP172 T01720117 53015
KMYJ 271535Z AUTO 00000KT 10SM CLR 24/17 A2991 RMK AO2
KMYL 271451Z AUTO 00000KT 10SM CLR 08/02 A3021 RMK AO2 SLP212 T00830022 51013 $
KMYR 271445Z 27007KT 10SM CLR 28/18 A2999
KMYV 271453Z AUTO 16009KT 10SM CLR 15/09 A3006 RMK AO2 SLP182 T01500089 51014 TSNO
KMYZ 271515Z AUTO 10006KT 10SM RA OVC100 15/14 A2988 RMK AO2 P0001
KMZG 271515Z AUTO 15006G16KT 8SM CLR 27/25 A2993 RMK A01
KMZH 271535Z AUTO 28006KT 10SM CLR 19/06 A2985 RMK AO2
KMZZ 271435Z AUTO 36006KT 4SM BR OVC004 18/17 A2988 RMK AO2
KN03 271535Z AUTO 25003KT 10SM SCT015 BKN023 OVC027 15/13 A2992 RMK AO2
KN38 271515Z AUTO 00000KT 10SM OVC035 16/11 A2992 RMK AO2
KN60 271452Z AUTO 27009KT 15/05 A2985 RMK AO1 SLP107 T01500050 50002
KNAK 271454Z AUTO 12006KT 10SM SCT110 21/16 A2992 RMK AO2 SLP132 T02060156 58003
KNBC 271456Z AUTO 26010KT 10SM CLR 29/18 A3003 RMK AO2 SLP169 T02890183 58002 $
KNBG 271455Z 20009KT 10SM SCT017 BKN030 BKN050 27/25 A3005 RMK AO2 SLP174 T02720250 51012 $
KNBT 271456Z AUTO 22010KT 10SM CLR A2995 RMK AO2 SLP148 6//// 58003 PNO $
KNCA 271456Z AUTO 20006KT 10SM CLR 28/18 A2995 RMK AO2 SLP143 T02830178 58007
KNDZ 271456Z AUTO A3010 RMK AO2 SLPNO 6//// 51010 PWINO TSNO PNO $
KNEL 271500Z AUTO 27004KT 10SM SCT036 BKN046 21/12 A2988 RMK AO2 SLP118 T02110122 53002 $
KNEW 271508Z 20011KT 10SM SCT024 BKN031 BKN047 29/24 A3005 RMK AO2 T02940239
KNFE 271456Z AUTO 15003KT 10SM CLR 28/17 A2991 RMK AO2 SLP129 T02830167 58009
KNFG 271455Z AUTO 00000KT 9SM OVC039 17/12 A3004 RMK AO2 SLP172 T01720122 53014
KNFL 271456Z AUTO 00000KT 10SM CLR 14/M01 A3015 RMK AO2 SLP175 T01441006 51014
KNFW 271452Z 19019G25KT 10SM OVC021 29/24 A2984 RMK AO2 SLP090 T02940239 51006 $
KNGP 271456Z AUTO 17017KT 7SM OVC015 29/26 A2991 RMK AO2 PK WND 18031/1427 SLP126 T02940256 51013 PWINO
KNGU 271459Z 00000KT 9SM FEW120 27/16 A2992 RMK AO2 SLP131 T02670161 58009
KNHK 271452Z 12008KT 10SM FEW065 22/16 A2991 RMK AO2 SLP128 T02220156 58002
KNID 271456Z AUTO 24003KT 10SM CLR 17/03 A3000 RMK AO2 SLP147 T01720033 51017 $
KNIP 271453Z 11005KT 10SM FEW250 26/19 A3009 RMK AO2 SLP184 T02560189 50000
KNJK 271456Z 00000KT 10SM CLR 21/07 A2991 RMK AO2 SLP144 T02110072 53020 $
KNJM 271457Z AUTO 23007KT 10SM CLR 27/18 A2997 RMK AO2 SLP152 T02670178 58003 $
KNKT 271454Z 21009KT 10SM CLR 28/16 A2996 RMK AO2 SLP141 T02830161 58005
KNKX 271455Z 31005KT 10SM SCT033 19/12 A3005 RMK AO2 SLP169 T01890117 53015 $
KNLC 271456Z AUTO 33011KT 10SM CLR 16/08 A3007 RMK AO2 SLP180 T01560083 51016
KNMM 271456Z AUTO 22008KT 10SM BKN050 27/21 A3004 RMK AO2 SLP179 T02720206 50002 $
KNOG 271456Z AUTO 19012KT 10SM SCT021 31/25 A2990 RMK AO2 SLP105 T03060250 51010
KNOW 271515Z AUTO 00000KT 10SM CLR 11/09 A3010 RMK AO2 T01130094
KNPA 271456Z 19006KT 10SM SCT015 BKN028 BKN040 27/23 A3009 RMK AO2 SLP191 T02720228 51015 $
KNQA 271450Z 21008G17KT 8SM OVC012 25/22 A2991
KNQI 271456Z AUTO 16017G22KT 10SM FEW018 31/26 A2989 RMK AO2 SLP118 T03110256 51004
KNQX 271453Z 12006KT 10SM CLR 31/26 A3007 RMK AO2 SLP182 T03110261 50001 $
KNRB 271452Z AUTO 25004KT 10SM CLR 27/18 A3007 RMK AO2 SLP183 T02720178 58001 $
KNRS 271456Z AUTO 32008KT 10SM OVC038 18/12 A3005 RMK AO2 SLP176 T01780122 52016
KNSE 271456Z AUTO 26006KT 10SM 26/22 A3010 RMK AO2 RAB21E31 SLP179 P0000 60000 T02560217 $
KNSI 271457Z AUTO 29012KT 10SM OVC028 13/ A3007 RMK AO2 SLP178 T0133 53015 PWINO $
KNTD 271456Z 00000KT 10SM FEW030 15/12 A3006 RMK AO2 SLP180 T01500117 53013 $
KNTU 271456Z 11006KT 10SM FEW060 FEW120 24/16 A2990 RMK AO2 SLP127 T02440156 58007
KNUI 271453Z AUTO 14004KT 10SM FEW065 BKN100 23/14 A2990 RMK AO2 SLP126 T02330144 58003
KNUQ 271456Z 30003KT 10SM OVC021 14/09 A3010 RMK AO2 SLP195 T01390089 53013
KNUW 271456Z 27005KT 10SM SCT250 14/09 A3013 RMK AO2 SLP200 T01390094 53012 $
KNXF 271456Z AUTO 29009KT 7SM OVC040 17/13 A3004 RMK AO2 SLP259 T01720133 53014
KNXP 271456Z COR 01005KT 10SM CLR 19/02 A3005 RMK AO2 SLP142 FIRST T01890017 51018 $
KNYC 271451Z AUTO VRB04KT 10SM FEW044 BKN060 20/12 A2990 RMK AO2 SLP115 T02000122 58002 $
KNYG 271456Z AUTO 00000KT 10SM OVC085 22/16 A2992 RMK AO2 SLP132 T02220156 58006
KNYL 271457Z AUTO 15005KT 10SM CLR 23/09 A2990 RMK AO2 SLP122 T02330094 51018 $
KNZY 271452Z 34007KT 10SM FEW020 BKN039 18/13 A3004 RMK AO2 SLP172 T01780128 53015 $
KO22 271515Z AUTO 19003KT 10SM OVC034 16/10 A3010 RMK AO1
KO54 271515Z AUTO 00000KT 10SM 13/08 A3010 RMK AO1
KO69 271515Z AUTO 00000KT 10SM OVC013 12/10 A3011 RMK A01
KO86 271515Z AUTO 05003KT 10SM CLR 13/08 A3011 RMK AO1
KOAJ 271456Z AUTO 23009KT 10SM CLR 29/19 A2995 RMK AO2 SLP146 T02940189 58007
KOAK 271453Z 24007KT 10SM OVC020 14/09 A3010 RMK AO2 SLP193 T01440094 53013
KOBE 271515Z AUTO 22003KT 10SM CLR 28/17 A3009 RMK AO2
KOCF 271456Z VRB04KT 10SM CLR 28/18 A3010 RMK AO2 SLP194 6//// T02830178 50003 PNO $
KOCH 271535Z 21011G16KT SCT021 BKN033 OVC041 28/23 A2993 RMK AO1
KOCQ 271515Z AUTO 15006KT 10SM CLR 20/14 A2986 RMK AO1 T02020139
KOCW 271520Z AUTO 23005KT 10SM CLR 28/18 A2994 RMK AO2 T02750181
KODO 271453Z AUTO 30012KT 10SM CLR 32/03 A2995 RMK AO2 SLP088 T03170033 51012
KODX 271453Z AUTO 04008KT 10SM CLR 17/11 A2994 RMK AO2 SLP135 T01720106 53006
KOEB 271535Z AUTO 00000KT 10SM BKN029 BKN042 BKN070 21/14 A2992 RMK AO2 T02060138
KOEO 271515Z AUTO 27007KT 240V320 10SM CLR 20/09 A2991 RMK AO2 T02030090
KOFF 271520Z AUTO 34008KT 10SM RA VCTS CLR 14/12 A2989 RMK AO2 SLP124 $
KOFK 271456Z AUTO 04007KT 10SM CLR 17/11 A2993 RMK AO2 SLP130 60002 T01720106 55003
KOFP 271454Z AUTO VRB05KT 10SM SCT060 25/14 A2992 RMK AO2 SLP131 T02500144 56005
KOGA 271515Z AUTO 35009KT 1 1/2SM BR BKN008 OVC012 12/11 A3003 RMK AO2 T01210113
KOGB 271453Z AUTO 26008KT 10SM CLR 28/18 A3000 RMK AO2 SLP158 T02780183 56003
KOGD 271453Z 14003KT 10SM CLR 11/02 A3020 RMK AO2 SLP202 T01110022 52016
KOGS 271535Z AUTO 36003KT 10SM CLR 19/10 A2990 RMK AO2 T01920104 TSNO
KOJA 271515Z AUTO 27005KT 10SM CLR 27/18 A2978 RMK AO2
KOJC 271453Z 03011KT 10SM FEW026 20/16 A2988 RMK AO2 SLP108 T02000161 56008
KOKB 271452Z AUTO VRB04KT 10SM OVC039 18/13 A3004 RMK AO2 SLP170 T01830133 53013
KOKC 271452Z 20021G24KT 10SM SCT070 28/21 A2974 RMK AO2 PK WND 18029/1428 SLP052 T02780211 58002
KOKK 271456Z AUTO 35010KT 4SM BR OVC004 18/17 A2989 RMK AO2 SLP120 T01830172 50009
KOKM 271515Z AUTO 20014KT 10SM OVC021 28/24 A2977 RMK AO2 T02760236
KOKV 271515Z AUTO 12003KT 10SM OVC070 17/15 A2991 RMK AO2
KOKZ 271515Z AUTO 24009KT 210V270 10SM CLR A3005 RMK AO2
KOLF 271453Z AUTO 28008KT 10SM OVC100 18/04 A2989 RMK AO2 SLP122 T01780044 56001 TSNO
KOLG 271515Z AUTO 32010KT 10SM CLR 19/06 A2986 RMK AO1
KOLM 271454Z 00000KT 10SM CLR 14/12 A3008 RMK AO2 SLP185 T01440117 53011
KOLS 271454Z AUTO 00000KT 10SM CLR 21/M02 A3008 RMK AO2 SLP122 T02111022 51012
KOLV 271450Z 21008KT 8SM BKN015 OVC030 A2992
KOLY 271515Z AUTO 36004KT 10SM CLR 25/20 A2988 RMK AO2 T02470198
KOLZ 271535Z AUTO 00000KT 6SM BR OVC005 17/17 A2993 RMK AO2
KOMA 271520Z 02009KT 7SM -RA FEW060 OVC100 14/12 A2991 RMK AO2 LTG DSNT E TSE14 TS MOV NE P0006 T01440117
KOMH 271515Z AUTO 00000KT 10SM OVC075 20/15 A2992 RMK AO2
KOMK 271453Z AUTO 05003KT 10SM CLR 16/07 A3009 RMK AO2 SLP185 T01610072 51014
KOMN 271450Z 31003KT 10SM SKC 27/17 A3008
KONA 271532Z AUTO 04004KT 10SM CLR 21/13 A2990 RMK AO2
KONL 271515Z AUTO 02006KT 10SM OVC055 14/11 A2997 RMK AO2 T01420113
KONM 271515Z AUTO 08003KT 10SM CLR 22/M04 A3009 RMK AO2 T02161038
KONO 271453Z AUTO 00000KT 10SM CLR 14/06 A3019 RMK AO2 SLP216 T01390061 51019 TSNO
KONP 271515Z AUTO 00000KT 4SM BR OVC005 11/11 A3013 RMK AO2
KONT 271453Z 26004KT 10SM BKN031 16/10 A3004 RMK AO2 SLP166 BKN V OVC T01560100 53013
KONX 271525Z AUTO 00000KT 10SM SCT120 27/16 A2992 RMK AO2 T02700163
KONZ 271533Z AUTO 20006KT 10SM SCT032 19/15 A2992 RMK AO2 T01880148
KOOA 271515Z AUTO 14004KT 7SM SCT005 19/17 A2993 RMK AO2 T01890171
KOPF 271453Z 26005KT 10SM SCT020 31/25 A3007 RMK AO2 SLP184 T03110250 50002
KOPL 271515Z AUTO 20009KT 7SM BKN013 OVC023 27/24 A3002 RMK AO2 T02730237 PWINO
KOPN 271515Z AUTO 26006KT 10SM CLR 26/10 A3010 RMK AO2
KOQT 271453Z AUTO VRB05KT 10SM FEW040 FEW070 BKN080 23/17 A3002 RMK AO2 SLP153 T02330172 50008
KOQU 271450Z 06005KT 12SM SCT020 BKN035 16/09 A2987
KORB 271455Z AUTO 22004KT 10SM CLR 18/04 A2979 RMK AO2
KORC 271535Z AUTO 00000KT 10SM -RA SCT031 15/12 A2995 RMK AO2
KORD 271451Z 07004KT 10SM SCT150 18/12 A2992 RMK AO2 SLP132 T01830117 51005
KORE 271452Z AUTO 34007KT 10SM BKN032 17/10 A2986 RMK AO2 SLP113 T01670100 50003 TSNO
KORF 271451Z 00000KT 10SM CLR 26/17 A2990 RMK AO2 SLP126 T02610172 58008
KORG 271515Z AUTO 21011G16KT 7SM SCT019 29/24 A3000 RMK AO2 T02890244
KORH 271454Z 07006KT 10SM FEW028 15/07 A2987 RMK AO2 SLP115 T01500072 51004
KORL 271453Z 00000KT 10SM CLR 27/15 A3009 RMK AO2 SLP191 T02670150 50001
KORS 271535Z AUTO VRB03KT 10SM CLR 15/12 A3010 RMK AO2
KOSA 271515Z AUTO 18009KT 7SM BKN018 BKN024 28/24 A2991 RMK AO1 T02770235
KOSC 271533Z AUTO 13005KT 10SM SCT110 20/11 A2992 RMK AO2 T01960106
KOSH 271453Z VRB03KT 10SM CLR 19/13 A2988 RMK AO2 SLP112 T01940128 58003
KOSU 271453Z 28004KT 10SM OVC023 21/18 A2987 RMK AO2 SLP109 T02110183 50005
KOTG 271456Z AUTO 21007KT 10SM -RA FEW065 OVC085 17/10 A2995 RMK AO2 SLP141 P0000 60000 T01670100 50007
KOTH 271535Z 00000KT 10SM OVC012 13/11 A3012 RMK AO1
KOTM 271453Z AUTO 00000KT 8SM FEW005 19/17 A2992 RMK AO2 SLP129 T01890172 53012 $
KOUN 271515Z AUTO 19017G22KT 10SM CLR 28/22 A2977 RMK AO2
KOVE 271453Z AUTO 15005KT 10SM CLR 16/10 A3007 RMK AO2 SLP182 T01610100 51014
KOVL 271533Z AUTO 22006KT 10SM SCT120 18/08 A2990 RMK AO2
KOVS 271508Z AUTO VRB05KT 7SM OVC010 18/14 A2992 RMK AO2 T01780144
KOWA 271534Z AUTO 28004KT 10SM CLR 21/06 A2992 RMK AO2
KOWB 271458Z VRB03KT 10SM VCTS FEW017 25/21 A2988 RMK AO2 LTG DSNT E AND SE TSE57B58
KOWD 271453Z 00000KT 10SM OVC034 17/11 A2986 RMK AO2 SLP110 T01720106 53005
KOWI 271515Z AUTO 02011G18KT 10SM OVC020 21/16 A2988 RMK AO2 LTG DSNT N AND NE
KOWP 271515Z AUTO 00000KT 7SM SCT016 BKN022 OVC029 27/23 A2980 RMK AO2 T02730234
KOWX 271536Z AUTO 00000KT 7SM SCT011 20/17 A2990 RMK AO1
KOXB 271453Z AUTO 12005KT 10SM CLR 21/13 A2993 RMK AO2 SLP135 T02060133 51001
KOXC 271452Z 02010G16KT 10SM BKN027 18/08 A2988
KOXI 271515Z AUTO 02006KT 10SM OVC007 17/12 A2991 RMK AO1
KOXR 271451Z 03003KT 10SM CLR 16/10 A3005 RMK AO2 SLP175 T01560100 53012
KOXV 271535Z AUTO 14005KT 10SM CLR 22/17 A2990 RMK AO2
KOZA 271515Z AUTO 20010KT 10SM 28/21 A2997 RMK AO2
KOZR 271516Z AUTO 28007KT 10SM BKN024 25/19 A3011 RMK AO2 BKN V SCT SLP196
KOZS 271515Z AUTO 06004KT 7SM OVC004 22/21 A2989 RMK AO2 LTG DSNT S
KOZW 271534Z AUTO 07004KT 10SM BKN046 20/10 A2992 RMK AO2 T02030100
KP28 271456Z AUTO 04018G29KT 20/13 A2982 RMK AO1 PK WND 03030/1411 SLP085 T02000133 53009
KP53 271456Z AUTO 16005KT 21/14 A2982 RMK AO1 SLP097 T02110144 58012
KP58 271451Z AUTO 11008KT 13/12 A2993 RMK AO1 SLP137 T01280117 53011 $
KP59 271451Z AUTO VRB03KT 08/07 A2980 RMK AO1 SLP093 T00830072 55000
KP60 271456Z AUTO VRB03KT 02/01 A3027 RMK AO1 SLP241 T00170006 52015
KP68 271453Z AUTO 00000KT 10/M01 A3022 RMK AO1 SLP188 T01001006 53012
KP69 271452Z AUTO 00000KT 09/07 A3021 RMK AO1 SLP227 T00940067 50011 $
KP92 271453Z AUTO VRB04KT 28/24 A3002 RMK AO1 SLP165 T02780244 51014 $
KPAE 271453Z AUTO 00000KT 10SM CLR 18/09 A3009 RMK AO2 SLP187 T01780089 53012
KPAH 271453Z 22010G18KT 10SM CLR 27/20 A2988 RMK AO2 SLP115 60000 T02670200 53002
KPAM 271456Z AUTO 30007KT 10SM SCT026 26/20 A3011 RMK AO2 SLP199 T02640197 51010 $
KPAN 271535Z AUTO 00000KT 10SM CLR 20/M02 A3017 RMK AO2
KPAO 271447Z 26008KT 10SM OVC020 14/10 A3009
KPBF 271453Z AUTO 21008KT 10SM OVC017 26/23 A2993 RMK AO2 SLP133 T02560228 $
KPBG 271453Z AUTO 11005KT 10SM CLR 17/09 A2990 RMK AO2 SLP124 T01670089 58000
KPBH 271515Z AUTO 21004KT 10SM CLR 17/13 A2987 RMK AO2 T01740131
KPBI 271453Z VRB06KT 10SM FEW011 BKN019 29/23 A3008 RMK AO2 SLP186 T02940233 50004
KPBX 271515Z AUTO 22004KT 10SM OVC026 23/18 A2997 RMK AO2 T02250183
KPCM 271535Z AUTO 27003KT 10SM CLR 29/15 A3012 RMK AO2
KPCW 271518Z AUTO 10008KT 060V130 10SM FEW022 21/16 A2989 RMK AO2 $
KPCZ 271515Z AUTO 21005KT 10SM SCT019 SCT060 22/15 A2989 RMK AO2 T02170151
KPDC 271515Z AUTO 00000KT 7SM OVC008 17/15 A2992 RMK AO2 T01650146
KPDK 271453Z 27007KT 10SM CLR 25/17 A3006 RMK AO2 SLP163 T02500167 51006
KPDT 271453Z 14005KT 10SM CLR 16/07 A3010 RMK AO2 SLP179 T01610067 52013
KPDX 271453Z 00000KT 10SM FEW250 17/11 A3006 RMK AO2 SLP179 T01670111 53015 $
KPEA 271535Z AUTO 15005KT 10SM CLR 22/17 A2993 RMK AO2 T02200165
KPEO 271506Z AUTO 29003KT 10SM SCT019 OVC050 17/11 A2992 RMK AO2 T01670111
KPEQ 271515Z AUTO 28013KT 10SM CLR 32/01 A2996 RMK AO2 T03160008
KPEX 271533Z AUTO 21003KT 10SM CLR 18/09 A2990 RMK AO2 T01780088
KPEZ 271515Z AUTO 17012G16KT 5SM HZ SCT019 30/23 A2990 RMK AO2 T02950234
KPGA 271453Z AUTO 32006KT 10SM CLR 19/01 A3008 RMK AO2 SLP125 T01940006 51020 TSNO
KPGD 271453Z 28005KT 10SM CLR 28/17 A3011 RMK AO2 SLP195 T02830167 50005
KPGV 271525Z AUTO 26004KT 10SM CLR 28/17 A2996 RMK AO2
KPHD 271535Z AUTO 00000KT 10SM OVC006 18/16 A2991 RMK AO2 T01780161
KPHF 271454Z 12004KT 10SM CLR 26/17 A2991 RMK AO2 SLP128 T02560167 58004
KPHL 271454Z 21009KT 10SM SCT045 BKN130 BKN260 21/12 A2990 RMK AO2 SLP125 T02110117 50001
KPHN 271516Z AUTO 00000KT 10SM SCT034 BKN045 19/12 A2993 RMK AO2
KPHP 271455Z AUTO 27009KT 10SM CLR 16/11 A2999 RMK AO2 SLP146 T01560106 51006
KPHT 271515Z AUTO 25008KT 10SM SCT009 BKN014 24/22 A2992 RMK A01
KPHX 271451Z 14007KT 10SM FEW200 25/M04 A2993 RMK AO2 SLP117 T02501039 52014
KPIA 271531Z 04006KT 9SM OVC010 19/16 A2991 RMK AO2 T01890161
KPIB 271535Z AUTO 18005KT 10SM FEW031 FEW041 OVC055 26/22 A3009 RMK AO1
KPIE 271453Z 02003KT 10SM CLR 27/17 A3010 RMK AO2 SLP194 6//// T02670172 $
KPIH 271519Z 33004KT 10SM BCFG FEW005 08/07 A3025 RMK AO2 VIS SW-W 1 1/2 T00780067 $
KPIL 271500Z AUTO 17017G22KT 7SM BKN023 BKN028 30/24 A2990 RMK AO2 T03000244
KPIM 271515Z AUTO 29006KT 10SM CLR 25/18 A3010 RMK AO2 T02540179
KPIR 271453Z AUTO 25007KT 10SM CLR 14/11 A2997 RMK AO2 RAE19 SLP144 P0001 60005 T01390106 51010
KPIT 271451Z 04005KT 6SM BR OVC006 16/15 A2990 RMK AO2 RAE49 SLP130 P0000 60002 T01610150 51004
KPKB 271529Z 28008KT 10SM BKN019 BKN039 23/18 A2990 RMK AO2 T02280183 $
KPKD 271453Z AUTO 24009KT 10SM CLR 19/07 A2984 RMK AO2 SLP106 T01940072 50000
KPKV 271515Z AUTO 18013KT 7SM SCT017 BKN025 29/26 A2994 RMK AO2 T02890257
KPLN 271454Z AUTO 00000KT 10SM SCT100 18/11 A2990 RMK AO2 SLP125 T01830106 58001
KPLR 271535Z AUTO 19007KT 10SM FEW013 24/21 A3008 RMK A01
KPLU 271515Z AUTO 00000KT 10SM 18/11 A3009 RMK AO2
KPMD 271453Z AUTO 18004KT 10SM CLR 17/07 A3003 RMK AO2 SLP154 T01670072 53010
KPMP 271453Z 08006KT 8SM FEW024 SCT031 SCT043 31/26 A3007 RMK AO2 SLP183 T03110256 50003
KPMU 271515Z AUTO 21008KT 10SM BKN020 OVC026 26/22 A2997 RMK AO2 T02620216
KPMV 271515Z AUTO 35009KT 10SM -RA OVC095 15/13 A2989 RMK AO2 LTG DSNT NE THRU SE P0002 T01450130
KPNA 271515Z AUTO 00000KT 10SM CLR 06/M01 A3022 RMK AO2
KPNC 271514Z AUTO 11007KT 10SM SCT018 26/21 A2977 RMK AO2 T02560211 $
KPNE 271454Z 29003KT 10SM CLR 21/13 A2991 RMK AO2 SLP127 T02110133 58001
KPNM 271534Z AUTO 26005KT 10SM CLR 19/09 A2988 RMK AO2
KPNS 271453Z 10003KT 10SM BKN015 BKN043 27/22 A3009 RMK AO2 SLP192 T02670222 51014
KPNT 271515Z AUTO 05006KT 10SM SCT009 19/18 A2992 RMK AO2 T01940180
KPOB 271458Z AUTO 00000KT 10SM FEW190 27/18 A2994 RMK AO2 SLP140 T02740184 58003 $
KPOC 271447Z 27003KT 10SM OVC031 13/10 A3007
KPOE 271458Z AUTO 18012G18KT 10SM BKN015 BKN029 28/24 A2998 RMK AO2 SLP151 T02750239 52008
KPOF 271453Z AUTO 23005KT 10SM FEW028 25/21 A2987 RMK AO2 SLP111 60000 T02500211 51008 TSNO
KPOU 271453Z VRB03KT 10SM SCT027 18/12 A2987 RMK AO2 SLP112 T01780117 56002
KPOV 271535Z AUTO 08004KT 10SM BKN020 20/14 A2991 RMK AO2 T02010144
KPOY 271515Z AUTO 13006KT 10SM CLR 11/01 A3014 RMK AO2
KPPA 271515Z AUTO 31014G18KT 10SM CLR 22/10 A2991 RMK AO2 T02150099
KPPF 271452Z AUTO 35004KT 8SM CLR 27/22 A2981 RMK AO2 SLP084 T02670222 58005
KPPO 271515Z AUTO 03004KT 10SM BKN006 OVC022 17/15 A2992 RMK AO2 T01700150
KPPQ 271515Z AUTO 05005KT 10SM OVC006 19/17 A2991 RMK AO2 T01880168
KPQI 271508Z AUTO 04008KT 360V070 10SM FEW029 14/07 A2987 RMK AO2
KPQL 271453Z 20005KT 10SM SCT012 SCT021 OVC049 27/23 A3008 RMK AO2 SLP187 T02720228 51013
KPQN 271534Z AUTO 27005KT 10SM OVC080 16/08 A2994 RMK AO2
KPRB 271509Z AUTO 02005KT 10SM OVC005 11/08 A3009 RMK AO2 T01060083 TSNO
KPRC 271453Z 13008KT 10SM CLR 18/M01 A3012 RMK AO2 SLP129 T01831006 51015
KPRG 271515Z AUTO 00000KT 10SM OVC010 19/17 A2990 RMK AO2 T01910170
KPRN 271532Z AUTO 29007KT 10SM FEW021 BKN038 27/19 A3009 RMK AO2 T02670189
KPRO 271535Z AUTO 10007KT 10SM BKN060 OVC070 21/14 A2990 RMK AO2 T02050141
KPRS 271515Z AUTO 00000KT 10SM CLR 30/02 A3001 RMK AO2 T03000024
KPRX 271535Z 19014G17KT 10SM FEW020 SCT028 OVC037 28/23 A2989 RMK AO1
KPSC 271453Z 14005KT 10SM CLR 17/08 A3008 RMK AO2 SLP184 T01720078 52016
KPSK 271515Z AUTO 25009KT 10SM SCT060 BKN070 25/14 A3001 RMK AO2 T02500140
KPSM 271458Z 11008KT 10SM BKN035 BKN250 16/10 A2985 RMK AO2A SLP110 53008
KPSN 271515Z AUTO 18011G19KT 5SM HZ BKN015 OVC020 27/24 A2992 RMK AO2 T02750245
KPSO 271535Z AUTO 19007KT 10SM CLR 14/M08 A3016 RMK AO2 T01361083
KPSP 271453Z 16003KT 10SM CLR 22/09 A2992 RMK AO2 SLP128 T02220089 52018
KPSX 271453Z AUTO 19011KT 9SM OVC019 27/24 A2994 RMK AO2 SLP139 T02720244 51013
KPTB 271515Z AUTO 00000KT 10SM CLR 27/14 A2992 RMK AO2 T02650144
KPTK 271453Z 14006KT 10SM FEW026 FEW250 20/12 A2990 RMK AO2 SLP123 T02000122 53004
KPTN 271514Z AUTO 19010KT 10SM SCT018 BKN038 28/24 A3004 RMK AO2
KPTS 271535Z AUTO 00000KT 7SM SCT009 OVC016 26/24 A2982 RMK AO2 T02600242
KPTT 271515Z AUTO 06015G21KT 10SM BKN034 BKN042 19/11 A2985 RMK AO2 T01870108
KPTV 271456Z AUTO 20005KT 10SM 16/09 A3007 RMK AO2 SLP191 T01560094 52017 $
KPTW 271454Z AUTO 00000KT 10SM CLR 18/12 A2991 RMK AO2 SLP126 T01830122 50000
KPUB 271453Z VRB04KT 10SM SCT039 BKN050 15/07 A3005 RMK AO2 SLP130 T01500072 51011
KPUC 271453Z AUTO 36009KT 10SM CLR 12/00 A3014 RMK AO2 SLP170 T01220000 53014
KPUJ 271515Z AUTO 00000KT 7SM CLR 26/20 A3008 RMK AO2
KPUW 271453Z AUTO 11007KT 10SM CLR 16/08 A3016 RMK AO2 SLP206 T01610078 53016
KPVB 271515Z AUTO 22004KT 10SM OVC010 18/16 A2994 RMK AO1 T01750161
KPVC 271456Z AUTO 32006KT 10SM BKN026 OVC031 13/11 A2987 RMK AO2 SLP116 T01280111 51014
KPVD 271451Z 34007KT 10SM BKN032 OVC039 16/09 A2987 RMK AO2 SLP114 T01560094 50008
KPVE 271515Z AUTO 10SM BKN017 25/21 A2993 RMK A01
KPVF 271515Z AUTO 00000KT 10SM OVC018 13/10 A3009 RMK AO1
KPVG 271535Z 23003KT 10SM FEW120 27/16 A2989 RMK AO1
KPVJ 271515Z AUTO 19012G23KT 10SM SCT025 SCT030 29/24 A2979 RMK AO2 T02870239
KPVU 271458Z 29008KT 10SM FEW050 12/03 A3020
KPVW 271515Z AUTO 29010G16KT 10SM CLR 29/M04 A2991 RMK AO2 T02911044
KPWA 271453Z 20016G23KT 10SM CLR 28/22 A2973 RMK AO2 PK WND 19027/1357 SLP050 T02830217 50001
KPWC 271533Z AUTO 23007KT 194V274 10SM CLR 18/09 A2989 RMK AO2
KPWG 271508Z AUTO 18013G16KT 5SM HZ FEW013 27/24 A2989 RMK AO2 $
KPWK 271452Z 08006KT 10SM CLR 17/12 A2993 RMK AO2 SLP136 T01720122 50001
KPWM 271451Z 01010KT 10SM BKN034 BKN180 16/09 A2985 RMK AO2 SLP106 T01560089 51005
KPWT 271456Z AUTO 00000KT 10SM CLR 19/09 A3008 RMK AO2 SLP199 T01890094 53010
KPXE 271515Z AUTO 27008KT 10SM CLR 29/10 A3008 RMK AO2 T02890101
KPYM 271500Z AUTO 05007KT 10SM OVC026 15/09 A2987 RMK AO2 T01500094 TSNO
KPYX 271515Z AUTO 01011KT 10SM BKN023 BKN027 23/17 A2986 RMK AO2 T02320167
KPZQ 271534Z AUTO 04005KT 10SM CLR 19/13 A2991 RMK AO2 T01850134
KRAC 271453Z AUTO 12005KT 10SM CLR 18/12 A2994 RMK AO2 SLP139 T01780122 53001
KRAL 271453Z 30004KT 10SM OVC032 15/11 A3005 RMK AO2 SLP162 T01500106 51014
KRAP 271452Z 34012KT 10SM CLR 16/06 A3001 RMK AO2 SLP157 T01610061 51007
KRAS 271515Z AUTO 17012KT 5SM HZ OVC011 28/25 A2992 RMK AO2 T02790247
KRBD 271453Z 18010G17KT 10SM BKN017 OVC024 28/24 A2985 RMK AO2 SLP098 T02780244 51003
KRBG 271453Z AUTO 00000KT 10SM CLR 14/09 A3008 RMK AO2 SLP182 T01440094 51011
KRBL 271454Z AUTO 14006KT 10SM CLR 17/11 A3006 RMK AO2 SLP177 T01670111 51014 TSNO
KRBO 271515Z AUTO 16011KT 10SM SCT022 SCT029 31/25 A2990 RMK AO2 T03050250
KRBW 271515Z AUTO 27006KT 10SM CLR 28/17 A3003 RMK AO2
KRCA 271458Z AUTO 33015KT 10SM CLR 16/05 A3001 RMK AO2 SLP159 T01620046 52007 $
KRCE 271535Z AUTO 21013G20KT 9SM CLR 29/19 A2976 RMK AO2
KRCM 271535Z AUTO 07007KT 10SM SCT018 SCT050 25/20 A2987 RMK AO2 LTG DSNT N
KRCR 271515Z AUTO 36004KT 7SM OVC007 18/17 A2991 RMK AO2
KRCX 271515Z AUTO 31006KT 10SM CLR 19/11 A2990 RMK AO2 T01900114
KRCZ 271520Z AUTO 27003KT 10SM CLR 27/19 A2996 RMK AO2 T02710193
KRDD 271453Z 00000KT 10SM CLR 17/12 A3005 RMK AO2 SLP171 T01720117 51013
KRDG 271454Z 00000KT 10SM FEW035 20/13 A2990 RMK AO2 SLP127 T02000133 58002
KRDK 271535Z AUTO 36013KT 4SM -RA FEW044 FEW095 15/14 A2989 RMK AO2
KRDM 271456Z VRB04KT 10SM CLR 14/01 A3015 RMK AO2 SLP194 T01390011 53011
KRDR 271456Z AUTO 25012G16KT 10SM CLR 21/08 A2978 RMK AO2 SLP089 T02050075 55002 $
KRDU 271451Z 21005KT 10SM SCT250 27/17 A2995 RMK AO2 SLP137 T02670172 58004
KREG 271515Z AUTO 24005KT 10SM SCT019 BKN027 OVC042 28/24 A3004 RMK AO2 T02840235
KREO 271452Z AUTO 00000KT 13/00 A3018 RMK AO1 SLP200 T01280000 51010
KRFD 271509Z 00000KT 10SM BKN016 BKN250 20/16 A2994 RMK AO2 T02000156
KRFI 271515Z AUTO 19008KT 160V220 7SM OVC013 27/24 A2993 RMK AO2 T02690239
KRGA 271515Z AUTO 24008KT 10SM SCT020 OVC080 23/18 A2994 RMK AO2
KRGK 271535Z AUTO 30003KT 10SM CLR 21/08 A2989 RMK AO2
KRHI 271453Z AUTO 26006KT 10SM BKN065 18/14 A2987 RMK AO2 SLP116 T01830139 53004
KRHV 271447Z VRB04KT 10SM OVC030 14/10 A3011
KRIC 271454Z 17006KT 10SM FEW200 25/16 A2990 RMK AO2 SLP129 T02500161 58008
KRID 271535Z AUTO 29004KT 10SM BKN015 BKN021 OVC034 21/18 A2989 RMK AO2
KRIL 271453Z AUTO 00000KT 10SM BKN065 OVC080 12/03 A3012 RMK AO2 SLP150 60000 T01220028 53008
KRIV 271458Z AUTO 29005KT 10SM BKN026 15/10 A3004 RMK AO2 SLP167 T01460095 52014
KRIW 271453Z AUTO VRB03KT 10SM CLR 09/03 A3017 RMK AO2 SLP200 T00940033 53016
KRKD 271356Z AUTO 02006KT 10SM OVC022 11/08 A2983 RMK AO2 SLP105 T01060078
KRKP 271453Z AUTO 17010KT 7SM BKN015 OVC020 29/24 A2992 RMK AO2 SLP132 T02890244 53014
KRKR 271515Z AUTO 18009KT 10SM BKN030 OVC037 28/23 A2984 RMK AO2 T02820230
KRKS 271519Z AUTO 00000KT 9SM SCT012 BKN018 BKN075 06/02 A3022 RMK AO2 T00610022
KRLD 271515Z AUTO 09003KT 10SM CLR 19/09 A3008 RMK AO2 T01890092
KRME 271453Z 00000KT 10SM OVC070 16/11 A2990 RMK AO2 SLP123 T01610106 56004
KRMG 271453Z AUTO 22004KT 10SM SCT060 24/19 A3005 RMK AO2 SLP165 T02440189 51012
KRMN 271515Z AUTO 00000KT 10SM OVC075 20/16 A2996 RMK AO2 T02020160
KRMY 271533Z AUTO 00000KT 10SM SCT031 SCT035 21/14 A2992 RMK AO2 T02090136
KRNC 271515Z AUTO VRB05KT 10SM FEW075 23/19 A3001 RMK
KRND 271458Z AUTO 18011G19KT 8SM BKN018 28/24 A2991 RMK AO2 SLP120 T02770242 51012
KRNH 271515Z AUTO 35005KT 10SM CLR 20/06 A2989 RMK AO2 T02020062
KRNM 271520Z 00000KT 10SM BKN023 16/11 A3005 RMK AO2 T01610106
KRNO 271455Z 00000KT 10SM CLR 15/01 A3016 RMK AO2 SLP170 T01500006 51013
KRNP 271535Z AUTO 15004KT 10SM SCT040 BKN050 22/12 A2992 RMK AO2 T02150123
KRNT 271453Z 00000KT 10SM CLR 16/11 A3007 RMK AO2 SLP189 T01610111 51011
KRNV 271515Z AUTO 19010KT 10SM OVC016 26/26 A2996 RMK AO2 T02550255
KROA 271454Z 26010KT 10SM FEW080 26/16 A2995 RMK AO2 SLP131 T02560161 56006
KROC 271454Z 26004KT 10SM OVC017 17/13 A2991 RMK AO2 SLP132 T01670133 53004
KROG 271458Z 20014KT 10SM BKN018 OVC024 27/22 A2986 RMK AO2 SLP095 T02670222 50001
KROS 271535Z AUTO 29006KT 10SM CLR 20/09 A2988 RMK AO2 T02030090
KROW 271451Z 08004KT 10SM CLR 25/M02 A2998 RMK AO2 SLP089 T02501017 51014
KROX 271534Z AUTO 24008KT 10SM CLR 19/08 A2975 RMK AO2
KRPD 271515Z AUTO 28007KT 10SM CLR 19/08 A2990 RMK AO2 T01870077
KRPH 271515Z AUTO 19011G17KT 10SM BKN024 30/24 A2983 RMK AO2 T03000236
KRPJ 271515Z AUTO 18005KT 10SM BKN015 BKN021 19/16 A2993 RMK AO2 T01880157
KRPX 271455Z AUTO 18009KT 10SM 13/04 A2996
KRQB 271535Z AUTO 16004KT 10SM CLR 21/11 A2990 RMK AO2 T02110108
KRQE 271453Z AUTO 27011KT 10SM CLR 17/M03 A3017 RMK AO2 SLP112 T01721033 51007 TSNO
KRQO 271515Z AUTO 20013G23KT 10SM CLR 29/20 A2976 RMK AO2 T02870199
KRRL 271515Z AUTO 21004KT 10SM CLR 18/14 A2988 RMK AO2 T01770143
KRRT 271534Z AUTO 22008KT 10SM CLR 19/08 A2975 RMK AO2
KRSL 271453Z AUTO 13006KT 10SM OVC080 17/14 A2983 RMK AO2 SLP092 60019 T01720144 55028
KRSN 271515Z AUTO 20009G15KT 10SM OVC011 27/23 A3000 RMK AO2 T02670231
KRSP 271454Z AUTO 00000KT 10SM BKN026 OVC100 16/14 A2994 RMK AO2 RAE04 SLP139 P0000 60001 T01610139 56003 $
KRST 271454Z 32006KT 10SM CLR 19/12 A2993 RMK AO2 SLP131 T01940117 52008
KRSV 271515Z AUTO 34005KT 10SM SCT019 SCT024 23/19 A2989 RMK AO2 T02270191
KRSW 271453Z VRB03KT 10SM CLR 28/19 A3009 RMK AO2 SLP185 T02830189 50002
KRTN 271453Z AUTO 03008KT 10SM CLR 17/04 A3004 RMK AO2 SLP099 T01670044 51007
KRTS 271515Z AUTO 11005KT 10SM CLR 14/00 A3018 RMK AO2
KRUE 271505Z AUTO 22009KT 10SM SCT024 29/23 A2986 RMK AO2 T02890233
KRUQ 271515Z AUTO 28005KT 10SM CLR 27/17 A2996 RMK AO2 T02710174
KRUT 271508Z AUTO VRB03KT 10SM FEW028 OVC036 16/08 A2990 RMK AO2 $
KRVS 271453Z 17011G19KT 10SM BKN020 OVC025 28/23 A2975 RMK AO2 SLP078 T02780228 58002
KRWF 271453Z AUTO 21004KT 10SM OVC100 18/09 A2991 RMK AO2 SLP126 T01780094 50007
KRWI 271453Z AUTO VRB03KT 10SM CLR 27/18 A2994 RMK AO2 SLP136 T02670178 58003
KRWL 271504Z AUTO 31011KT 10SM FEW018 FEW025 BKN046 06/02 A3019 RMK AO2 T00610022
KRXE 271534Z AUTO 00000KT 10SM SCT014 08/05 A3025 RMK AO2 T00830050
KRYN 271445Z 00000KT 10SM CLR 22/M01 A3002
KRYT 271453Z AUTO 00000KT 10SM FEW034 BKN055 OVC110 18/14 A2991 RMK AO2 RAE13 SLP121 P0001 60003 T01830144 56004 TSNO $
KRYV 271515Z AUTO 18005KT 10SM SCT020 19/15 A2990 RMK AO2 T01920146
KRYW 271515Z AUTO 19012KT 3SM BR OVC013 26/24 A2993 RMK AO2 T02620237
KRYY 271447Z 28006KT 10SM SCT110 26/18 A3006
KRZL 271535Z AUTO 35008KT 10SM BKN010 20/16 A2990 RMK AO2
KRZN 271515Z AUTO 31005KT 10SM CLR 19/08 A2988 RMK AO2 T01930081
KRZR 271515Z AUTO 18008KT 10SM FEW038 SCT060 BKN070 25/19 A3002 RMK A01
KRZT 271535Z AUTO 29007KT 10SM SCT019 BKN028 BKN034 23/18 A2988 RMK AO2
KS25 271515Z AUTO 28008KT 10SM CLR 17/06 A2987 RMK AO2
KS32 271535Z AUTO 26015KT 10SM CLR 20/06 A2983 RMK AO2
KS39 271515Z AUTO 10SM CLR 14/03 A3017 RMK AO2
KSAA 271515Z AUTO 33006KT 10SM SCT011 SCT018 OVC026 06/05 A3020 RMK AO2
KSAC 271458Z 23010KT 10SM CLR A3006 RMK AO2 $
KSAD 271451Z AUTO 00000KT 10SM CLR 22/M07 A3004 RMK AO2 SLP124 T02171072 51017
KSAF 271453Z 25016KT 10SM CLR 18/M07 A3011 RMK AO2 SLP099 T01831067 51003
KSAN 271451Z 35005KT 10SM FEW020 BKN039 18/13 A3006 RMK AO2 SLP178 T01780133 53015
KSAR 271515Z AUTO 15003KT 10SM OVC044 25/20 A2989 RMK AO2 T02460199
KSAT 271451Z 16012KT 8SM OVC020 27/23 A2991 RMK AO2 SLP110 T02720228 50010
KSAV 271453Z 26008KT 10SM FEW220 30/16 A3004 RMK AO2 SLP171 T03000161 58005 $
KSAW 271445Z 22008KT 10SM SKC 19/14 A2983
KSAZ 271532Z AUTO 21008KT 10SM CLR 19/07 A2986 RMK AO2
KSBA 271453Z 13003KT 10SM CLR 15/12 A3005 RMK AO2 SLP174 T01500122 53016
KSBD 271450Z 22005KT 5SM HZ BKN050 16/09 A3005
KSBM 271453Z AUTO 12004KT 10SM CLR 19/13 A2990 RMK AO2 SLP123 T01940133 56007
KSBN 271454Z 02004KT 10SM OVC011 17/16 A2992 RMK AO2 SLP131 T01720156 51010
KSBO 271515Z AUTO 29006KT 10SM CLR 28/18 A3006 RMK AO2
KSBP 271456Z 31003KT 10SM CLR 14/10 A3007 RMK AO2 SLP183 T01390100 51009
KSBY 271454Z 18004KT 10SM SCT065 24/14 A2991 RMK AO2 SLP132 T02390139 51001
KSCD 271515Z AUTO 22004KT 10SM OVC009 23/23 A3009 RMK AO2 T02270226
KSCF 271515Z AUTO VRB03G10KT 7SM SCT019 27/24 A3006 RMK A01
KSCH 271447Z AUTO 05008KT 15SM SCT027 SCT250 17/09 A2910
KSCK 271455Z 29007KT 10SM BKN055 14/10 A3007 RMK AO2 SLP181 T01390100 51013
KSCR 271515Z AUTO 21003KT 10SM CLR 27/18 A2996 RMK AO2 T02650177
KSDA 271535Z AUTO 35003KT 10SM BKN014 OVC019 15/14 A2991 RMK AO2
KSDB 271453Z AUTO 00000KT 10SM CLR 14/06 A3009 RMK AO2 SLP156 T01390061 53013
KSDF 271459Z 22007KT 6SM HZ OVC016 24/21 A2988 RMK AO2 T02440206
KSDL 271453Z 15004KT 10SM CLR 25/M03 A2997 RMK AO2 SLP123 T02501028 51015
KSDM 271453Z COR VRB04KT 10SM BKN033 17/13 A3004 RMK AO2 SLP170 T01720128 53015
KSDY 271456Z AUTO 27011KT 10SM SCT085 16/04 A2989 RMK AO2 SLP125 T01610044 52000
KSEA 271453Z 18003KT 10SM FEW200 18/09 A3009 RMK AO2 SLP192 T01780089 53012
KSEE 271447Z 00000KT 10SM BKN036 SCT014 16/12 A3004
KSEG 271453Z AUTO 33003KT 10SM OVC100 18/12 A2992 RMK AO2 SLP130 T01780122 58005 PWINO $
KSEM 271535Z AUTO 21010KT 10SM FEW034 BKN045 26/21 A3008 RMK AO2 TSNO
KSEP 271515Z AUTO 19013G20KT 10SM BKN021 29/23 A2989 RMK AO2 T02880227
KSET 271454Z AUTO 04008KT 10SM CLR 24/19 A2987 RMK AO2 SLP111 T02390189 50001 $
KSEZ 271515Z AUTO 13004KT 10SM CLR 20/M01 A3012 RMK AO2
KSFB 271453Z VRB03KT 10SM CLR 27/16 A3009 RMK AO2 SLP187 T02720156 50003
KSFF 271453Z 00000KT 10SM CLR 16/08 A3012 RMK AO2 SLP190 T01610083 53016
KSFM 271456Z AUTO VRB04KT 10SM BKN035 17/08 A2986 RMK AO2 SLP121 T01670083 53007
KSFO 271456Z 22006KT 10SM FEW017 OVC019 13/08 A3010 RMK AO2 SLP191 T01330078 53013
KSFQ 271515Z AUTO 24004KT 10SM BKN110 26/16 A2992 RMK AO2 T02620162
KSFY 271515Z AUTO 00000KT 7SM OVC006 16/14 A2994 RMK AO2 T01550139
KSFZ 271533Z AUTO VRB04KT 10SM BKN028 16/11 A2987 RMK AO2
KSGF 271452Z 18008KT 10SM SCT017 BKN021 25/22 A2987 RMK AO2 SLP100 T02500217 53011
KSGH 271456Z AUTO 29005KT 7SM OVC015 21/19 A2988 RMK AO2 SLP114 T02110189 51006
KSGJ 271456Z 21003KT 10SM CLR 28/17 A3009 RMK AO2 SLP187 T02780172 58003
KSGR 271453Z 20014KT 10SM OVC022 30/24 A2993 RMK AO2 SLP137 T03000239 51006
KSGS 271534Z AUTO 30006KT 10SM CLR 21/06 A2989 RMK AO2 T02060064
KSGT 271535Z AUTO 20011KT 10SM OVC016 27/18 A2993 RMK AO1
KSGU 271456Z AUTO 34003KT 10SM CLR 21/02 A3004 RMK AO2 SLP141 T02060022 51019
KSHD 271515Z AUTO 18006KT 10SM BKN100 24/16 A2992 RMK AO2 T02370160
KSHL 271535Z AUTO 36003KT 8SM -RA CLR 14/11 A2994 RMK AO2
KSHM 271458Z AUTO 01013G21KT 10SM FEW040 12/03 A3010 RMK AO2 SLP150 T01170027 51013 $
KSHN 271453Z AUTO 00000KT 10SM CLR 17/11 A3006 RMK AO2 SLP178 T01670111 53010
KSHR 271453Z AUTO 33010KT 10SM CLR 16/05 A3009 RMK AO2 SLP179 T01560050 51010
KSHV 271525Z 20010KT 10SM BKN016 BKN024 OVC046 28/24 A2992 RMK AO2 T02780244
KSIF 271515Z AUTO 23005KT 10SM CLR 27/18 A2995 RMK AO2 T02660180
KSIK 271535Z AUTO 20011G16KT 10SM BKN050 26/20 A2988 RMK AO2
KSIY 271453Z AUTO 00000KT 10SM CLR 13/07 A3012 RMK AO2 SLP195 T01280067 51016
KSJC 271453Z 00000KT 10SM FEW012 BKN023 OVC031 14/10 A3009 RMK AO2 SLP189 T01440100 53013
KSJN 271454Z AUTO 00000KT 10SM CLR 16/M05 A3014 RMK AO2 SLP130 T01611050 51012 TSNO
KSJS 271515Z AUTO 26007G14KT 10SM SCT028 BKN075 OVC085 24/18 A2995 RMK AO2 T02360181
KSJT 271507Z 20016KT 7SM SCT028 30/21 A2989 RMK AO2 T03000211 $
KSJX 271536Z AUTO 27006KT 10SM CLR 21/11 A2989 RMK AO2 T02080106
KSKA 271458Z AUTO 18004KT 10SM CLR 15/07 A3012 RMK AO2 SLP195 T01520072 52017
KSKF 271533Z AUTO 18010KT 9SM BKN021 29/23 A2988 RMK AO2 CIG 019V024 BKN V SCT SLP110
KSKX 271535Z AUTO 22008KT 10SM CLR 16/M06 A3014 RMK AO1
KSLB 271535Z AUTO 05005KT 10SM CLR 19/09 A2993 RMK AO2
KSLC 271454Z 33004KT 10SM FEW050 13/03 A3020 RMK AO2 SLP199 T01330033 51017
KSLE 271456Z 11003KT 10SM CLR 17/11 A3006 RMK AO2 SLP176 T01670106 51015
KSLG 271535Z AUTO 20012KT 10SM OVC018 26/21 A2986 RMK AO1
KSLH 271534Z AUTO 06005KT 10SM CLR 18/13 A2988 RMK AO2 T01890131
KSLI 271458Z 27003KT 8SM FEW010 SCT045 18/11 A3005 RMK AO2A SLP179 T01770109 52014
KSLK 271526Z AUTO 10007KT 10SM BKN023 OVC070 15/10 A2990 RMK AO2 T01500100
KSLN 271453Z 11010KT 10SM CLR 17/15 A2983 RMK AO2 LTG DSNT E AND SE RAE34 TSB05E20 SLP091 P0004 60009 T01720150 58016
KSLO 271515Z AUTO 35007KT 10SM CLR 26/18 A2988 RMK AO2 T02560183
KSLR 271515Z AUTO 20010KT 7SM OVC017 28/24 A2990 RMK AO2 T02750235
KSME 271515Z AUTO 27007KT 10SM BKN026 OVC070 23/17 A2998 RMK AO2
KSMF 271453Z 17008KT 10SM CLR 14/10 A3005 RMK AO2 SLP174 T01390100 52014
KSMN 271535Z AUTO 26003KT 10SM CLR 12/04 A3021 RMK AO1
KSMO 271451Z COR 26005KT 10SM BKN038 16/11 A3005 RMK AO2 SLP176 T01560111 53014
KSMP 271456Z AUTO 00000KT 10SM CLR 15/02 A3016 RMK AO2 SLP192 T01500022 53009
KSMQ 271453Z AUTO 10SM SCT034 22/14 A2987 RMK AO2 SLP114 T02170139 50001
KSMS 271535Z AUTO 23007G13KT 180V250 10SM CLR 29/19 A2999 RMK AO2
KSMX 271451Z 00000KT 10SM FEW003 12/11 A3008 RMK AO2 SLP189 T01220106 53013 $
KSNA 271531Z 00000KT 10SM SCT023 17/11 A3006 RMK AO2 T01720111
KSNC 271535Z AUTO 34008KT 10SM OVC029 17/09 A2988 RMK AO2
KSNH 271515Z AUTO 20011G16KT 10SM OVC018 25/21 A2996 RMK A01
KSNK 271515Z AUTO 20011KT 10SM CLR 29/19 A2990 RMK AO2 T02850193
KSNL 271515Z AUTO 20016G24KT 10SM CLR 29/23 A2975 RMK AO2 T02850226
KSNS 271512Z 25003KT 10SM BKN019 BKN024 14/09 A3010 RMK AO2 T01440094
KSNT 271451Z AUTO 00000KT 01/01 A3029 RMK AO1 SLP223 T00110006 51012
KSNY 271523Z AUTO 33011KT 10SM SCT013 BKN019 OVC090 11/08 A3007 RMK AO2 T01060083
KSOA 271515Z AUTO 23009KT 6SM HZ BKN015 BKN019 BKN025 27/24 A2999 RMK AO2
KSOP 271456Z AUTO VRB04KT 10SM CLR 28/17 A2996 RMK AO2 SLP157 T02830172 58003
KSOW 271535Z AUTO 21010KT 10SM CLR 17/M06 A3020 RMK AO2
KSPA 271535Z AUTO 23009KT 10SM CLR 27/17 A2999 RMK AO2
KSPB 271453Z AUTO 00000KT 10SM CLR 16/11 A3005 RMK AO2 SLP177 T01610111 51013
KSPD 271456Z AUTO 36016KT 15/11 A2999 RMK AO1 SLP107 T01500106 51017
KSPF 271455Z AUTO 30012KT 10SM CLR 14/04 A3005 RMK AO2
KSPG 271453Z 09007KT 10SM CLR 27/18 A3009 RMK AO2 SLP189 T02670178 51013
KSPI 271520Z VRB03KT 10SM SCT015 22/17 A2990 RMK AO2 T02170172
KSPR 271515Z AUTO 19010KT 5SM BR BKN024 27/25 A3005 RMK A01
KSPS 271452Z AUTO 21013KT 10SM CLR 29/22 A2979 RMK AO2 SLP073 T02940222 51008
KSPW 271453Z AUTO 30009KT 10SM BKN100 17/12 A2995 RMK AO2 SLP140 T01720117 53013 $
KSQI 271456Z 00000KT 5SM BR OVC004 16/15 A2994 RMK AO2 SLP157 6//// T01560150 53003 PNO $
KSQL 271447Z 00000KT 10SM BKN023 13/09 A3010
KSRB 271515Z AUTO VRB05G10KT 10SM BKN023 24/19 A3000 RMK A01
KSRC 271532Z AUTO 19011KT 9SM BKN018 BKN035 27/24 A2991 RMK AO2
KSRQ 271453Z 00000KT 10SM CLR 27/16 A3009 RMK AO2 SLP189 T02720161 51011
KSRR 271515Z AUTO 29015G22KT 10SM CLR 20/M08 A3018 RMK AO2
KSSC 271458Z AUTO 25011KT 10SM CLR 28/18 A2996 RMK AO2 SLP145 T02790183 58002 $
KSSF 271453Z 17013KT 5SM HZ OVC020 29/23 A2989 RMK AO2 SLP108 T02890228 51010 $
KSSI 271453Z AUTO 25006KT 10SM -RA CLR 28/17 A3005 RMK AO2 RAE34B51 SLP177 P0000 60000 T02780172 58005
KSTC 271453Z 25004KT 10SM CLR 18/08 A2990 RMK AO2 SLP130 T01830083 51007
KSTE 271515Z AUTO 21005KT 10SM CLR 19/13 A2988 RMK AO2 T01940133
KSTF 271535Z AUTO 20008KT 10SM BKN060 26/22 A3003 RMK AO2
KSTJ 271453Z 00000KT 10SM -RA OVC110 17/16 A2985 RMK AO2 LTG DSNT N AND SE TSE08B15E30 SLP103 P0008 60035 T01670161 58023
KSTL 271451Z 07005KT 10SM FEW030 SCT150 26/17 A2988 RMK AO2 SLP107 T02560172 53000
KSTP 271453Z 29007KT 10SM CLR 19/08 A2989 RMK AO2 SLP118 T01940078 53000
KSTS 271453Z 14003KT 7SM OVC011 11/09 A3008 RMK AO2 SLP180 T01060089 53012
KSUA 271447Z VRB04KT 7SM SCT035 30/24 A3009
KSUE 271456Z AUTO VRB03KT 7SM CLR 21/13 A2988 RMK AO2 SLP137 T02060128 56008
KSUN 271447Z 32005KT 10SM SKC 08/02 A3023
KSUS 271454Z 08006KT 10SM SCT150 25/18 A2986 RMK AO2 SLP104 T02500183 56002
KSUT 271525Z AUTO 24009KT 10SM CLR 27/20 A2998 RMK AO2 T02650200
KSUU 271458Z AUTO 24018G22KT 10SM CLR 14/09 A3004 RMK AO2 SLP179 T01360091 52012 $
KSUX 271452Z 03006KT 10SM FEW075 OVC100 16/11 A2992 RMK AO2 SLP130 T01610106 50002
KSVC 271535Z AUTO 27011G17KT 10SM CLR 21/M04 A3016 RMK AO2 T02121045
KSVE 271535Z AUTO 00000KT 10SM -RA CLR 17/01 A3017 RMK AO2
KSVH 271515Z AUTO 23005KT 10SM CLR 27/18 A2997 RMK AO2 T02720181
KSVN 271458Z AUTO 25004KT 10SM CLR 29/21 A3002 RMK AO2 SLP168 T02920206 58004
KSWF 271445Z 00000KT 20SM SCT020 BKN035 19/13 A2989
KSWO 271531Z 12008KT 10SM BKN020 BKN026 BKN035 28/22 A2975 RMK AO2 T02830222
KSWW 271515Z AUTO 20014KT 10SM CLR 28/21 A2992 RMK AO2 T02790211
KSXS 271528Z AUTO 26006KT 10SM SCT025 BKN250 26/19 A3011 RMK AO2 SLP195
KSXT 271456Z AUTO 11005KT 10SM CLR 16/07 A3011 RMK AO2 SLP158 T01610067 53008
KSXU 271535Z AUTO 25011G16KT 10SM CLR 24/M06 A3001 RMK AO2 T02381064
KSYF 271515Z AUTO 33013G17KT 10SM OVC009 12/10 A3002 RMK AO2 T01230103
KSYI 271515Z AUTO 20007KT 10SM FEW021 23/19 A3001 RMK A01
KSYM 271530Z AUTO 22007KT 10SM SCT021 BKN080 24/19 A2994 RMK AO2
KSYN 271534Z AUTO 32006KT 10SM CLR 21/08 A2990 RMK AO2 T02090078
KSYR 271501Z VRB03KT 10SM -RA OVC009 14/13 A2990 RMK AO2 P0000 T01440133
KSZL 271458Z 09008KT 10SM FEW055 BKN200 25/25 A2986 RMK AO2A SLP107 T02460245 53011 $
KSZT 271515Z AUTO 00000KT 10SM CLR 14/06 A3014 RMK AO2
KT20 271515Z AUTO 18014G19KT 7SM OVC021 30/25 A2990 RMK AO2 T02950248
KT35 271515Z AUTO 17009G15KT 4SM HZ BKN019 BKN024 OVC030 28/24 A2991 RMK AO2 T02750240
KT65 271515Z AUTO 17016G21KT 10SM SCT022 32/24 A2988 RMK AO2 T03160239
KT70 271458Z AUTO 14010KT 9SM OVC010 27/25 A2981 RMK AO2 OVC V BKN SLP082 T02680246 50004 $
KT82 271510Z AUTO 21010KT 3SM BR OVC007 25/22 A2994 RMK AO2 T02450222
KTAD 271454Z AUTO 34006KT 10SM OVC020 13/06 A3008 RMK AO2 SLP129 T01280061 51006 TSNO
KTAN 271522Z AUTO 00000KT 10SM SCT025 OVC031 16/10 A2985 RMK AO2 T01610100
KTAZ 271515Z AUTO 08003KT 10SM OVC010 19/16 A2992 RMK AO2 T01890162
KTBN 271458Z AUTO 10004KT 10SM OVC005 22/21 A2987 RMK AO2 SLP109 T02230206 53002
KTBR 271515Z AUTO 28007KT 230V300 10SM CLR 29/19 A3004 RMK AO2 T02890187
KTBX 271515Z AUTO 33012KT CLR 05/00 A3027 RMK AO2 PWINO
KTCC 271453Z AUTO 26004KT 10SM CLR 24/M03 A2994 RMK AO2 SLP077 T02391033 51013
KTCL 271453Z 20009KT 10SM OVC048 24/21 A3004 RMK AO2 SLP170 T02390206 50008
KTCM 271458Z AUTO 00000KT 10SM CLR 16/11 A3008 RMK AO2 SLP189 T01620112 52012 $
KTCS 271453Z AUTO 31004KT 10SM CLR 23/M05 A3009 RMK AO2 SLP100 T02331050 51013
KTDF 271515Z AUTO 00000KT 10SM CLR 26/17 A2996 RMK AO2
KTDR 271456Z AUTO 25005KT 10SM SCT023 26/21 A3011 RMK AO2 SLP200 T02600209 51011 $
KTDZ 271517Z AUTO 07009KT 10SM SCT023 22/15 A2990 RMK AO2 T02170150
KTEB 271451Z VRB03KT 10SM BKN040 OVC049 22/13 A2985 RMK AO2 SLP109 T02170128 58003
KTEW 271523Z AUTO 00000KT 10SM SCT035 OVC042 20/13 A2992 RMK AO2 T01950133
KTEX 271535Z AUTO 28007KT 10SM CLR 11/M02 A3023 RMK AO2 T01101016
KTFP 271515Z AUTO 7SM BKN014 OVC020 30/25 A2992 RMK AO2 T02950251
KTGI 271517Z AUTO 22003KT 10SM SCT110 23/17 A2992 RMK AO1
KTHA 271515Z AUTO 21006KT 10SM BKN021 BKN027 22/18 A3003 RMK
KTHV 271453Z AUTO 31003KT 10SM -RA BKN042 BKN100 OVC110 18/13 A2992 RMK AO2 RAB25 SLP133 P0000 60000 T01830133 57001 TSNO
KTIF 271515Z AUTO 35007KT 310V010 10SM SCT014 OVC025 13/10 A3002 RMK AO2 T01250102
KTIK 271458Z AUTO 18023KT 10SM CLR 28/22 A2973 RMK AO2 PK WND 21028/29 SLP059 T02750218 58004 $
KTIP 271515Z AUTO 05004KT 5SM BR OVC005 18/17 A2990 RMK AO2 T01780170
KTIW 271455Z 02004KT 10SM CLR 16/09 A3008 RMK AO2 T01610094
KTIX 271450Z VRB04KT 7SM SKC 28/20 A3009
KTKC 271533Z AUTO 23006KT 10SM OVC100 19/10 A2992 RMK AO2 T01870102
KTKI 271453Z 18015G23KT 10SM BKN018 OVC024 28/24 A2985 RMK AO2 SLP101 T02830244 51005
KTKV 271515Z AUTO 00000KT 10SM CLR 19/13 A2988 RMK AO2 T01900132
KTKX 271535Z AUTO 19003KT 3SM BR OVC009 25/23 A2988 RMK AO2
KTLH 271453Z 28007KT 10SM FEW250 27/18 A3010 RMK AO2 SLP190 T02670178 50006
KTMA 271510Z AUTO 24004KT 10SM CLR 27/17 A3008 RMK AO2 T02660173
KTMB 271453Z VRB03KT 10SM FEW025 29/25 A3007 RMK AO2 SLP180 T02890250 50002 $
KTME 271515Z AUTO 18015G20KT 3SM HZ CLR 30/24 A2995 RMK AO2
KTMK 271515Z AUTO 23003KT 7SM OVC005 11/10 A3012 RMK AO2
KTNB 271519Z AUTO 30011G19KT 10SM SCT031 SCT036 BKN060 22/13 A3008 RMK AO2
KTNU 271535Z AUTO 16006KT 10SM CLR 21/16 A2991 RMK AO2 PWINO
KTOA 271455Z 27007KT 10SM FEW025 SCT040 16/12 A3003
KTOB 271533Z AUTO 33007KT 10SM CLR 19/07 A2993 RMK AO2
KTOC 271416Z AUTO 24004KT 10SM CLR 28/19 A3003 RMK AO2
KTOI 271453Z AUTO 27007KT 10SM CLR 25/19 A3011 RMK AO2 SLP191 T02500194 51007
KTOL 271452Z 09007KT 10SM BKN018 19/16 A2989 RMK AO2 SLP120 T01940161 53007
KTOP 271514Z 12003KT 10SM VCTS OVC060 18/17 A2991 RMK AO2 LTG DSNT W-N T01780167
KTOR 271453Z AUTO 34011KT 10SM FEW022 SCT042 12/06 A3006 RMK AO2 SLP167 T01220061 51015
KTPA 271453Z 04003KT 10SM CLR 28/17 A3011 RMK AO2 SLP194 T02780167 51009
KTPF 271515Z AUTO 18005KT 10SM SCT110 29/18 A3011 RMK AO2
KTPH 271456Z AUTO 36011KT 10SM CLR 14/M02 A3018 RMK AO2 SLP165 T01441022 51013
KTPL 271525Z AUTO 18016KT 5SM HZ BKN015 27/24 A2990 RMK AO2
KTQE 271454Z AUTO 08005KT 10SM SCT080 OVC100 17/11 A2992 RMK AO2 LTG DSNT E RAB04E31 SLP125 P0000 60000 T01670106 51011
KTQH 271515Z AUTO 18010G18KT 7SM BKN019 OVC027 26/22 A2983 RMK AO2
KTRI 271453Z 24005KT 10SM FEW043 OVC080 23/17 A3002 RMK AO2 SLP143 T02330172 52005 $
KTRK 271445Z 00000KT 10SM SKC 05/03 A3020
KTRL 271453Z AUTO 19015G21KT 7SM OVC020 28/23 A2987 RMK AO2 RAB19E24 SLP107 P0000 60000 T02780233 50001
KTRM 271452Z AUTO 34009KT 10SM CLR 22/08 A2988 RMK AO2 SLP130 T02220083 53020
KTSP 271515Z AUTO 30010KT 8SM CLR 13/07 A3010 RMK AO2
KTTA 271500Z AUTO 28003KT 10SM CLR 26/17 A2994 RMK AO2 T02550174
KTTD 271453Z VRB03KT 10SM CLR 17/11 A3006 RMK AO2 SLP179 T01670106 53014
KTTF 271515Z AUTO 13007KT 10SM CLR 20/13 A2990 RMK AO2 T02040133
KTTN 271453Z 00000KT 10SM SCT021 BKN120 21/13 A2989 RMK AO2 SLP115 T02060128 50004
KTTS 271458Z AUTO 00000KT 10SM CLR 28/21 A3007 RMK AO2 SLP187 T02750210 50002 $
KTUL 271453Z 00000KT 8SM OVC017 27/23 A2978 RMK AO2 SLP073 T02670233 53009
KTUP 271453Z VRB05KT 10SM FEW022 BKN040 26/20 A2999 RMK AO2 SLP150 T02610200 51008
KTUS 271453Z 15005KT 10SM CLR 23/M02 A3003 RMK AO2 SLP124 T02331017 51013
KTVC 271453Z 04004KT 10SM FEW038 SCT120 21/11 A2988 RMK AO2 SLP117 T02060111 58005
KTVF 271501Z AUTO 21009KT 10SM CLR 18/07 A2979 RMK AO2 SLP090 T01780067 50002
KTVI 271455Z AUTO 25005KT 10SM CLR 27/17 A3010 RMK AO2
KTVK 271515Z AUTO 00000KT 10SM CLR 22/18 A2994 RMK AO2
KTVL 271453Z AUTO 19003KT 10SM CLR 09/01 A3019 RMK AO2 SLP184 T00890011 51008
KTVR 271453Z AUTO 18007KT 10SM FEW017 OVC055 26/23 A2999 RMK AO2 SLP160 T02560228 50003
KTVY 271515Z AUTO 35003KT 10SM SCT031 12/05 A3022 RMK AO2
KTWF 271453Z 00000KT 10SM CLR 12/07 A3020 RMK AO2 SLP203 T01220072 53015
KTWM 271534Z AUTO 28006KT 10SM CLR 21/10 A2983 RMK AO2
KTXK 271453Z 20009KT 8SM OVC016 26/24 A2990 RMK AO2 SLP120 T02610239 50003
KTYQ 271515Z AUTO 34006KT 10SM BKN012 OVC018 19/17 A2990 RMK AO2 T01870169
KTYR 271510Z 20011KT 5SM HZ FEW014 BKN028 OVC038 27/24 A2991 RMK AO2 T02720244
KTYS 271453Z 23013KT 10SM BKN080 BKN150 OVC250 24/17 A3001 RMK AO2 SLP150 T02440172 51014
KTZR 271450Z 29008KT 10SM BKN014 BKN018 OVC042 22/19 A2987
KU42 271535Z AUTO 35009KT 10SM CLR 13/07 A3022 RMK AO1 T01260066
KU68 271515Z AUTO 10003KT 10SM CLR 11/04 A3015 RMK AO2
KUAO 271453Z 00000KT 10SM CLR 17/11 A3007 RMK AO2 SLP181 T01720111 53016
KUBE 271515Z AUTO 33004KT 10SM CLR 18/06 A2989 RMK AO2
KUCP 271456Z AUTO VRB03KT 10SM OVC032 17/14 A2992 RMK AO2 SLP144 T01720139 55002
KUCY 271515Z AUTO 24010G15KT 10SM FEW080 25/20 A2990 RMK A01
KUDG 271510Z AUTO 27011KT 10SM FEW002 28/19 A2997 RMK AO2
KUES 271445Z 11004KT 10SM SCT020 18/13 A2993
KUGN 271455Z 10007KT 10SM CLR 17/13 A2992 RMK AO2 SLP129 T01720128 55001
KUIL 271453Z AUTO 00000KT 10SM CLR 13/11 A3008 RMK AO2 SLP185 T01280106 51013
KUIN 271454Z AUTO 09005KT 10SM FEW011 20/17 A2990 RMK AO2 SLP119 T02000167 53003
KUKF 271515Z AUTO 26007G14KT 10SM CLR 25/17 A3002 RMK AO2
KUKI 271456Z AUTO 31003KT 10SM OVC008 12/10 A3008 RMK AO2 SLP182 T01220100 53010
KUKT 271535Z AUTO 32005KT 10SM FEW033 22/13 A2991 RMK AO1
KULM 271534Z AUTO 22005KT 10SM -RA CLR 18/09 A2993 RMK AO2
KUNI 271515Z AUTO 27008KT 10SM SCT017 BKN040 24/19 A2988 RMK AO2 T02380189
KUNO 271453Z AUTO 23004KT 10SM CLR 25/19 A2991 RMK AO2 SLP113 T02500194 51009
KUNU 271515Z AUTO 19003KT 10SM CLR 18/13 A2991 RMK AO2 T01810132
KUNV 271453Z 00000KT 10SM SCT032 BKN048 16/12 A2993
KUOX 271515Z AUTO 22011G16KT 020V030 10SM BKN020 BKN026 26/21 A2999 RMK AO2
KUSE 271515Z AUTO 06004KT 9SM SCT017 BKN024 BKN070 21/16 A2991 RMK AO2
KUTA 271535Z AUTO 22013KT OVC020 26/22 A2994 RMK AO2 TSNO
KUTS 271453Z AUTO 17008KT 6SM HZ BKN020 OVC032 28/23 A2995 RMK AO2 SLP135 T02830233 51011
KUUU 271453Z AUTO 36006KT 10SM OVC033 16/10 A2986 RMK AO2 SLP111 T01560100 51009
KUVA 271515Z AUTO 00000KT 4SM HZ BKN013 OVC018 27/24 A2990 RMK AO2 T02660236
KUXL 271515Z AUTO 17010G14KT 10SM BKN016 BKN021 BKN028 29/25 A3001 RMK AO2 T02920247
KUYF 271535Z AUTO 00000KT 10SM BKN016 BKN023 OVC035 23/19 A2987 RMK AO2
KUZA 271454Z AUTO 29008KT 10SM CLR 27/18 A2999 RMK AO2 SLP144 T02670183 51003 TSNO
KVAD 271458Z AUTO 26003KT 10SM CLR 28/18 A3007 RMK AO2 SLP183 T02760183 50001 $
KVAF 271515Z AUTO 18012KT 4SM BR CLR 27/27 A2999 RMK A01
KVAY 271454Z AUTO 35005KT 10SM SCT038 21/12 A2989 RMK AO2 SLP120 T02110117 58002
KVBG 271458Z AUTO 02003KT 9SM CLR 13/11 A3009 RMK AO2 SLP193 T01320106 52015 TSNO $
KVBS 271205Z AUTO 14007G12KT 040V160 10SM OVC018 27/25 A2995 RMK A01
KVBT 271535Z AUTO 21004KT 10SM BKN019 OVC026 26/22 A2988 RMK AO1
KVBW 271510Z AUTO 11012G16KT 10SM BKN090 BKN110 25/17 A2990 RMK AO2 T02450168
KVCB 271453Z AUTO 22007KT 10SM CLR 16/09 A3006 RMK AO2 SLP178 T01560094 53012 TSNO
KVCT 271520Z 18015G24KT 7SM SCT022 BKN028 30/24 A2993 RMK AO2 T03000239
KVCV 271515Z AUTO 18003KT 10SM CLR 15/06 A3004 RMK AO2
KVDF 271535Z AUTO 00000KT 10SM CLR 29/15 A3011 RMK AO2
KVDI 271515Z AUTO 24007KT 10SM CLR 28/18 A3006 RMK AO2
KVEL 271453Z AUTO 08009KT 10SM SCT090 15/00 A3013 RMK AO2 SLP158 T01500000 51016
KVER 271515Z AUTO 08005KT 10SM CLR 26/15 A2989 RMK AO2 LTG DSNT NW T02600150
KVES 271515Z AUTO 25004KT 10SM SCT018 BKN026 OVC034 22/20 A2987 RMK AO2
KVGT 271453Z AUTO 36007KT 10SM CLR 25/M02 A2997 RMK AO2 SLP144 T02501017 51025
KVIH 271500Z AUTO 10010KT 10SM FEW029 BKN050 24/21 A2987 RMK AO2 T02440211
KVIS 271456Z AUTO 01003KT 10SM CLR 15/11 A3006 RMK AO2 SLP186 T01500111 52016
KVJI 271515Z AUTO 29011G15KT 10SM SCT024 BKN047 OVC070 23/18 A3004 RMK AO2 T02250178
KVKS 271515Z AUTO 18005G10KT 10SM BKN050 28/24 A2997 RMK A01
KVKY 271515Z AUTO 00000KT 10SM CLR 28/24 A3010 RMK A01
KVLD 271453Z VRB03KT 10SM CLR 28/17 A3009 RMK AO2 SLP194 T02780172 51002
KVLL 271533Z AUTO 11003KT 10SM BKN038 21/12 A2994 RMK AO2 T02050115
KVNC 271535Z AUTO 27007KT 10SM CLR 28/19 A3011 RMK AO2
KVNY 271451Z 00000KT 10SM CLR 15/10 A3004 RMK AO2 SLP169 T01500100 53012
KVOA 271515Z AUTO VRB04KT 9SM FEW048 29/24 A3010 RMK A01
KVOK 271458Z AUTO 23003KT 10SM CLR 21/15 A2988 RMK AO2 SLP120 T02080146 53003
KVPC 271453Z AUTO 00000KT 10SM CLR 24/19 A3006 RMK AO2 SLP168 T02440189 53009
KVPS 271455Z 00000KT 10SM SCT025 BKN050 27/21 A3009 RMK AO2A SLP195 T02720207 50009 $
KVPZ 271456Z AUTO 35006KT 10SM OVC019 19/16 A2992 RMK AO2 SLP128 T01940156 50010
KVQQ 271450Z VRB04KT 10SM CLR 28/18 A3009
KVQT 271515Z AUTO VRB03KT 5SM BR BKN019 27/25 A3003 RMK A01
KVRB 271453Z 21004KT 10SM CLR 29/19 A3008 RMK AO2 SLP185 T02890189 50004
KVSF 271454Z AUTO 35006KT 10SM OVC100 17/07 A2989 RMK AO2 SLP123 T01670072 51005
KVTA 271509Z AUTO VRB03KT 10SM BKN015 22/17 A2987 RMK AO2 T02170167
KVTI 271535Z AUTO 24003KT 2SM BR OVC003 57/57 A2992 RMK AO2
KVTN 271519Z AUTO 36005KT 7SM -RA FEW037 FEW045 OVC060 12/09 A3002 RMK AO2 P0006 T01220094
KVUJ 271515Z AUTO 26006KT 28/18 A3000 RMK AO2 T02760177 PWINO
KVUO 271453Z AUTO 22003KT 10SM CLR 16/13 A3006 RMK AO2 SLP179 T01610128 53015
KVVG 271510Z AUTO 00000KT 10SM 28/17 A3000 RMK A01
KVVV 271533Z AUTO 25007KT 10SM CLR 21/07 A2988 RMK AO2
KVWU 271512Z AUTO 26006KT 10SM SCT055 SCT070 BKN090 18/09 A2980 RMK AO2
KVYS 271515Z AUTO 00000KT 7SM BKN009 17/15 A2992 RMK AO2 T01710145
KW13 271515Z AUTO 20006KT 10SM SCT110 24/17 A2992 RMK AO1 T02420170
KW22 271515Z AUTO 23007KT 10SM BKN020 OVC026 19/17 A2992 RMK AO2
KW29 271510Z AUTO 00000KT 10SM SCT110 21/13 A2991 RMK AO2
KW31 271515Z AUTO 25003KT 10SM CLR 25/18 A2992 RMK AO1 T02540180
KW43 271515Z AUTO 26008KT 10SM CLR 14/04 A3008 RMK AO2
KW63 271515Z AUTO 20003KT 10SM BKN085 26/18 A2992 RMK AO1
KW75 271515Z AUTO 00000KT 10SM CLR 25/16 A2991 RMK AO1 T02490163
KW78 271515Z AUTO 22004KT 10SM BKN090 27/17 A2992 RMK AO1 T02660170
KW81 271515Z AUTO 20003KT 10SM CLR 27/13 A2991 RMK AO1 T02650132
KW96 271515Z AUTO 23003KT 10SM CLR 25/16 A2990 RMK AO1 T02530161
KW99 271515Z AUTO 00000KT 10SM -RA OVC044 18/16 A2994 RMK AO2 T01770156
KWAL 271454Z AUTO 14006KT 10SM CLR 22/13 A2993 RMK AO2 SLP133 T02220133 53001
KWDG 271450Z 07003KT 10SM SCT030 SCT036 28/22 A2975
KWDR 271515Z AUTO 26005KT 10SM CLR 27/18 A3008 RMK AO1
KWHP 271500Z 00000KT 10SM SKC 14/08 A3007
KWJF 271456Z 21003KT 10SM CLR 16/07 A3003 RMK AO2 SLP161 T01560072 53013
KWLD 271532Z AUTO 02011KT 10SM BKN020 BKN050 24/20 A2982 RMK AO2 T02440200
KWMC 271456Z AUTO 10006KT 10SM CLR 13/02 A3018 RMK AO2 SLP194 T01280022 51010
KWRB 271458Z AUTO 26009KT 10SM CLR 28/11 A3005 RMK AO2 SLP176 T02780113 50002
KWRI 271458Z AUTO 32003KT 10SM SCT034 BKN150 20/13 A2987 RMK AO2 SLP114 T02030130 50000
KWRL 271453Z AUTO 00000KT 10SM CLR 10/06 A3014 RMK AO2 SLP201 T01000061 51012
KWST 271519Z AUTO VRB04KT 10SM OVC031 17/09 A2988 RMK AO2 T01670094 $
KWVI 271528Z AUTO 05004KT 10SM BKN010 13/11 A3011 RMK AO2 T01280106
KWVL 271514Z AUTO 01008KT 10SM SCT026 13/08 A2983 RMK AO2
KWWD 271456Z AUTO 27005KT 10SM FEW055 19/13 A2993 RMK AO2 SLP136 T01890133 51004
KWWR 271515Z AUTO 35004KT 10SM SCT025 23/16 A2983 RMK AO2
KX60 271535Z AUTO 15003KT 10SM CLR 29/17 A3010 RMK A01
KXBP 271515Z AUTO 21010KT 10SM OVC023 29/23 A2986 RMK AO2 T02900228
KXIH 271515Z AUTO 22010G17KT 5SM HZ BKN014 29/25 A2997 RMK A01
KXLL 271515Z AUTO 28004KT 10SM SCT032 21/13 A2991 RMK AO2
KXMR 271458Z AUTO 00000KT 10SM SCT023 30/21 A3007 RMK AO2 SLP186 T02960211 50001 $
KXNA 271453Z 18009KT 10SM OVC019 26/23 A2985 RMK AO2 SLP090 T02610228 58001
KXPY 271515Z AUTO 19007KT 6SM HZ SCT014 BKN021 28/24 A3006 RMK A01
KXSA 271515Z AUTO 14003KT 10SM CLR 26/14 A2992 RMK AO2 T02590144
KXVG 271536Z AUTO 22005KT 10SM CLR 18/08 A2985 RMK AO2
KY19 271535Z AUTO 28014G20KT 10SM CLR 19/06 A2989 RMK AO2
KY23 271515Z AUTO 36005KT 10SM CLR 19/09 A2990 RMK AO2 T01900093
KY31 271533Z AUTO 11003KT 10SM SCT037 21/12 A2990 RMK AO2 T02140117
KY49 271515Z AUTO 24007KT 10SM CLR 19/06 A2983 RMK AO2 T01850064
KY50 271456Z AUTO 26005KT 10SM FEW020 20/15 A2989 RMK AO2 SLP142 6//// T02000150 55004
KY51 271515Z AUTO 22003KT 7SM BKN006 17/15 A2991 RMK AO1 T01670148
KY63 271534Z AUTO 25009KT 210V330 10SM CLR 20/10 A2988 RMK AO2 T01960095
KY70 271534Z AUTO 14003KT 10SM CLR 21/12 A2992 RMK AO2 T02100117
KYIP 271453Z 14006KT 10SM CLR 21/13 A2991 RMK AO2 SLP123 T02110128 53004
KYKM 271453Z 28005KT 10SM CLR 19/08 A3010 RMK AO2 SLP185 T01890083 53013
KYKN 271456Z AUTO 30004KT 10SM FEW037 BKN065 BKN080 14/12 A2996 RMK AO2 SLP156 P0001 60012 T01440117 51010 PWINO $
KYNG 271451Z 04004KT 10SM SCT020 SCT034 BKN150 BKN250 18/13 A2991 RMK AO2 SLP126 T01780128 50003
KZPH 271515Z AUTO 35004KT 10SM CLR 28/14 A3011 RMK AO2 T02840144
KZZV 271453Z AUTO 00000KT 10SM FEW014 OVC023 21/17 A2988 RMK AO2 SLP112 T02110167 50005